Provisional Data: Hammer Creek near Route 322


Please select a monitoring station.
Please select start date.
Please select start date.

Toggle Unit: C/F Toggle Unit: C/F
Sample Time Temperature (C) Temperature (F) Specific Conductivity (mS/cm) pH   Turbidity (NTU+) DO (mg/L)
12/23/2022 12:00:00 AM 5.53 41.954 0.327 7.64 111.97 11.73
12/23/2022 12:15:00 AM 5.53 41.954 0.313 7.63 117.8 11.72
12/23/2022 12:30:00 AM 5.58 42.044 0.306 7.62 116.75 11.68
12/23/2022 12:45:00 AM 5.66 42.188 0.31 7.62 126.25 11.64
12/23/2022 1:00:00 AM 5.73 42.314 0.312 7.62 132.3 11.61
12/23/2022 1:15:00 AM 5.76 42.368 0.304 7.61 150.54 11.61
12/23/2022 1:30:00 AM 5.73 42.314 0.285 7.54 183.73 11.61
12/23/2022 1:45:00 AM 5.69 42.242 0.264 7.47 182.81 11.63
12/23/2022 2:00:00 AM 5.67 42.206 0.25 7.44 203.55 11.62
12/23/2022 2:15:00 AM 5.66 42.188 0.24 7.48 237.92 11.58
12/23/2022 2:30:00 AM 5.66 42.188 0.232 7.41 259.92 11.53
12/23/2022 2:45:00 AM 5.67 42.206 0.226 7.39 303.22 11.48
12/23/2022 3:00:00 AM 5.69 42.242 0.224 7.43 329.34 11.44
12/23/2022 3:15:00 AM 5.73 42.314 0.223 7.39 348.9 11.43
12/23/2022 3:30:00 AM 5.79 42.422 0.22 7.47 363.05 11.4
12/23/2022 3:45:00 AM 5.86 42.548 0.215 7.45 389.16 11.37
12/23/2022 4:00:00 AM 5.94 42.692 0.21 7.47 423.42 11.35
12/23/2022 4:15:00 AM 6.01 42.818 0.206 7.48 384.13 11.34
12/23/2022 4:30:00 AM 6.08 42.944 0.203 7.45 376.38 11.34
12/23/2022 4:45:00 AM 6.15 43.07 0.202 7.46 308.38 11.32
12/23/2022 5:00:00 AM 6.21 43.178 0.202 7.46 353.27 11.31
12/23/2022 5:15:00 AM 6.26 43.268 0.204 7.46 289.58 11.29
12/23/2022 5:30:00 AM 6.31 43.358 0.206 7.47 228.95 11.27
12/23/2022 5:45:00 AM 6.36 43.448 0.209 7.46 205.03 11.25
12/23/2022 6:00:00 AM 6.4 43.52 0.211 7.47 171.2 11.24
12/23/2022 6:15:00 AM 6.44 43.592 0.215 7.46 156.47 11.22
12/23/2022 6:30:00 AM 6.48 43.664 0.218 7.47 138.5 11.2
12/23/2022 6:45:00 AM 6.51 43.718 0.222 7.47 124 11.19
12/23/2022 7:00:00 AM 6.55 43.79 0.226 7.47 113.86 11.18
12/23/2022 7:15:00 AM 6.58 43.844 0.23 7.47 117.17 11.16
12/23/2022 7:30:00 AM 6.6 43.88 0.234 7.48 94.13 11.15
12/23/2022 7:45:00 AM 6.62 43.916 0.238 7.49 85.61 11.15
12/23/2022 8:00:00 AM 6.64 43.952 0.241 7.48 88.36 11.14
12/23/2022 8:15:00 AM 6.67 44.006 0.245 7.49 67.61 11.13
12/23/2022 8:30:00 AM 6.69 44.042 0.248 7.5 69.28 11.13
12/23/2022 8:45:00 AM 6.71 44.078 0.252 7.5 63.71 11.13
12/23/2022 9:00:00 AM 6.73 44.114 0.255 7.5 59.51 11.12
12/23/2022 9:15:00 AM 6.75 44.15 0.258 7.5 55.14 11.12
12/23/2022 9:30:00 AM 6.76 44.168 0.262 7.51 52.34 11.12
12/23/2022 9:45:00 AM 6.77 44.186 0.265 7.51 52.17 11.13
12/23/2022 10:00:00 AM 6.75 44.15 0.269 7.51 47.23 11.14
12/23/2022 10:15:00 AM 6.74 44.132 0.273 7.52 45.76 11.15
12/23/2022 10:30:00 AM 6.72 44.096 0.277 7.53 44.94 11.15
12/23/2022 10:45:00 AM 6.68 44.024 0.279 7.53 47.07 11.16
12/23/2022 11:00:00 AM 6.64 43.952 0.28 7.53 52.91 11.17
12/23/2022 11:15:00 AM 6.57 43.826 0.28 7.53 55.62 11.2
12/23/2022 11:30:00 AM 6.48 43.664 0.281 7.53 57.3 11.24
12/23/2022 11:45:00 AM 6.38 43.484 0.281 7.54 60.31 11.28
12/23/2022 12:00:00 PM 6.31 43.358 0.282 7.54 67.29 11.33
12/23/2022 12:15:00 PM 6.25 43.25 0.282 7.55 62.5 11.37
12/23/2022 12:30:00 PM 6.17 43.106 0.282 7.56 56.61 11.42
12/23/2022 12:45:00 PM 6.09 42.962 0.279 7.55 65.39 11.47
12/23/2022 1:00:00 PM 5.99 42.782 0.275 7.55 139.41 11.52
12/23/2022 1:15:00 PM 5.91 42.638 0.272 7.55 57.73 11.57
12/23/2022 1:30:00 PM 5.78 42.404 0.269 7.55 67.62 11.61
12/23/2022 1:45:00 PM 5.68 42.224 0.267 7.54 446.48 11.67
12/23/2022 2:00:00 PM 5.59 42.062 0.266 7.54 65.34 11.71
12/23/2022 2:15:00 PM 5.49 41.882 0.265 7.54 62.62 11.77
12/23/2022 2:30:00 PM 5.4 41.72 0.266 7.55 58.19 11.83
12/23/2022 2:45:00 PM 5.3 41.54 0.267 7.55 55.94 11.89
12/23/2022 3:00:00 PM 5.18 41.324 0.269 7.56 55.8 11.96
12/23/2022 3:15:00 PM 5.08 41.144 0.271 7.56 93.87 12.02
12/23/2022 3:30:00 PM 4.96 40.928 0.273 7.56 52.02 12.08
12/23/2022 3:45:00 PM 4.87 40.766 0.276 7.56 60.72 12.12
12/23/2022 4:00:00 PM 4.74 40.532 0.279 7.56 46.48 12.16
12/23/2022 4:15:00 PM 4.63 40.334 0.283 7.56 37.5 12.19
12/23/2022 4:30:00 PM 4.52 40.136 0.286 7.56 39.07 12.23
12/23/2022 4:45:00 PM 4.4 39.92 0.29 7.56 41.03 12.28
12/23/2022 5:00:00 PM 4.26 39.668 0.294 7.56 35.42 12.32
12/23/2022 5:15:00 PM 4.14 39.452 0.299 7.57 34.91 12.36
12/23/2022 5:30:00 PM 4.03 39.254 0.302 7.57 34.75 12.39
12/23/2022 5:45:00 PM 3.88 38.984 0.306 7.57 31.01 12.42
12/23/2022 6:00:00 PM 3.78 38.804 0.31 7.57 29.71 12.44
12/23/2022 6:15:00 PM 3.65 38.57 0.314 7.57 29.14 12.46
12/23/2022 6:30:00 PM 3.53 38.354 0.318 7.57 24.7 12.49
12/23/2022 6:45:00 PM 3.42 38.156 0.322 7.57 27.19 12.51
12/23/2022 7:00:00 PM 3.31 37.958 0.326 7.57 24.76 12.52
12/23/2022 7:15:00 PM 3.19 37.742 0.33 7.57 24.22 12.54
12/23/2022 7:30:00 PM 3.11 37.598 0.333 7.58 23.75 12.55
12/23/2022 7:45:00 PM 3.02 37.436 0.337 7.58 23.53 12.57
12/23/2022 8:00:00 PM 2.92 37.256 0.34 7.58 21.62 12.59
12/23/2022 8:15:00 PM 2.85 37.13 0.343 7.58 20.11 12.62
12/23/2022 8:30:00 PM 2.76 36.968 0.345 7.58 38.9 12.65
12/23/2022 8:45:00 PM 2.66 36.788 0.348 7.59 19.92 12.68
12/23/2022 9:00:00 PM 2.57 36.626 0.35 7.59 32.68 12.71
12/23/2022 9:15:00 PM 2.52 36.536 0.352 7.6 17.07 12.73
12/23/2022 9:30:00 PM 2.48 36.464 0.354 7.6 16.42 12.75
12/23/2022 9:45:00 PM 2.42 36.356 0.356 7.6 18.27 12.77
12/23/2022 10:00:00 PM 2.39 36.302 0.357 7.61 14.87 12.79
12/23/2022 10:15:00 PM 2.35 36.23 0.359 7.61 16.32 12.81
12/23/2022 10:30:00 PM 2.29 36.122 0.36 7.61 15.95 12.84
12/23/2022 10:45:00 PM 2.26 36.068 0.361 7.62 14.07 12.87
12/23/2022 11:00:00 PM 2.2 35.96 0.363 7.62 15.01 12.89
12/23/2022 11:15:00 PM 2.14 35.852 0.364 7.62 14.06 12.92
12/23/2022 11:30:00 PM 2.1 35.78 0.366 7.62 12.89 12.94
12/23/2022 11:45:00 PM 2.05 35.69 0.368 7.63 13.87 12.96
12/24/2022 12:00:00 AM 2.01 35.618 0.37 7.63 12.61 12.99
12/24/2022 12:15:00 AM 2 35.6 0.373 7.63 13.44 12.99
12/24/2022 12:30:00 AM 2 35.6 0.376 7.64 13.26 13
12/24/2022 12:45:00 AM 1.98 35.564 0.379 7.65 14.15 13.01
12/24/2022 1:00:00 AM 1.94 35.492 0.381 7.66 12.53 13.02
12/24/2022 1:15:00 AM 1.92 35.456 0.383 7.66 11.43 13.04
12/24/2022 1:30:00 AM 1.9 35.42 0.384 7.66 12.02 13.05
12/24/2022 1:45:00 AM 1.88 35.384 0.385 7.67 12 13.06
12/24/2022 2:00:00 AM 1.84 35.312 0.386 7.67 12.77 13.07
12/24/2022 2:15:00 AM 1.82 35.276 0.387 7.67 11.93 13.08
12/24/2022 2:30:00 AM 1.81 35.258 0.387 7.67 11.56 13.1
12/24/2022 2:45:00 AM 1.79 35.222 0.387 7.68 11.64 13.11
12/24/2022 3:00:00 AM 1.77 35.186 0.388 7.68 10.55 13.12
12/24/2022 3:15:00 AM 1.75 35.15 0.388 7.68 11 13.13
12/24/2022 3:30:00 AM 1.76 35.168 0.389 7.68 10.6 13.13
12/24/2022 3:45:00 AM 1.75 35.15 0.389 7.68 10.18 13.14
12/24/2022 4:00:00 AM 1.74 35.132 0.39 7.69 10.77 13.15
12/24/2022 4:15:00 AM 1.73 35.114 0.391 7.69 13.56 13.16
12/24/2022 4:30:00 AM 1.7 35.06 0.392 7.69 9.67 13.17
12/24/2022 4:45:00 AM 1.68 35.024 0.393 7.69 9.08 13.18
12/24/2022 5:00:00 AM 1.67 35.006 0.394 7.69 12.65 13.19
12/24/2022 5:15:00 AM 1.67 35.006 0.395 7.7 9.21 13.19
12/24/2022 5:30:00 AM 1.65 34.97 0.396 7.7 10.12 13.19
12/24/2022 5:45:00 AM 1.67 35.006 0.397 7.7 9.51 13.19
12/24/2022 6:00:00 AM 1.64 34.952 0.398 7.7 12.01 13.2
12/24/2022 6:15:00 AM 1.63 34.934 0.399 7.71 10.41 13.2
12/24/2022 6:30:00 AM 1.63 34.934 0.399 7.71 9.12 13.21
12/24/2022 6:45:00 AM 1.63 34.934 0.4 7.71 8.52 13.21
12/24/2022 7:00:00 AM 1.64 34.952 0.401 7.71 8.84 13.21
12/24/2022 7:15:00 AM 1.64 34.952 0.402 7.71 8.72 13.22
12/24/2022 7:30:00 AM 1.65 34.97 0.402 7.71 9.36 13.22
12/24/2022 7:45:00 AM 1.65 34.97 0.403 7.72 10.05 13.23
12/24/2022 8:00:00 AM 1.65 34.97 0.403 7.72 9.04 13.24
12/24/2022 8:15:00 AM 1.66 34.988 0.403 7.72 9.64 13.26
12/24/2022 8:30:00 AM 1.66 34.988 0.404 7.72 8.74 13.27
12/24/2022 8:45:00 AM 1.67 35.006 0.404 7.73 9.1 13.3
12/24/2022 9:00:00 AM 1.67 35.006 0.404 7.73 7.75 13.32
12/24/2022 9:15:00 AM 1.68 35.024 0.404 7.73 9.01 13.34
12/24/2022 9:30:00 AM 1.7 35.06 0.404 7.73 8.42 13.36
12/24/2022 9:45:00 AM 1.75 35.15 0.404 7.74 7.58 13.37
12/24/2022 10:00:00 AM 1.81 35.258 0.404 7.74 7.75 13.4
12/24/2022 10:15:00 AM 1.89 35.402 0.404 7.75 7.95 13.43
12/24/2022 10:30:00 AM 1.95 35.51 0.404 7.75 8.55 13.45
12/24/2022 10:45:00 AM 2.02 35.636 0.403 7.76 8.3 13.48
12/24/2022 11:00:00 AM 2.08 35.744 0.403 7.76 7.99 13.51
12/24/2022 11:15:00 AM 2.15 35.87 0.404 7.77 8.15 13.54
12/24/2022 11:30:00 AM 2.2 35.96 0.404 7.77 11.09 13.55
12/24/2022 11:45:00 AM 2.28 36.104 0.404 7.78 8 13.57
12/24/2022 12:00:00 PM 2.37 36.266 0.404 7.79 7.54 13.59
12/24/2022 12:15:00 PM 2.47 36.446 0.404 7.8 8.46 13.6
12/24/2022 12:30:00 PM 2.57 36.626 0.404 7.8 8.58 13.6
12/24/2022 12:45:00 PM 2.66 36.788 0.404 7.81 8.67 13.61
12/24/2022 1:00:00 PM 2.74 36.932 0.404 7.81 9.21 13.61
12/24/2022 1:15:00 PM 2.77 36.986 0.404 7.82 9.43 13.61
12/24/2022 1:30:00 PM 2.85 37.13 0.404 7.83 7.29 13.61
12/24/2022 1:45:00 PM 2.93 37.274 0.405 7.83 7.66 13.6
12/24/2022 2:00:00 PM 2.99 37.382 0.405 7.84 9.22 13.59
12/24/2022 2:15:00 PM 3.04 37.472 0.405 7.84 8.48 13.58
12/24/2022 2:30:00 PM 3.09 37.562 0.405 7.84 10.38 13.56
12/24/2022 2:45:00 PM 3.12 37.616 0.405 7.84 8.59 13.53
12/24/2022 3:00:00 PM 3.15 37.67 0.405 7.84 9.67 13.51
12/24/2022 3:15:00 PM 3.16 37.688 0.404 7.84 11.14 13.48
12/24/2022 3:30:00 PM 3.17 37.706 0.404 7.84 11.54 13.46
12/24/2022 3:45:00 PM 3.18 37.724 0.404 7.84 9.69 13.43
12/24/2022 4:00:00 PM 3.2 37.76 0.404 7.84 10.82 13.39
12/24/2022 4:15:00 PM 3.23 37.814 0.404 7.83 12.27 13.33
12/24/2022 4:30:00 PM 3.23 37.814 0.404 7.82 14.21 13.27
12/24/2022 4:45:00 PM 3.23 37.814 0.403 7.82 13.84 13.22
12/24/2022 5:00:00 PM 3.23 37.814 0.403 7.81 15.13 13.16
12/24/2022 5:15:00 PM 3.22 37.796 0.402 7.81 14.28 13.13
12/24/2022 5:30:00 PM 3.17 37.706 0.402 7.8 13.65 13.1
12/24/2022 5:45:00 PM 3.14 37.652 0.402 7.8 14.64 13.08
12/24/2022 6:00:00 PM 3.11 37.598 0.402 7.8 16.62 13.06
12/24/2022 6:15:00 PM 3.08 37.544 0.402 7.79 16.32 13.04
12/24/2022 6:30:00 PM 3.04 37.472 0.402 7.79 17.19 13.03
12/24/2022 6:45:00 PM 3.01 37.418 0.401 7.78 17.29 13.02
12/24/2022 7:00:00 PM 2.97 37.346 0.401 7.78 15.94 13.01
12/24/2022 7:15:00 PM 2.95 37.31 0.401 7.78 13.91 13
12/24/2022 7:30:00 PM 2.92 37.256 0.401 7.77 12.35 12.99
12/24/2022 7:45:00 PM 2.89 37.202 0.401 7.77 11.33 12.99
12/24/2022 8:00:00 PM 2.85 37.13 0.401 7.77 9.94 12.98
12/24/2022 8:15:00 PM 2.81 37.058 0.401 7.77 9.61 12.98
12/24/2022 8:30:00 PM 2.78 37.004 0.401 7.76 9.71 12.97
12/24/2022 8:45:00 PM 2.75 36.95 0.401 7.76 9.88 12.97
12/24/2022 9:00:00 PM 2.73 36.914 0.402 7.76 10.11 12.97
12/24/2022 9:15:00 PM 2.71 36.878 0.402 7.76 9.24 12.97
12/24/2022 9:30:00 PM 2.69 36.842 0.402 7.76 9.21 12.97
12/24/2022 9:45:00 PM 2.68 36.824 0.402 7.75 9.12 12.97
12/24/2022 10:00:00 PM 2.66 36.788 0.403 7.76 9.01 12.97
12/24/2022 10:15:00 PM 2.66 36.788 0.403 7.75 8.68 12.98
12/24/2022 10:30:00 PM 2.67 36.806 0.403 7.75 8.5 12.98
12/24/2022 10:45:00 PM 2.68 36.824 0.403 7.75 8.86 12.97
12/24/2022 11:00:00 PM 2.7 36.86 0.403 7.75 8.52 12.97
12/24/2022 11:15:00 PM 2.71 36.878 0.403 7.75 8.51 12.96
12/24/2022 11:30:00 PM 2.73 36.914 0.404 7.75 8.24 12.96
12/24/2022 11:45:00 PM 2.74 36.932 0.404 7.76 7.96 12.96
12/25/2022 12:00:00 AM 2.77 36.986 0.404 7.75 8.49 12.95
12/25/2022 12:15:00 AM 2.78 37.004 0.404 7.75 8.39 12.95
12/25/2022 12:30:00 AM 2.8 37.04 0.404 7.75 7.82 12.94
12/25/2022 12:45:00 AM 2.83 37.094 0.405 7.76 8.12 12.93
12/25/2022 1:00:00 AM 2.85 37.13 0.405 7.76 7.95 12.92
12/25/2022 1:15:00 AM 2.87 37.166 0.405 7.76 7.69 12.91
12/25/2022 1:30:00 AM 2.9 37.22 0.405 7.76 8.12 12.91
12/25/2022 1:45:00 AM 2.92 37.256 0.406 7.76 8.31 12.9
12/25/2022 2:00:00 AM 2.93 37.274 0.406 7.76 8.33 12.89
12/25/2022 2:15:00 AM 2.95 37.31 0.406 7.76 8.35 12.88
12/25/2022 2:30:00 AM 2.97 37.346 0.406 7.76 8.37 12.87
12/25/2022 2:45:00 AM 2.98 37.364 0.406 7.76 8.35 12.87
12/25/2022 3:00:00 AM 2.98 37.364 0.407 7.76 8.25 12.86
12/25/2022 3:15:00 AM 3 37.4 0.407 7.76 7.88 12.85
12/25/2022 3:30:00 AM 3.01 37.418 0.407 7.76 8.45 12.85
12/25/2022 3:45:00 AM 3.04 37.472 0.407 7.76 8.01 12.85
12/25/2022 4:00:00 AM 3.06 37.508 0.407 7.76 8.35 12.84
12/25/2022 4:15:00 AM 3.08 37.544 0.407 7.76 8.13 12.83
12/25/2022 4:30:00 AM 3.1 37.58 0.408 7.76 8.17 12.82
12/25/2022 4:45:00 AM 3.11 37.598 0.408 7.76 8.76 12.81
12/25/2022 5:00:00 AM 3.12 37.616 0.408 7.76 8.38 12.81
12/25/2022 5:15:00 AM 3.13 37.634 0.408 7.76 8.3 12.8
12/25/2022 5:30:00 AM 3.14 37.652 0.408 7.76 8.36 12.8
12/25/2022 5:45:00 AM 3.14 37.652 0.408 7.76 8.45 12.79
12/25/2022 6:00:00 AM 3.13 37.634 0.408 7.77 8.19 12.8
12/25/2022 6:15:00 AM 3.13 37.634 0.408 7.77 8.16 12.8
12/25/2022 6:30:00 AM 3.12 37.616 0.409 7.77 8.02 12.8
12/25/2022 6:45:00 AM 3.12 37.616 0.409 7.77 8.33 12.8
12/25/2022 7:00:00 AM 3.12 37.616 0.409 7.77 7.5 12.8
12/25/2022 7:15:00 AM 3.12 37.616 0.409 7.77 7.54 12.81
12/25/2022 7:30:00 AM 3.13 37.634 0.409 7.77 7.48 12.81
12/25/2022 7:45:00 AM 3.15 37.67 0.409 7.77 8.21 12.81
12/25/2022 8:00:00 AM 3.17 37.706 0.409 7.77 7.71 12.82
12/25/2022 8:15:00 AM 3.2 37.76 0.41 7.77 7.35 12.84
12/25/2022 8:30:00 AM 3.23 37.814 0.41 7.78 7.62 12.86
12/25/2022 8:45:00 AM 3.27 37.886 0.41 7.78 7.05 12.88
12/25/2022 9:00:00 AM 3.3 37.94 0.41 7.78 7.16 12.9
12/25/2022 9:15:00 AM 3.34 38.012 0.41 7.79 6.71 12.93
12/25/2022 9:30:00 AM 3.4 38.12 0.41 7.79 6.41 12.96
12/25/2022 9:45:00 AM 3.43 38.174 0.41 7.8 6.08 12.99
12/25/2022 10:00:00 AM 3.47 38.246 0.41 7.8 6.23 13.02
12/25/2022 10:15:00 AM 3.54 38.372 0.41 7.8 6.5 13.04
12/25/2022 10:30:00 AM 3.58 38.444 0.41 7.81 6.54 13.07
12/25/2022 10:45:00 AM 3.63 38.534 0.41 7.81 6.88 13.08
12/25/2022 11:00:00 AM 3.67 38.606 0.41 7.82 6.57 13.09
12/25/2022 11:15:00 AM 3.72 38.696 0.41 7.82 8.19 13.11
12/25/2022 11:30:00 AM 3.78 38.804 0.41 7.82 7.6 13.12
12/25/2022 11:45:00 AM 3.85 38.93 0.41 7.83 8.09 13.14
12/25/2022 12:00:00 PM 3.94 39.092 0.41 7.83 8.34 13.14
12/25/2022 12:15:00 PM 4.01 39.218 0.41 7.84 8.95 13.13
12/25/2022 12:30:00 PM 4.07 39.326 0.41 7.84 10.17 13.11
12/25/2022 12:45:00 PM 4.13 39.434 0.41 7.84 11.29 13.09
12/25/2022 1:00:00 PM 4.19 39.542 0.41 7.84 14.22 13.06
12/25/2022 1:15:00 PM 4.27 39.686 0.41 7.84 13.43 13.04
12/25/2022 1:30:00 PM 4.32 39.776 0.41 7.85 16.53 13.01
12/25/2022 1:45:00 PM 4.38 39.884 0.41 7.85 17.56 12.98
12/25/2022 2:00:00 PM 4.42 39.956 0.41 7.85 17.31 12.96
12/25/2022 2:15:00 PM 4.51 40.118 0.41 7.85 19.03 12.95
12/25/2022 2:30:00 PM 4.56 40.208 0.41 7.86 18.69 12.94
12/25/2022 2:45:00 PM 4.6 40.28 0.41 7.86 18.93 12.91
12/25/2022 3:00:00 PM 4.65 40.37 0.41 7.86 18.12 12.88
12/25/2022 3:15:00 PM 4.65 40.37 0.41 7.86 18.55 12.86
12/25/2022 3:30:00 PM 4.64 40.352 0.41 7.86 19.03 12.83
12/25/2022 3:45:00 PM 4.66 40.388 0.41 7.86 20.03 12.78
12/25/2022 4:00:00 PM 4.65 40.37 0.41 7.86 20.04 12.76
12/25/2022 4:15:00 PM 4.64 40.352 0.411 7.86 20.3 12.74
12/25/2022 4:30:00 PM 4.63 40.334 0.411 7.85 18.83 12.71
12/25/2022 4:45:00 PM 4.61 40.298 0.411 7.85 18.15 12.69
12/25/2022 5:00:00 PM 4.59 40.262 0.412 7.85 18.6 12.67
12/25/2022 5:15:00 PM 4.56 40.208 0.412 7.85 18.96 12.64
12/25/2022 5:30:00 PM 4.53 40.154 0.412 7.85 19.46 12.64
12/25/2022 5:45:00 PM 4.5 40.1 0.412 7.84 19.83 12.63
12/25/2022 6:00:00 PM 4.45 40.01 0.412 7.84 19.84 12.62
12/25/2022 6:15:00 PM 4.4 39.92 0.412 7.84 20.03 12.62
12/25/2022 6:30:00 PM 4.34 39.812 0.412 7.83 19.32 12.62
12/25/2022 6:45:00 PM 4.29 39.722 0.411 7.83 18.26 12.63
12/25/2022 7:00:00 PM 4.23 39.614 0.411 7.83 17.51 12.63
12/25/2022 7:15:00 PM 4.16 39.488 0.411 7.83 16.19 12.65
12/25/2022 7:30:00 PM 4.11 39.398 0.411 7.82 14.48 12.66
12/25/2022 7:45:00 PM 4.04 39.272 0.411 7.82 13.09 12.67
12/25/2022 8:00:00 PM 3.99 39.182 0.411 7.82 12.32 12.68
12/25/2022 8:15:00 PM 3.93 39.074 0.41 7.81 11.88 12.68
12/25/2022 8:30:00 PM 3.88 38.984 0.41 7.81 11.8 12.67
12/25/2022 8:45:00 PM 3.83 38.894 0.41 7.81 11.23 12.68
12/25/2022 9:00:00 PM 3.79 38.822 0.41 7.8 10.95 12.69
12/25/2022 9:15:00 PM 3.75 38.75 0.41 7.8 10.53 12.69
12/25/2022 9:30:00 PM 3.73 38.714 0.41 7.8 10.47 12.69
12/25/2022 9:45:00 PM 3.71 38.678 0.41 7.8 9.57 12.7
12/25/2022 10:00:00 PM 3.68 38.624 0.41 7.8 9.75 12.7
12/25/2022 10:15:00 PM 3.65 38.57 0.41 7.8 8.91 12.71
12/25/2022 10:30:00 PM 3.63 38.534 0.41 7.8 8.93 12.72
12/25/2022 10:45:00 PM 3.61 38.498 0.41 7.79 8.81 12.73
12/25/2022 11:00:00 PM 3.58 38.444 0.41 7.79 8.4 12.74
12/25/2022 11:15:00 PM 3.56 38.408 0.41 7.79 8.82 12.75
12/25/2022 11:30:00 PM 3.54 38.372 0.411 7.79 8.78 12.76
12/25/2022 11:45:00 PM 3.52 38.336 0.411 7.79 8.83 12.77
12/26/2022 12:00:00 AM 3.5 38.3 0.411 7.8 8.82 12.77
12/26/2022 12:15:00 AM 3.48 38.264 0.411 7.79 8.58 12.78
12/26/2022 12:30:00 AM 3.46 38.228 0.411 7.8 9.12 12.79
12/26/2022 12:45:00 AM 3.44 38.192 0.412 7.8 8.61 12.8
12/26/2022 1:00:00 AM 3.44 38.192 0.412 7.8 8.14 12.8
12/26/2022 1:15:00 AM 3.43 38.174 0.412 7.8 8.44 12.81
12/26/2022 1:30:00 AM 3.42 38.156 0.413 7.8 8.41 12.81
12/26/2022 1:45:00 AM 3.41 38.138 0.413 7.8 8.47 12.82
12/26/2022 2:00:00 AM 3.4 38.12 0.413 7.8 8.46 12.83
12/26/2022 2:15:00 AM 3.39 38.102 0.413 7.8 7.98 12.83
12/26/2022 2:30:00 AM 3.4 38.12 0.414 7.8 7.81 12.83
12/26/2022 2:45:00 AM 3.4 38.12 0.414 7.8 7.66 12.84
12/26/2022 3:00:00 AM 3.39 38.102 0.414 7.8 7.82 12.84
12/26/2022 3:15:00 AM 3.39 38.102 0.415 7.8 7.85 12.85
12/26/2022 3:30:00 AM 3.39 38.102 0.415 7.8 7.67 12.85
12/26/2022 3:45:00 AM 3.39 38.102 0.415 7.8 7.69 12.85
12/26/2022 4:00:00 AM 3.39 38.102 0.416 7.8 7.62 12.85
12/26/2022 4:15:00 AM 3.38 38.084 0.416 7.8 7.56 12.85
12/26/2022 4:30:00 AM 3.37 38.066 0.416 7.81 7.78 12.85
12/26/2022 4:45:00 AM 3.36 38.048 0.417 7.81 7.52 12.86
12/26/2022 5:00:00 AM 3.34 38.012 0.417 7.81 7.61 12.86
12/26/2022 5:15:00 AM 3.33 37.994 0.417 7.81 7.66 12.87
12/26/2022 5:30:00 AM 3.31 37.958 0.417 7.81 7.19 12.87
12/26/2022 5:45:00 AM 3.29 37.922 0.417 7.81 7.07 12.88
12/26/2022 6:00:00 AM 3.27 37.886 0.418 7.81 7.19 12.88
12/26/2022 6:15:00 AM 3.26 37.868 0.418 7.81 7.24 12.89
12/26/2022 6:30:00 AM 3.24 37.832 0.418 7.81 7.18 12.9
12/26/2022 6:45:00 AM 3.22 37.796 0.419 7.81 7.27 12.9
12/26/2022 7:00:00 AM 3.2 37.76 0.419 7.81 7.2 12.91
12/26/2022 7:15:00 AM 3.18 37.724 0.419 7.81 6.85 12.92
12/26/2022 7:30:00 AM 3.18 37.724 0.419 7.82 6.92 12.93
12/26/2022 7:45:00 AM 3.16 37.688 0.42 7.82 7.33 12.95
12/26/2022 8:00:00 AM 3.15 37.67 0.42 7.82 7.08 12.96
12/26/2022 8:15:00 AM 3.15 37.67 0.42 7.82 6.75 12.99
12/26/2022 8:30:00 AM 3.14 37.652 0.42 7.82 6.78 13.02
12/26/2022 8:45:00 AM 3.14 37.652 0.42 7.83 6.51 13.04
12/26/2022 9:00:00 AM 3.14 37.652 0.421 7.83 6.59 13.07
12/26/2022 9:15:00 AM 3.15 37.67 0.421 7.83 6.1 13.1
12/26/2022 9:30:00 AM 3.17 37.706 0.421 7.84 5.82 13.12
12/26/2022 9:45:00 AM 3.21 37.778 0.421 7.84 5.99 13.14
12/26/2022 10:00:00 AM 3.23 37.814 0.421 7.84 5.68 13.17
12/26/2022 10:15:00 AM 3.29 37.922 0.421 7.85 5.62 13.2
12/26/2022 10:30:00 AM 3.37 38.066 0.421 7.85 5.36 13.22
12/26/2022 10:45:00 AM 3.44 38.192 0.421 7.86 8.18 13.24
12/26/2022 11:00:00 AM 3.52 38.336 0.421 7.86 6.02 13.27
12/26/2022 11:15:00 AM 3.61 38.498 0.421 7.87 6.47 13.29
12/26/2022 11:30:00 AM 3.69 38.642 0.421 7.87 6.44 13.31
12/26/2022 11:45:00 AM 3.79 38.822 0.421 7.88 6.94 13.32
12/26/2022 12:00:00 PM 3.91 39.038 0.421 7.88 7.06 13.33
12/26/2022 12:15:00 PM 4.03 39.254 0.421 7.89 7.88 13.33
12/26/2022 12:30:00 PM 4.14 39.452 0.421 7.89 9.03 13.31
12/26/2022 12:45:00 PM 4.29 39.722 0.421 7.9 10.97 13.28
12/26/2022 1:00:00 PM 4.42 39.956 0.421 7.9 12.87 13.25
12/26/2022 1:15:00 PM 4.56 40.208 0.421 7.9 15.08 13.2
12/26/2022 1:30:00 PM 4.69 40.442 0.421 7.9 19.3 13.16
12/26/2022 1:45:00 PM 4.78 40.604 0.421 7.91 19.81 13.11
12/26/2022 2:00:00 PM 4.85 40.73 0.421 7.91 20.68 13.07
12/26/2022 2:15:00 PM 4.91 40.838 0.421 7.91 19.51 13.05
12/26/2022 2:30:00 PM 4.98 40.964 0.421 7.92 17.33 13.06
12/26/2022 2:45:00 PM 5.05 41.09 0.42 7.93 14.74 13.08
12/26/2022 3:00:00 PM 5.11 41.198 0.42 7.93 12.23 13.08
12/26/2022 3:15:00 PM 5.16 41.288 0.42 7.94 11.03 13.06
12/26/2022 3:30:00 PM 5.2 41.36 0.421 7.95 9.73 13.03
12/26/2022 3:45:00 PM 5.24 41.432 0.42 7.95 9.22 12.99
12/26/2022 4:00:00 PM 5.27 41.486 0.421 7.95 8.39 12.93
12/26/2022 4:15:00 PM 5.31 41.558 0.421 7.94 8.46 12.88
12/26/2022 4:30:00 PM 5.33 41.594 0.421 7.94 7.89 12.82
12/26/2022 4:45:00 PM 5.34 41.612 0.421 7.93 7.65 12.77
12/26/2022 5:00:00 PM 5.33 41.594 0.421 7.93 7.86 12.72
12/26/2022 5:15:00 PM 5.32 41.576 0.422 7.93 7.62 12.68
12/26/2022 5:30:00 PM 5.28 41.504 0.422 7.92 7.98 12.64
12/26/2022 5:45:00 PM 5.24 41.432 0.422 7.91 7.77 12.62
12/26/2022 6:00:00 PM 5.22 41.396 0.422 7.91 7.59 12.59
12/26/2022 6:15:00 PM 5.19 41.342 0.423 7.9 8.07 12.57
12/26/2022 6:30:00 PM 5.16 41.288 0.423 7.9 7.57 12.56
12/26/2022 6:45:00 PM 5.12 41.216 0.423 7.89 7.47 12.54
12/26/2022 7:00:00 PM 5.07 41.126 0.423 7.89 7.48 12.53
12/26/2022 7:15:00 PM 5.03 41.054 0.423 7.88 7.08 12.52
12/26/2022 7:30:00 PM 5 41 0.423 7.88 7.15 12.51
12/26/2022 7:45:00 PM 4.98 40.964 0.423 7.87 7.45 12.49
12/26/2022 8:00:00 PM 4.96 40.928 0.423 7.87 7.07 12.48
12/26/2022 8:15:00 PM 4.94 40.892 0.424 7.86 7.52 12.46
12/26/2022 8:30:00 PM 4.93 40.874 0.424 7.85 7.22 12.45
12/26/2022 8:45:00 PM 4.91 40.838 0.423 7.85 7.41 12.44
12/26/2022 9:00:00 PM 4.9 40.82 0.423 7.85 7.07 12.43
12/26/2022 9:15:00 PM 4.88 40.784 0.423 7.84 7.37 12.43
12/26/2022 9:30:00 PM 4.87 40.766 0.423 7.84 7.5 12.43
12/26/2022 9:45:00 PM 4.86 40.748 0.422 7.84 7.3 12.43
12/26/2022 10:00:00 PM 4.85 40.73 0.422 7.84 8.04 12.43
12/26/2022 10:15:00 PM 4.84 40.712 0.422 7.84 7.26 12.44
12/26/2022 10:30:00 PM 4.83 40.694 0.422 7.84 8.03 12.44
12/26/2022 10:45:00 PM 4.82 40.676 0.423 7.84 7.21 12.44
12/26/2022 11:00:00 PM 4.81 40.658 0.423 7.84 7.26 12.44
12/26/2022 11:15:00 PM 4.81 40.658 0.423 7.84 7.34 12.44
12/26/2022 11:30:00 PM 4.81 40.658 0.423 7.84 7.39 12.44
12/26/2022 11:45:00 PM 4.8 40.64 0.423 7.84 7.56 12.45
12/27/2022 12:00:00 AM 4.8 40.64 0.423 7.83 7.34 12.44
12/27/2022 12:15:00 AM 4.81 40.658 0.423 7.83 6.96 12.44
12/27/2022 12:30:00 AM 4.81 40.658 0.423 7.83 7.46 12.44
12/27/2022 12:45:00 AM 4.81 40.658 0.423 7.83 8.03 12.44
12/27/2022 1:00:00 AM 4.82 40.676 0.423 7.83 7.06 12.44
12/27/2022 1:15:00 AM 4.82 40.676 0.424 7.83 7.89 12.43
12/27/2022 1:30:00 AM 4.83 40.694 0.424 7.83 7.95 12.43
12/27/2022 1:45:00 AM 4.84 40.712 0.423 7.83 7.4 12.42
12/27/2022 2:00:00 AM 4.84 40.712 0.424 7.83 7.29 12.42
12/27/2022 2:15:00 AM 4.85 40.73 0.424 7.84 7.45 12.42
12/27/2022 2:30:00 AM 4.86 40.748 0.424 7.83 7.43 12.42
12/27/2022 2:45:00 AM 4.87 40.766 0.424 7.84 7.58 12.42
12/27/2022 3:00:00 AM 4.87 40.766 0.424 7.84 7.07 12.42
12/27/2022 3:15:00 AM 4.88 40.784 0.424 7.83 7.4 12.41
12/27/2022 3:30:00 AM 4.88 40.784 0.424 7.84 7.45 12.41
12/27/2022 3:45:00 AM 4.88 40.784 0.424 7.83 7.1 12.42
12/27/2022 4:00:00 AM 4.89 40.802 0.424 7.84 7.41 12.42
12/27/2022 4:15:00 AM 4.89 40.802 0.424 7.83 7.26 12.41
12/27/2022 4:30:00 AM 4.89 40.802 0.424 7.83 7.26 12.42
12/27/2022 4:45:00 AM 4.9 40.82 0.425 7.83 7.3 12.42
12/27/2022 5:00:00 AM 4.9 40.82 0.425 7.84 7.21 12.41
12/27/2022 5:15:00 AM 4.9 40.82 0.425 7.84 7.06 12.41
12/27/2022 5:30:00 AM 4.9 40.82 0.425 7.84 7.49 12.41
12/27/2022 5:45:00 AM 4.91 40.838 0.425 7.84 7.37 12.41
12/27/2022 6:00:00 AM 4.91 40.838 0.425 7.84 6.96 12.41
12/27/2022 6:15:00 AM 4.91 40.838 0.425 7.84 7.25 12.41
12/27/2022 6:30:00 AM 4.91 40.838 0.425 7.84 7.02 12.41
12/27/2022 6:45:00 AM 4.91 40.838 0.425 7.84 6.8 12.41
12/27/2022 7:00:00 AM 4.91 40.838 0.426 7.84 7.13 12.42
12/27/2022 7:15:00 AM 4.91 40.838 0.426 7.84 7.26 12.41
12/27/2022 7:30:00 AM 4.91 40.838 0.426 7.84 7.13 12.42
12/27/2022 7:45:00 AM 4.91 40.838 0.426 7.84 7.43 12.42
12/27/2022 8:00:00 AM 4.91 40.838 0.426 7.84 7.34 12.44
12/27/2022 8:15:00 AM 4.92 40.856 0.426 7.84 7.4 12.45
12/27/2022 8:30:00 AM 4.94 40.892 0.426 7.84 7.36 12.47
12/27/2022 8:45:00 AM 4.96 40.928 0.426 7.85 7.5 12.5
12/27/2022 9:00:00 AM 4.99 40.982 0.426 7.85 7.47 12.53
12/27/2022 9:15:00 AM 5.02 41.036 0.426 7.85 7.49 12.57
12/27/2022 9:30:00 AM 5.06 41.108 0.426 7.86 8.2 12.61
12/27/2022 9:45:00 AM 5.11 41.198 0.426 7.86 8.75 12.64
12/27/2022 10:00:00 AM 5.16 41.288 0.426 7.87 9.04 12.69
12/27/2022 10:15:00 AM 5.21 41.378 0.426 7.87 8.77 12.72
12/27/2022 10:30:00 AM 5.25 41.45 0.426 7.88 8.7 12.75
12/27/2022 10:45:00 AM 5.31 41.558 0.426 7.89 8.24 12.78
12/27/2022 11:00:00 AM 5.37 41.666 0.426 7.89 8.65 12.81
12/27/2022 11:15:00 AM 5.43 41.774 0.426 7.9 8.21 12.84
12/27/2022 11:30:00 AM 5.49 41.882 0.426 7.91 8.28 12.86
12/27/2022 11:45:00 AM 5.54 41.972 0.425 7.91 7.06 12.89
12/27/2022 12:00:00 PM 5.6 42.08 0.425 7.92 7.53 12.91
12/27/2022 12:15:00 PM 5.67 42.206 0.425 7.93 7.98 12.93
12/27/2022 12:30:00 PM 5.74 42.332 0.425 7.94 7.45 12.96
12/27/2022 12:45:00 PM 5.81 42.458 0.425 7.94 7.65 12.99
12/27/2022 1:00:00 PM 5.87 42.566 0.425 7.95 7.83 13
12/27/2022 1:15:00 PM 5.93 42.674 0.425 7.96 7.8 13.01
12/27/2022 1:30:00 PM 6.01 42.818 0.425 7.96 7.6 13.02
12/27/2022 1:45:00 PM 6.06 42.908 0.425 7.97 6.19 13.02
12/27/2022 2:00:00 PM 6.11 42.998 0.425 7.98 5.85 13.03
12/27/2022 2:15:00 PM 6.16 43.088 0.425 7.98 5.67 13.02
12/27/2022 2:30:00 PM 6.21 43.178 0.425 7.99 5.67 13
12/27/2022 2:45:00 PM 6.24 43.232 0.425 7.99 5.91 12.99
12/27/2022 3:00:00 PM 6.27 43.286 0.425 7.99 7.02 12.98
12/27/2022 3:15:00 PM 6.3 43.34 0.425 8 5.5 12.95
12/27/2022 3:30:00 PM 6.33 43.394 0.425 8 5.79 12.91
12/27/2022 3:45:00 PM 6.35 43.43 0.425 7.99 6.45 12.86
12/27/2022 4:00:00 PM 6.34 43.412 0.425 7.99 6.31 12.8
12/27/2022 4:15:00 PM 6.36 43.448 0.425 7.99 8.12 12.74
12/27/2022 4:30:00 PM 6.37 43.466 0.425 7.98 6.57 12.67
12/27/2022 4:45:00 PM 6.37 43.466 0.425 7.98 6.82 12.6
12/27/2022 5:00:00 PM 6.36 43.448 0.425 7.97 7.59 12.53
12/27/2022 5:15:00 PM 6.36 43.448 0.425 7.96 6.03 12.48
12/27/2022 5:30:00 PM 6.36 43.448 0.425 7.95 6.43 12.43
12/27/2022 5:45:00 PM 6.35 43.43 0.425 7.95 6.63 12.38
12/27/2022 6:00:00 PM 6.35 43.43 0.426 7.94 5.88 12.35
12/27/2022 6:15:00 PM 6.34 43.412 0.426 7.93 5.65 12.31
12/27/2022 6:30:00 PM 6.33 43.394 0.426 7.93 6.06 12.28
12/27/2022 6:45:00 PM 6.32 43.376 0.426 7.92 6.1 12.26
12/27/2022 7:00:00 PM 6.31 43.358 0.426 7.92 7.02 12.23
12/27/2022 7:15:00 PM 6.29 43.322 0.426 7.91 5.88 12.21
12/27/2022 7:30:00 PM 6.27 43.286 0.427 7.9 6.15 12.19
12/27/2022 7:45:00 PM 6.24 43.232 0.427 7.9 6.25 12.17
12/27/2022 8:00:00 PM 6.21 43.178 0.427 7.89 5.77 12.16
12/27/2022 8:15:00 PM 6.19 43.142 0.427 7.89 5.96 12.14
12/27/2022 8:30:00 PM 6.16 43.088 0.427 7.88 6.01 12.13
12/27/2022 8:45:00 PM 6.14 43.052 0.427 7.88 5.96 12.11
12/27/2022 9:00:00 PM 6.12 43.016 0.427 7.87 6.14 12.1
12/27/2022 9:15:00 PM 6.1 42.98 0.427 7.87 6.14 12.09
12/27/2022 9:30:00 PM 6.07 42.926 0.428 7.87 6.39 12.09
12/27/2022 9:45:00 PM 6.06 42.908 0.428 7.86 6.21 12.09
12/27/2022 10:00:00 PM 6.04 42.872 0.428 7.86 6.41 12.09
12/27/2022 10:15:00 PM 6.02 42.836 0.428 7.86 6.43 12.08
12/27/2022 10:30:00 PM 6.01 42.818 0.427 7.86 6.23 12.09
12/27/2022 10:45:00 PM 5.99 42.782 0.427 7.85 6.34 12.09
12/27/2022 11:00:00 PM 5.98 42.764 0.427 7.85 6.33 12.09
12/27/2022 11:15:00 PM 5.96 42.728 0.427 7.85 6.55 12.09
12/27/2022 11:30:00 PM 5.95 42.71 0.428 7.85 6.77 12.1
12/27/2022 11:45:00 PM 5.94 42.692 0.427 7.85 6.49 12.11
12/28/2022 12:00:00 AM 5.92 42.656 0.427 7.85 6.71 12.1
12/28/2022 12:15:00 AM 5.91 42.638 0.428 7.85 6.79 12.11
12/28/2022 12:30:00 AM 5.9 42.62 0.428 7.85 6.83 12.11
12/28/2022 12:45:00 AM 5.87 42.566 0.428 7.85 6.73 12.11
12/28/2022 1:00:00 AM 5.83 42.494 0.428 7.85 6.83 12.13
12/28/2022 1:15:00 AM 5.79 42.422 0.428 7.85 6.69 12.13
12/28/2022 1:30:00 AM 5.75 42.35 0.428 7.85 6.52 12.14
12/28/2022 1:45:00 AM 5.71 42.278 0.429 7.85 7.01 12.15
12/28/2022 2:00:00 AM 5.67 42.206 0.429 7.85 7.34 12.16
12/28/2022 2:15:00 AM 5.63 42.134 0.429 7.85 8.37 12.17
12/28/2022 2:30:00 AM 5.58 42.044 0.429 7.85 7.79 12.18
12/28/2022 2:45:00 AM 5.54 41.972 0.429 7.85 7.4 12.19
12/28/2022 3:00:00 AM 5.5 41.9 0.429 7.85 7.55 12.2
12/28/2022 3:15:00 AM 5.46 41.828 0.429 7.85 6.94 12.21
12/28/2022 3:30:00 AM 5.42 41.756 0.429 7.85 7.3 12.22
12/28/2022 3:45:00 AM 5.39 41.702 0.429 7.85 7.09 12.23
12/28/2022 4:00:00 AM 5.36 41.648 0.429 7.85 6.78 12.24
12/28/2022 4:15:00 AM 5.33 41.594 0.429 7.85 7.25 12.24
12/28/2022 4:30:00 AM 5.29 41.522 0.429 7.85 7.03 12.25
12/28/2022 4:45:00 AM 5.25 41.45 0.429 7.85 7.32 12.26
12/28/2022 5:00:00 AM 5.21 41.378 0.43 7.85 7.59 12.28
12/28/2022 5:15:00 AM 5.18 41.324 0.43 7.85 7.61 12.29
12/28/2022 5:30:00 AM 5.14 41.252 0.43 7.85 7.96 12.3
12/28/2022 5:45:00 AM 5.11 41.198 0.43 7.85 7.78 12.31
12/28/2022 6:00:00 AM 5.08 41.144 0.43 7.85 7.27 12.32
12/28/2022 6:15:00 AM 5.05 41.09 0.43 7.85 7.14 12.34
12/28/2022 6:30:00 AM 5.01 41.018 0.431 7.85 7.15 12.35
12/28/2022 6:45:00 AM 4.98 40.964 0.431 7.85 7.13 12.36
12/28/2022 7:00:00 AM 4.95 40.91 0.431 7.85 7.4 12.37
12/28/2022 7:15:00 AM 4.91 40.838 0.431 7.85 7.76 12.39
12/28/2022 7:30:00 AM 4.88 40.784 0.431 7.85 7.73 12.4
12/28/2022 7:45:00 AM 4.85 40.73 0.431 7.85 7.24 12.42
12/28/2022 8:00:00 AM 4.83 40.694 0.432 7.85 7.25 12.44
12/28/2022 8:15:00 AM 4.81 40.658 0.432 7.86 7.22 12.46
12/28/2022 8:30:00 AM 4.78 40.604 0.432 7.86 6.77 12.5
12/28/2022 8:45:00 AM 4.76 40.568 0.432 7.86 6.8 12.53
12/28/2022 9:00:00 AM 4.75 40.55 0.432 7.86 6.67 12.57
12/28/2022 9:15:00 AM 4.74 40.532 0.432 7.87 6.14 12.59
12/28/2022 9:30:00 AM 4.74 40.532 0.432 7.87 6.1 12.64
12/28/2022 9:45:00 AM 4.75 40.55 0.432 7.87 5.9 12.67
12/28/2022 10:00:00 AM 4.78 40.604 0.432 7.88 5.77 12.71
12/28/2022 10:15:00 AM 4.83 40.694 0.432 7.88 5.56 12.75
12/28/2022 10:30:00 AM 4.92 40.856 0.432 7.89 5.77 12.81
12/28/2022 10:45:00 AM 5.01 41.018 0.432 7.9 5.48 12.86
12/28/2022 11:00:00 AM 5.09 41.162 0.432 7.9 5.85 12.9
12/28/2022 11:15:00 AM 5.2 41.36 0.432 7.91 5.85 12.92
12/28/2022 11:30:00 AM 5.3 41.54 0.432 7.92 5.53 12.94
12/28/2022 11:45:00 AM 5.38 41.684 0.432 7.92 5.7 12.96
12/28/2022 12:00:00 PM 5.5 41.9 0.431 7.93 5.29 12.98
12/28/2022 12:15:00 PM 5.63 42.134 0.431 7.94 5.03 13.01
12/28/2022 12:30:00 PM 5.73 42.314 0.431 7.95 5.34 13.02
12/28/2022 12:45:00 PM 5.87 42.566 0.431 7.96 5.25 13.04
12/28/2022 1:00:00 PM 6.03 42.854 0.431 7.97 5.48 13.02
12/28/2022 1:15:00 PM 6.19 43.142 0.431 7.98 5.05 13.01
12/28/2022 1:30:00 PM 6.34 43.412 0.431 7.98 5.3 13
12/28/2022 1:45:00 PM 6.49 43.682 0.43 7.99 5.14 12.98
12/28/2022 2:00:00 PM 6.62 43.916 0.43 8 5.49 12.94
12/28/2022 2:15:00 PM 6.71 44.078 0.43 8 5.22 12.9
12/28/2022 2:30:00 PM 6.8 44.24 0.43 8.01 5.16 12.87
12/28/2022 2:45:00 PM 6.87 44.366 0.43 8.01 5.36 12.83
12/28/2022 3:00:00 PM 6.93 44.474 0.43 8.01 5.67 12.78
12/28/2022 3:15:00 PM 6.97 44.546 0.431 8.01 5.59 12.73
12/28/2022 3:30:00 PM 7.01 44.618 0.431 8.01 6.27 12.65
12/28/2022 3:45:00 PM 7.04 44.672 0.431 8 6.58 12.58
12/28/2022 4:00:00 PM 7.07 44.726 0.431 8 7.39 12.5
12/28/2022 4:15:00 PM 7.07 44.726 0.431 7.99 7.54 12.43
12/28/2022 4:30:00 PM 7.06 44.708 0.432 7.99 7.38 12.37
12/28/2022 4:45:00 PM 7.05 44.69 0.432 7.98 7.1 12.3
12/28/2022 5:00:00 PM 7.03 44.654 0.432 7.98 7.12 12.25
12/28/2022 5:15:00 PM 7.01 44.618 0.432 7.97 6.82 12.2
12/28/2022 5:30:00 PM 6.98 44.564 0.432 7.97 6.97 12.16
12/28/2022 5:45:00 PM 6.95 44.51 0.432 7.96 6.89 12.13
12/28/2022 6:00:00 PM 6.91 44.438 0.432 7.96 6.65 12.11
12/28/2022 6:15:00 PM 6.88 44.384 0.432 7.95 6.5 12.09
12/28/2022 6:30:00 PM 6.84 44.312 0.432 7.95 6.37 12.07
12/28/2022 6:45:00 PM 6.79 44.222 0.432 7.94 6.63 12.06
12/28/2022 7:00:00 PM 6.74 44.132 0.432 7.94 6.46 12.05
12/28/2022 7:15:00 PM 6.7 44.06 0.433 7.93 6.43 12.05
12/28/2022 7:30:00 PM 6.65 43.97 0.433 7.93 6.34 12.04
12/28/2022 7:45:00 PM 6.59 43.862 0.433 7.92 6.51 12.03
12/28/2022 8:00:00 PM 6.54 43.772 0.433 7.92 6.49 12.03
12/28/2022 8:15:00 PM 6.47 43.646 0.433 7.91 6.28 12.03
12/28/2022 8:30:00 PM 6.4 43.52 0.434 7.91 6.3 12.03
12/28/2022 8:45:00 PM 6.33 43.394 0.434 7.9 6.61 12.03
12/28/2022 9:00:00 PM 6.26 43.268 0.434 7.9 6.42 12.04
12/28/2022 9:15:00 PM 6.19 43.142 0.434 7.89 6.33 12.05
12/28/2022 9:30:00 PM 6.12 43.016 0.434 7.89 6.47 12.06
12/28/2022 9:45:00 PM 6.06 42.908 0.434 7.89 6.29 12.07
12/28/2022 10:00:00 PM 6 42.8 0.434 7.88 6.34 12.08
12/28/2022 10:15:00 PM 5.93 42.674 0.434 7.88 6.72 12.09
12/28/2022 10:30:00 PM 5.87 42.566 0.434 7.88 6.97 12.09
12/28/2022 10:45:00 PM 5.82 42.476 0.434 7.88 6.38 12.11
12/28/2022 11:00:00 PM 5.76 42.368 0.434 7.87 6.35 12.14
12/28/2022 11:15:00 PM 5.7 42.26 0.434 7.87 7.83 12.16
12/28/2022 11:30:00 PM 5.63 42.134 0.434 7.87 17.32 12.18
12/28/2022 11:45:00 PM 5.58 42.044 0.434 7.87 8.12 12.2
12/29/2022 12:00:00 AM 5.53 41.954 0.434 7.87 6.38 12.22
12/29/2022 12:15:00 AM 5.47 41.846 0.434 7.87 6.81 12.24
12/29/2022 12:30:00 AM 5.42 41.756 0.435 7.87 6.61 12.25
12/29/2022 12:45:00 AM 5.37 41.666 0.435 7.87 8.1 12.26
12/29/2022 1:00:00 AM 5.33 41.594 0.435 7.87 6.49 12.27
12/29/2022 1:15:00 AM 5.29 41.522 0.435 7.87 6.67 12.29
12/29/2022 1:30:00 AM 5.25 41.45 0.436 7.87 6.83 12.29
12/29/2022 1:45:00 AM 5.21 41.378 0.436 7.87 6.45 12.31
12/29/2022 2:00:00 AM 5.18 41.324 0.436 7.87 6.59 12.32
12/29/2022 2:15:00 AM 5.14 41.252 0.436 7.87 7.41 12.33
12/29/2022 2:30:00 AM 5.11 41.198 0.436 7.87 6.73 12.34
12/29/2022 2:45:00 AM 5.08 41.144 0.436 7.87 6.9 12.35
12/29/2022 3:00:00 AM 5.06 41.108 0.436 7.87 7.16 12.35
12/29/2022 3:15:00 AM 5.04 41.072 0.436 7.87 6.8 12.36
12/29/2022 3:30:00 AM 5.02 41.036 0.437 7.87 7.11 12.37
12/29/2022 3:45:00 AM 5 41 0.437 7.87 6.82 12.38
12/29/2022 4:00:00 AM 4.97 40.946 0.437 7.87 6.73 12.39
12/29/2022 4:15:00 AM 4.95 40.91 0.437 7.87 7.1 12.4
12/29/2022 4:30:00 AM 4.93 40.874 0.437 7.87 6.83 12.41
12/29/2022 4:45:00 AM 4.9 40.82 0.437 7.87 7.25 12.42
12/29/2022 5:00:00 AM 4.87 40.766 0.437 7.87 7.4 12.43
12/29/2022 5:15:00 AM 4.85 40.73 0.438 7.87 7.22 12.44
12/29/2022 5:30:00 AM 4.82 40.676 0.437 7.87 6.91 12.45
12/29/2022 5:45:00 AM 4.79 40.622 0.438 7.87 6.88 12.46
12/29/2022 6:00:00 AM 4.77 40.586 0.438 7.87 6.99 12.47
12/29/2022 6:15:00 AM 4.74 40.532 0.438 7.87 7.07 12.48
12/29/2022 6:30:00 AM 4.71 40.478 0.438 7.87 6.7 12.49
12/29/2022 6:45:00 AM 4.68 40.424 0.438 7.87 6.94 12.51
12/29/2022 7:00:00 AM 4.65 40.37 0.438 7.87 6.84 12.51
12/29/2022 7:15:00 AM 4.63 40.334 0.438 7.87 6.51 12.52
12/29/2022 7:30:00 AM 4.6 40.28 0.438 7.87 6.56 12.54
12/29/2022 7:45:00 AM 4.58 40.244 0.438 7.87 6.59 12.55
12/29/2022 8:00:00 AM 4.57 40.226 0.438 7.87 6.25 12.57
12/29/2022 8:15:00 AM 4.56 40.208 0.438 7.88 6.04 12.6
12/29/2022 8:30:00 AM 4.56 40.208 0.438 7.88 6 12.63
12/29/2022 8:45:00 AM 4.57 40.226 0.439 7.88 5.7 12.67
12/29/2022 9:00:00 AM 4.58 40.244 0.439 7.89 6.2 12.71
12/29/2022 9:15:00 AM 4.6 40.28 0.439 7.89 5.7 12.75
12/29/2022 9:30:00 AM 4.63 40.334 0.439 7.9 5.77 12.79
12/29/2022 9:45:00 AM 4.67 40.406 0.439 7.9 5.66 12.83
12/29/2022 10:00:00 AM 4.72 40.496 0.439 7.91 5.22 12.88
12/29/2022 10:15:00 AM 4.79 40.622 0.439 7.91 5.38 12.91
12/29/2022 10:30:00 AM 4.88 40.784 0.439 7.92 5.16 12.95
12/29/2022 10:45:00 AM 4.97 40.946 0.438 7.93 5.36 12.97
12/29/2022 11:00:00 AM 5.09 41.162 0.438 7.94 5.07 12.99
12/29/2022 11:15:00 AM 5.22 41.396 0.438 7.94 4.93 13.01
12/29/2022 11:30:00 AM 5.33 41.594 0.438 7.95 4.81 13.03
12/29/2022 11:45:00 AM 5.45 41.81 0.438 7.96 4.85 13.04
12/29/2022 12:00:00 PM 5.6 42.08 0.437 7.96 4.87 13.05
12/29/2022 12:15:00 PM 5.74 42.332 0.437 7.97 4.68 13.06
12/29/2022 12:30:00 PM 5.89 42.602 0.437 7.98 4.79 13.06
12/29/2022 12:45:00 PM 6.06 42.908 0.437 7.99 4.88 13.06
12/29/2022 1:00:00 PM 6.24 43.232 0.436 8 4.74 13.07
12/29/2022 1:15:00 PM 6.43 43.574 0.436 8.01 4.97 13.04
12/29/2022 1:30:00 PM 6.61 43.898 0.435 8.02 4.99 13.01
12/29/2022 1:45:00 PM 6.8 44.24 0.435 8.03 4.59 12.99
12/29/2022 2:00:00 PM 6.96 44.528 0.435 8.03 4.65 12.95
12/29/2022 2:15:00 PM 7.09 44.762 0.435 8.04 5.24 12.89
12/29/2022 2:30:00 PM 7.21 44.978 0.435 8.05 5.45 12.85
12/29/2022 2:45:00 PM 7.31 45.158 0.435 8.05 5.26 12.79
12/29/2022 3:00:00 PM 7.4 45.32 0.435 8.05 5.39 12.72
12/29/2022 3:15:00 PM 7.46 45.428 0.434 8.05 5.75 12.66
12/29/2022 3:30:00 PM 7.51 45.518 0.435 8.05 9.01 12.59
12/29/2022 3:45:00 PM 7.54 45.572 0.435 8.05 7.21 12.51
12/29/2022 4:00:00 PM 7.57 45.626 0.434 8.04 9.7 12.44
12/29/2022 4:15:00 PM 7.58 45.644 0.435 8.04 8.93 12.36
12/29/2022 4:30:00 PM 7.58 45.644 0.435 8.03 10.39 12.29
12/29/2022 4:45:00 PM 7.58 45.644 0.435 8.02 12.81 12.21
12/29/2022 5:00:00 PM 7.56 45.608 0.435 8.01 6.28 12.14
12/29/2022 5:15:00 PM 7.54 45.572 0.435 8.01 6.16 12.08
12/29/2022 5:30:00 PM 7.52 45.536 0.435 8 6.45 12.03
12/29/2022 5:45:00 PM 7.49 45.482 0.435 7.99 6.44 11.99
12/29/2022 6:00:00 PM 7.45 45.41 0.435 7.99 6.06 11.96
12/29/2022 6:15:00 PM 7.41 45.338 0.435 7.98 5.95 11.93
12/29/2022 6:30:00 PM 7.36 45.248 0.435 7.97 6.15 11.91
12/29/2022 6:45:00 PM 7.31 45.158 0.435 7.97 6.68 11.9
12/29/2022 7:00:00 PM 7.25 45.05 0.435 7.96 6.45 11.89
12/29/2022 7:15:00 PM 7.2 44.96 0.435 7.96 6.57 11.89
12/29/2022 7:30:00 PM 7.13 44.834 0.435 7.95 5.77 11.89
12/29/2022 7:45:00 PM 7.07 44.726 0.435 7.94 5.71 11.89
12/29/2022 8:00:00 PM 7 44.6 0.435 7.94 5.55 11.88
12/29/2022 8:15:00 PM 6.93 44.474 0.435 7.94 5.59 11.89
12/29/2022 8:30:00 PM 6.85 44.33 0.436 7.93 5.23 11.89
12/29/2022 8:45:00 PM 6.77 44.186 0.436 7.93 5.54 11.9
12/29/2022 9:00:00 PM 6.7 44.06 0.436 7.92 6.29 11.91
12/29/2022 9:15:00 PM 6.63 43.934 0.44 7.91 5.55 11.91
12/29/2022 9:30:00 PM 6.56 43.808 0.44 7.91 5.29 11.93
12/29/2022 9:45:00 PM 6.51 43.718 0.44 7.9 5.59 11.94
12/29/2022 10:00:00 PM 6.48 43.664 0.44 7.9 5.16 11.94
12/29/2022 10:15:00 PM 6.46 43.628 0.44 7.9 5.69 11.95
12/29/2022 10:30:00 PM 6.44 43.592 0.44 7.9 5.51 11.96
12/29/2022 10:45:00 PM 6.42 43.556 0.44 7.89 5.56 11.96
12/29/2022 11:00:00 PM 6.41 43.538 0.44 7.89 4.99 11.97
12/29/2022 11:15:00 PM 6.39 43.502 0.439 7.89 5.16 11.98
12/29/2022 11:30:00 PM 6.38 43.484 0.439 7.88 5.31 11.99
12/29/2022 11:45:00 PM 6.37 43.466 0.439 7.88 5.43 11.99
12/30/2022 12:00:00 AM 6.37 43.466 0.439 7.88 6.23 11.99
12/30/2022 12:15:00 AM 6.34 43.412 0.439 7.88 5.66 12
12/30/2022 12:30:00 AM 6.33 43.394 0.439 7.88 5.85 12.01
12/30/2022 12:45:00 AM 6.3 43.34 0.439 7.88 6.21 12.02
12/30/2022 1:00:00 AM 6.28 43.304 0.439 7.88 5.93 12.02
12/30/2022 1:15:00 AM 6.25 43.25 0.44 7.88 5.8 12.03
12/30/2022 1:30:00 AM 6.22 43.196 0.44 7.88 5.67 12.03
12/30/2022 1:45:00 AM 6.19 43.142 0.44 7.88 5.58 12.04
12/30/2022 2:00:00 AM 6.18 43.124 0.44 7.88 5.88 12.05
12/30/2022 2:15:00 AM 6.18 43.124 0.44 7.88 6.03 12.05
12/30/2022 2:30:00 AM 6.18 43.124 0.432 7.88 6.99 12.05
12/30/2022 2:45:00 AM 6.19 43.142 0.44 7.88 7 12.04
12/30/2022 3:00:00 AM 6.2 43.16 0.44 7.87 6.34 12.03
12/30/2022 3:15:00 AM 6.22 43.196 0.439 7.87 6.1 12.03
12/30/2022 3:30:00 AM 6.22 43.196 0.438 7.87 6.43 12.03
12/30/2022 3:45:00 AM 6.22 43.196 0.435 7.87 6.28 12.03
12/30/2022 4:00:00 AM 6.22 43.196 0.432 7.88 6.42 12.03
12/30/2022 4:15:00 AM 6.21 43.178 0.431 7.88 6.18 12.02
12/30/2022 4:30:00 AM 6.22 43.196 0.44 7.88 5.95 12.02
12/30/2022 4:45:00 AM 6.23 43.214 0.44 7.88 5.87 12.02
12/30/2022 5:00:00 AM 6.24 43.232 0.44 7.88 6.38 12.02
12/30/2022 5:15:00 AM 6.25 43.25 0.439 7.88 6.6 12.02
12/30/2022 5:30:00 AM 6.27 43.286 0.44 7.88 6.27 12.01
12/30/2022 5:45:00 AM 6.28 43.304 0.437 7.88 5.91 12.02
12/30/2022 6:00:00 AM 6.29 43.322 0.436 7.88 5.92 12.01
12/30/2022 6:15:00 AM 6.31 43.358 0.435 7.88 5.91 12.01
12/30/2022 6:30:00 AM 6.33 43.394 0.44 7.88 6.07 12.01
12/30/2022 6:45:00 AM 6.35 43.43 0.441 7.88 7.66 12
12/30/2022 7:00:00 AM 6.37 43.466 0.44 7.88 5.89 12
12/30/2022 7:15:00 AM 6.39 43.502 0.441 7.88 5.87 11.99
12/30/2022 7:30:00 AM 6.4 43.52 0.441 7.88 6.05 11.99
12/30/2022 7:45:00 AM 6.42 43.556 0.441 7.88 5.66 11.99
12/30/2022 8:00:00 AM 6.44 43.592 0.441 7.88 5.66 12.01
12/30/2022 8:15:00 AM 6.48 43.664 0.438 7.89 5.55 12.03
12/30/2022 8:30:00 AM 6.51 43.718 0.441 7.89 5.58 12.06
12/30/2022 8:45:00 AM 6.56 43.808 0.441 7.89 5.43 12.09
12/30/2022 9:00:00 AM 6.61 43.898 0.441 7.9 5.13 12.13
12/30/2022 9:15:00 AM 6.67 44.006 0.441 7.9 5.08 12.16
12/30/2022 9:30:00 AM 6.74 44.132 0.441 7.9 5.77 12.2
12/30/2022 9:45:00 AM 6.82 44.276 0.441 7.91 5.27 12.24
12/30/2022 10:00:00 AM 6.9 44.42 0.44 7.91 5.1 12.28
12/30/2022 10:15:00 AM 6.99 44.582 0.439 7.92 5.6 12.32
12/30/2022 10:30:00 AM 7.07 44.726 0.439 7.93 4.8 12.36
12/30/2022 10:45:00 AM 7.17 44.906 0.439 7.94 4.96 12.41
12/30/2022 11:00:00 AM 7.27 45.086 0.439 7.95 5.04 12.45
12/30/2022 11:15:00 AM 7.36 45.248 0.438 7.95 4.55 12.49
12/30/2022 11:30:00 AM 7.48 45.464 0.438 7.96 4.61 12.53
12/30/2022 11:45:00 AM 7.6 45.68 0.437 7.97 4.51 12.58
12/30/2022 12:00:00 PM 7.72 45.896 0.439 7.98 4.32 12.62
12/30/2022 12:15:00 PM 7.85 46.13 0.439 7.99 4.13 12.64
12/30/2022 12:30:00 PM 7.98 46.364 0.439 8 5.27 12.67
12/30/2022 12:45:00 PM 8.13 46.634 0.44 8.01 4.36 12.71
12/30/2022 1:00:00 PM 8.26 46.868 0.439 8.02 4.33 12.72
12/30/2022 1:15:00 PM 8.39 47.102 0.439 8.03 4.1 12.71
12/30/2022 1:30:00 PM 8.49 47.282 0.439 8.04 3.94 12.7
12/30/2022 1:45:00 PM 8.58 47.444 0.438 8.05 4.35 12.68
12/30/2022 2:00:00 PM 8.64 47.552 0.438 8.05 4.33 12.63
12/30/2022 2:15:00 PM 8.7 47.66 0.438 8.06 4.42 12.59
12/30/2022 2:30:00 PM 8.77 47.786 0.437 8.06 4.62 12.55
12/30/2022 2:45:00 PM 8.83 47.894 0.437 8.06 4.48 12.51
12/30/2022 3:00:00 PM 8.88 47.984 0.437 8.06 4.73 12.45
12/30/2022 3:15:00 PM 8.91 48.038 0.437 8.06 4.76 12.39
12/30/2022 3:30:00 PM 8.92 48.056 0.437 8.06 5.2 12.32
12/30/2022 3:45:00 PM 8.93 48.074 0.437 8.06 5.42 12.24
12/30/2022 4:00:00 PM 8.92 48.056 0.437 8.05 5.44 12.16
12/30/2022 4:15:00 PM 8.91 48.038 0.436 8.04 5.94 12.08
12/30/2022 4:30:00 PM 8.89 48.002 0.436 8.04 5.71 11.99
12/30/2022 4:45:00 PM 8.87 47.966 0.436 8.03 5.73 11.9
12/30/2022 5:00:00 PM 8.85 47.93 0.436 8.02 6.04 11.82
12/30/2022 5:15:00 PM 8.83 47.894 0.436 8.01 6.22 11.74
12/30/2022 5:30:00 PM 8.8 47.84 0.435 8 6.68 11.68
12/30/2022 5:45:00 PM 8.78 47.804 0.435 7.99 6.93 11.64
12/30/2022 6:00:00 PM 8.74 47.732 0.435 7.98 6.62 11.6
12/30/2022 6:15:00 PM 8.7 47.66 0.435 7.97 7.18 11.56
12/30/2022 6:30:00 PM 8.65 47.57 0.435 7.97 6.77 11.54
12/30/2022 6:45:00 PM 8.59 47.462 0.436 7.97 6.64 11.52
12/30/2022 7:00:00 PM -99999.99 -179968 -99999.99 -99999.99 -99999.99 -99999.99
12/30/2022 7:15:00 PM 8.44 47.192 0.435 7.95 6.58 11.51
12/30/2022 7:30:00 PM 8.36 47.048 0.435 7.95 6.24 11.52
12/30/2022 7:45:00 PM -99999.99 -179968 -99999.99 -99999.99 -99999.99 -99999.99
12/30/2022 8:00:00 PM 8.2 46.76 0.437 7.94 6.21 11.51
12/30/2022 8:15:00 PM 8.11 46.598 0.433 7.93 6.39 11.5
12/30/2022 8:30:00 PM 8.01 46.418 0.438 7.93 6.53 11.51
12/30/2022 8:45:00 PM 7.92 46.256 0.426 7.92 6.32 11.52
12/30/2022 9:00:00 PM 7.82 46.076 0.438 7.91 7.17 11.52
12/30/2022 9:15:00 PM 7.73 45.914 0.439 7.91 6.27 11.54
12/30/2022 9:30:00 PM 7.64 45.752 0.439 7.91 5.64 11.54
12/30/2022 9:45:00 PM 7.56 45.608 0.439 7.9 5.97 11.56
12/30/2022 10:00:00 PM 7.49 45.482 0.439 7.9 6.15 11.58
12/30/2022 10:15:00 PM 7.42 45.356 0.434 7.9 5.83 11.59
12/30/2022 10:30:00 PM 7.35 45.23 0.428 7.89 5.5 11.61
12/30/2022 10:45:00 PM 7.28 45.104 0.429 7.89 5.55 11.63
12/30/2022 11:00:00 PM 7.22 44.996 0.427 7.89 5.7 11.65
12/30/2022 11:15:00 PM 7.16 44.888 0.429 7.89 5.38 11.66
12/30/2022 11:30:00 PM 7.1 44.78 0.429 7.89 5.63 11.68
12/30/2022 11:45:00 PM 7.04 44.672 0.429 7.89 5.27 11.69
12/31/2022 12:00:00 AM 6.99 44.582 0.431 7.88 5.45 11.71
12/31/2022 12:15:00 AM 6.94 44.492 0.431 7.88 5.92 11.73
12/31/2022 12:30:00 AM 6.9 44.42 0.43 7.88 7.04 11.75
12/31/2022 12:45:00 AM 6.86 44.348 0.429 7.88 5.69 11.76
12/31/2022 1:00:00 AM 6.82 44.276 0.435 7.88 5.6 11.77
12/31/2022 1:15:00 AM 6.79 44.222 0.436 7.88 6.12 11.78
12/31/2022 1:30:00 AM 6.76 44.168 0.438 7.88 5.64 11.79
12/31/2022 1:45:00 AM 6.74 44.132 0.438 7.88 7.03 11.8
12/31/2022 2:00:00 AM 6.72 44.096 0.438 7.88 5.53 11.8
12/31/2022 2:15:00 AM 6.71 44.078 0.438 7.88 5.78 11.8
12/31/2022 2:30:00 AM 6.71 44.078 0.439 7.88 5.71 11.81
12/31/2022 2:45:00 AM 6.72 44.096 0.439 7.88 5.73 11.8
12/31/2022 3:00:00 AM 6.72 44.096 0.439 7.88 6.02 11.8
12/31/2022 3:15:00 AM 6.73 44.114 0.439 7.88 5.9 11.81
12/31/2022 3:30:00 AM 6.74 44.132 0.439 7.88 6.36 11.8
12/31/2022 3:45:00 AM 6.75 44.15 0.439 7.88 6.33 11.81
12/31/2022 4:00:00 AM 6.76 44.168 0.439 7.88 8.69 11.8
12/31/2022 4:15:00 AM 6.78 44.204 0.44 7.88 5.7 11.8
12/31/2022 4:30:00 AM 6.81 44.258 0.439 7.88 5.99 11.8
12/31/2022 4:45:00 AM 6.83 44.294 0.44 7.88 6.08 11.79
12/31/2022 5:00:00 AM 6.86 44.348 0.44 7.88 5.85 11.78
12/31/2022 5:15:00 AM 6.9 44.42 0.44 7.88 5.51 11.77
12/31/2022 5:30:00 AM 6.93 44.474 0.44 7.88 6.1 11.76
12/31/2022 5:45:00 AM 6.97 44.546 0.44 7.88 5.89 11.76
12/31/2022 6:00:00 AM 7.01 44.618 0.44 7.88 5.71 11.74
12/31/2022 6:15:00 AM 7.04 44.672 0.44 7.88 7.81 11.73
12/31/2022 6:30:00 AM 7.08 44.744 0.44 7.88 5.8 11.71
12/31/2022 6:45:00 AM 7.12 44.816 0.44 7.88 6.1 11.7
12/31/2022 7:00:00 AM 7.16 44.888 0.44 7.88 6.88 11.69
12/31/2022 7:15:00 AM 7.21 44.978 0.44 7.88 6.02 11.67
12/31/2022 7:30:00 AM 7.25 45.05 0.44 7.88 6.17 11.66
12/31/2022 7:45:00 AM 7.29 45.122 0.441 7.88 5.78 11.65
12/31/2022 8:00:00 AM 7.33 45.194 0.44 7.88 6.28 11.63
12/31/2022 8:15:00 AM 7.38 45.284 0.44 7.88 5.69 11.63
12/31/2022 8:30:00 AM 7.44 45.392 0.44 7.88 5.23 11.62
12/31/2022 8:45:00 AM 7.5 45.5 0.44 7.88 5.22 11.62
12/31/2022 9:00:00 AM 7.56 45.608 0.44 7.88 5.05 11.62
12/31/2022 9:15:00 AM 7.63 45.734 0.44 7.89 4.93 11.63
12/31/2022 9:30:00 AM 7.69 45.842 0.44 7.89 5.07 11.64
12/31/2022 9:45:00 AM 7.76 45.968 0.44 7.89 6.22 11.67
12/31/2022 10:00:00 AM 7.83 46.094 0.439 7.9 4.8 11.69
12/31/2022 10:15:00 AM 7.89 46.202 0.439 7.9 4.62 11.71
12/31/2022 10:30:00 AM 7.96 46.328 0.439 7.91 4.81 11.73
12/31/2022 10:45:00 AM 8.03 46.454 0.439 7.91 4.42 11.77
12/31/2022 11:00:00 AM 8.1 46.58 0.439 7.92 4.67 11.8
12/31/2022 11:15:00 AM 8.18 46.724 0.438 7.92 4.46 11.85
12/31/2022 11:30:00 AM 8.26 46.868 0.438 7.93 4.55 11.89
12/31/2022 11:45:00 AM 8.36 47.048 0.438 7.94 4.57 11.95
12/31/2022 12:00:00 PM 8.46 47.228 0.438 7.95 4.41 11.99
12/31/2022 12:15:00 PM 8.54 47.372 0.435 7.96 6.62 12.01
12/31/2022 12:30:00 PM 8.61 47.498 0.432 7.97 4.83 12.02
12/31/2022 12:45:00 PM 8.67 47.606 0.432 7.97 4.68 12
12/31/2022 1:00:00 PM 8.71 47.678 0.431 7.98 4.71 11.96
12/31/2022 1:15:00 PM 8.75 47.75 0.431 7.98 4.46 11.91
12/31/2022 1:30:00 PM 8.79 47.822 0.432 7.98 4.82 11.86
12/31/2022 1:45:00 PM 8.82 47.876 0.436 7.98 8.44 11.82
12/31/2022 2:00:00 PM 8.86 47.948 0.435 7.98 5.47 11.78
12/31/2022 2:15:00 PM 8.9 48.02 0.435 7.97 5.45 11.74
12/31/2022 2:30:00 PM 8.95 48.11 0.434 7.98 5.56 11.72
12/31/2022 2:45:00 PM 8.99 48.182 0.434 7.98 5.74 11.7
12/31/2022 3:00:00 PM 9.04 48.272 0.434 7.98 5.69 11.69
12/31/2022 3:15:00 PM 9.08 48.344 0.433 7.98 4.59 11.65
12/31/2022 3:30:00 PM 9.11 48.398 0.433 7.97 4.57 11.6
12/31/2022 3:45:00 PM 9.14 48.452 0.433 7.97 4.85 11.55
12/31/2022 4:00:00 PM 9.17 48.506 0.433 7.97 4.6 11.49
12/31/2022 4:15:00 PM 9.18 48.524 0.432 7.96 5 11.44
12/31/2022 4:30:00 PM 9.19 48.542 0.432 7.96 4.67 11.4
12/31/2022 4:45:00 PM 9.19 48.542 0.431 7.95 5.93 11.35
12/31/2022 5:00:00 PM 9.19 48.542 0.431 7.94 5.43 11.3
12/31/2022 5:15:00 PM 9.19 48.542 0.431 7.93 5.57 11.26
12/31/2022 5:30:00 PM 9.19 48.542 0.431 7.93 5.26 11.23
12/31/2022 5:45:00 PM 9.18 48.524 0.43 7.92 6.24 11.2
12/31/2022 6:00:00 PM 9.17 48.506 0.43 7.91 5.41 11.17
12/31/2022 6:15:00 PM 9.17 48.506 0.429 7.91 5.55 11.15
12/31/2022 6:30:00 PM 9.15 48.47 0.428 7.9 5.87 11.14
12/31/2022 6:45:00 PM 9.15 48.47 0.427 7.9 5.62 11.12
12/31/2022 7:00:00 PM 9.14 48.452 0.427 7.89 5.78 11.11
12/31/2022 7:15:00 PM 9.12 48.416 0.426 7.88 5.74 11.09
12/31/2022 7:30:00 PM 9.11 48.398 0.426 7.88 5.78 11.08
12/31/2022 7:45:00 PM 9.1 48.38 0.425 7.87 6.1 11.07
12/31/2022 8:00:00 PM 9.08 48.344 0.422 7.87 6.22 11.08
12/31/2022 8:15:00 PM 9.05 48.29 0.42 7.87 7.51 11.06
12/31/2022 8:30:00 PM 9.01 48.218 0.418 7.86 7.24 11.06
12/31/2022 8:45:00 PM 8.98 48.164 0.416 7.85 7.93 11.05
12/31/2022 9:00:00 PM 8.95 48.11 0.415 7.84 8.47 11.05
12/31/2022 9:15:00 PM 8.92 48.056 0.414 7.83 9.16 11.05
12/31/2022 9:30:00 PM 8.88 47.984 0.413 7.83 9.76 11.04
12/31/2022 9:45:00 PM 8.85 47.93 0.412 7.82 9.91 11.04
12/31/2022 10:00:00 PM 8.81 47.858 0.411 7.81 11.21 11.01
12/31/2022 10:15:00 PM 8.78 47.804 0.41 7.81 12.29 10.99
12/31/2022 10:30:00 PM 8.74 47.732 0.409 7.81 13.19 10.97
12/31/2022 10:45:00 PM 8.72 47.696 0.41 7.8 13.59 10.97
12/31/2022 11:00:00 PM 8.69 47.642 0.411 7.79 12.54 10.96
12/31/2022 11:15:00 PM 8.67 47.606 0.41 7.79 12.41 10.96
12/31/2022 11:30:00 PM 8.64 47.552 0.41 7.79 13.81 10.96
12/31/2022 11:45:00 PM 8.6 47.48 0.408 7.79 14.49 10.95
1/1/2023 12:00:00 AM 8.54 47.372 0.407 7.78 15.6 10.93
1/1/2023 12:15:00 AM 8.47 47.246 0.406 7.77 16.68 10.89
1/1/2023 12:30:00 AM 8.4 47.12 0.405 7.77 17.57 10.88
1/1/2023 12:45:00 AM 8.34 47.012 0.404 7.77 17.1 10.88
1/1/2023 1:00:00 AM 8.28 46.904 0.404 7.77 17.12 10.88
1/1/2023 1:15:00 AM 8.24 46.832 0.404 7.76 17.9 10.9
1/1/2023 1:30:00 AM 8.21 46.778 0.404 7.77 13.94 10.91
1/1/2023 1:45:00 AM 8.2 46.76 0.405 7.77 15.73 10.92
1/1/2023 2:00:00 AM 8.19 46.742 0.406 7.77 15.89 10.92
1/1/2023 2:15:00 AM 8.17 46.706 0.406 7.77 14.82 10.94
1/1/2023 2:30:00 AM 8.16 46.688 0.407 7.77 14.31 10.95
1/1/2023 2:45:00 AM 8.15 46.67 0.407 7.78 13.28 10.97
1/1/2023 3:00:00 AM 8.14 46.652 0.406 7.78 12.57 10.98
1/1/2023 3:15:00 AM 8.12 46.616 0.405 7.78 12.73 10.99
1/1/2023 3:30:00 AM 8.1 46.58 0.406 7.78 12.81 11.01
1/1/2023 3:45:00 AM 8.05 46.49 0.406 7.78 12.83 11.02
1/1/2023 4:00:00 AM 7.99 46.382 0.406 7.78 12.91 11.04
1/1/2023 4:15:00 AM 7.95 46.31 0.406 7.78 13.66 11.06
1/1/2023 4:30:00 AM 7.91 46.238 0.405 7.78 12.89 11.07
1/1/2023 4:45:00 AM 7.87 46.166 0.405 7.78 13.15 11.09
1/1/2023 5:00:00 AM 7.84 46.112 0.404 7.78 12.97 11.1
1/1/2023 5:15:00 AM 7.81 46.058 0.403 7.78 12.76 11.12
1/1/2023 5:30:00 AM 7.79 46.022 0.401 7.78 12.24 11.13
1/1/2023 5:45:00 AM 7.77 45.986 0.4 7.78 12.39 11.14
1/1/2023 6:00:00 AM 7.75 45.95 0.398 7.78 11.93 11.17
1/1/2023 6:15:00 AM 7.71 45.878 0.397 7.78 12.13 11.19
1/1/2023 6:30:00 AM 7.68 45.824 0.396 7.78 11.74 11.2
1/1/2023 6:45:00 AM 7.65 45.77 0.396 7.78 11.82 11.22
1/1/2023 7:00:00 AM 7.61 45.698 0.396 7.78 11.73 11.24
1/1/2023 7:15:00 AM 7.57 45.626 0.396 7.79 10.98 11.27
1/1/2023 7:30:00 AM 7.53 45.554 0.397 7.79 15.55 11.3
1/1/2023 7:45:00 AM 7.49 45.482 0.397 7.79 11.39 11.32
1/1/2023 8:00:00 AM 7.45 45.41 0.398 7.8 11.14 11.35
1/1/2023 8:15:00 AM 7.41 45.338 0.399 7.8 9.99 11.39
1/1/2023 8:30:00 AM 7.38 45.284 0.4 7.8 9.89 11.44
1/1/2023 8:45:00 AM 7.37 45.266 0.401 7.81 10.16 11.5
1/1/2023 9:00:00 AM 7.39 45.302 0.402 7.81 10.03 11.57
1/1/2023 9:15:00 AM 7.43 45.374 0.403 7.82 9.61 11.66
1/1/2023 9:30:00 AM 7.46 45.428 0.404 7.83 9.33 11.74
1/1/2023 9:45:00 AM 7.48 45.464 0.404 7.84 8.7 11.81
1/1/2023 10:00:00 AM 7.47 45.446 0.405 7.85 8.83 11.85
1/1/2023 10:15:00 AM 7.48 45.464 0.406 7.85 8.75 11.89
1/1/2023 10:30:00 AM 7.5 45.5 0.407 7.86 8.38 11.95
1/1/2023 10:45:00 AM 7.53 45.554 0.408 7.87 8.74 12
1/1/2023 11:00:00 AM 7.58 45.644 0.409 7.88 8.8 12.06
1/1/2023 11:15:00 AM 7.64 45.752 0.41 7.89 8.05 12.13
1/1/2023 11:30:00 AM 7.7 45.86 0.411 7.9 8.29 12.17
1/1/2023 11:45:00 AM 7.76 45.968 0.412 7.91 7.74 12.23
1/1/2023 12:00:00 PM 7.85 46.13 0.412 7.92 7.64 12.28
1/1/2023 12:15:00 PM 7.97 46.346 0.413 7.93 7.27 12.33
1/1/2023 12:30:00 PM 8.09 46.562 0.413 7.95 8.57 12.38
1/1/2023 12:45:00 PM 8.2 46.76 0.414 7.96 7.21 12.43
1/1/2023 1:00:00 PM 8.33 46.994 0.414 7.97 7.26 12.44
1/1/2023 1:15:00 PM 8.43 47.174 0.414 7.99 6.93 12.48
1/1/2023 1:30:00 PM 8.54 47.372 0.414 8 7.54 12.49
1/1/2023 1:45:00 PM 8.67 47.606 0.415 8.02 6.96 12.52
1/1/2023 2:00:00 PM 8.8 47.84 0.415 8.03 6.91 12.54
1/1/2023 2:15:00 PM 8.91 48.038 0.415 8.04 7.02 12.55
1/1/2023 2:30:00 PM 9.05 48.29 0.415 8.06 7.03 12.55
1/1/2023 2:45:00 PM 9.15 48.47 0.416 8.07 7.06 12.52
1/1/2023 3:00:00 PM 9.2 48.56 0.416 8.07 7.3 12.46
1/1/2023 3:15:00 PM 9.26 48.668 0.416 8.08 7.51 12.38
1/1/2023 3:30:00 PM 9.3 48.74 0.417 8.08 7.43 12.31
1/1/2023 3:45:00 PM 9.32 48.776 0.417 8.08 7.67 12.22
1/1/2023 4:00:00 PM 9.34 48.812 0.418 8.08 7.58 12.13
1/1/2023 4:15:00 PM 9.35 48.83 0.418 8.07 7.91 12.02
1/1/2023 4:30:00 PM 9.33 48.794 0.419 8.07 8.11 11.91
1/1/2023 4:45:00 PM 9.3 48.74 0.42 8.06 9.67 11.8
1/1/2023 5:00:00 PM 9.26 48.668 0.42 8.05 9.73 11.7
1/1/2023 5:15:00 PM 9.2 48.56 0.421 8.03 9.76 11.61
1/1/2023 5:30:00 PM 9.14 48.452 0.421 8.02 10.68 11.55
1/1/2023 5:45:00 PM 9.07 48.326 0.422 8.01 10.84 11.5
1/1/2023 6:00:00 PM 9 48.2 0.422 8 10.65 11.47
1/1/2023 6:15:00 PM 8.93 48.074 0.423 7.99 10.77 11.44
1/1/2023 6:30:00 PM 8.87 47.966 0.423 7.98 11.31 11.4
1/1/2023 6:45:00 PM 8.83 47.894 0.424 7.97 10.53 11.38
1/1/2023 7:00:00 PM 8.8 47.84 0.424 7.97 10.69 11.36
1/1/2023 7:15:00 PM 8.78 47.804 0.424 7.96 11.15 11.34
1/1/2023 7:30:00 PM 8.76 47.768 0.425 7.95 11.27 11.33
1/1/2023 7:45:00 PM 8.73 47.714 0.425 7.95 10.79 11.32
1/1/2023 8:00:00 PM 8.68 47.624 0.426 7.94 10.88 11.31
1/1/2023 8:15:00 PM 8.63 47.534 0.426 7.93 10.88 11.3
1/1/2023 8:30:00 PM 8.59 47.462 0.427 7.93 10.47 11.29
1/1/2023 8:45:00 PM 8.53 47.354 0.427 7.92 10.61 11.28
1/1/2023 9:00:00 PM 8.44 47.192 0.428 7.91 10.82 11.28
1/1/2023 9:15:00 PM 8.35 47.03 0.428 7.91 10.75 11.28
1/1/2023 9:30:00 PM 8.26 46.868 0.429 7.9 10.4 11.28
1/1/2023 9:45:00 PM 8.19 46.742 0.429 7.9 10.3 11.29
1/1/2023 10:00:00 PM 8.13 46.634 0.429 7.89 7.24 11.31
1/1/2023 10:15:00 PM 8.07 46.526 0.43 7.89 7.77 11.33
1/1/2023 10:30:00 PM 8.02 46.436 0.43 7.89 7.22 11.34
1/1/2023 10:45:00 PM 7.99 46.382 0.43 7.88 7.47 11.35
1/1/2023 11:00:00 PM 7.96 46.328 0.43 7.88 7.32 11.35
1/1/2023 11:15:00 PM 7.94 46.292 0.43 7.88 7.32 11.36
1/1/2023 11:30:00 PM 7.93 46.274 0.431 7.88 7.3 11.37
1/1/2023 11:45:00 PM 7.9 46.22 0.431 7.87 7.38 11.38
1/2/2023 12:00:00 AM 7.86 46.148 0.431 7.87 7.16 11.39
1/2/2023 12:15:00 AM 7.84 46.112 0.431 7.87 7.09 11.39
1/2/2023 12:30:00 AM 7.81 46.058 0.431 7.87 7.43 11.39
1/2/2023 12:45:00 AM 7.79 46.022 0.431 7.87 7.49 11.39
1/2/2023 1:00:00 AM 7.76 45.968 0.431 7.87 7.34 11.4
1/2/2023 1:15:00 AM 7.74 45.932 0.431 7.87 7.12 11.41
1/2/2023 1:30:00 AM 7.7 45.86 0.431 7.87 7.2 11.42
1/2/2023 1:45:00 AM 7.66 45.788 0.432 7.87 7.26 11.43
1/2/2023 2:00:00 AM 7.63 45.734 0.432 7.87 7.47 11.44
1/2/2023 2:15:00 AM 7.6 45.68 0.432 7.87 7.56 11.45
1/2/2023 2:30:00 AM 7.58 45.644 0.432 7.87 7.23 11.46
1/2/2023 2:45:00 AM 7.56 45.608 0.433 7.87 7.04 11.47
1/2/2023 3:00:00 AM 7.55 45.59 0.433 7.87 7.28 11.47
1/2/2023 3:15:00 AM 7.54 45.572 0.433 7.87 7.19 11.48
1/2/2023 3:30:00 AM 7.52 45.536 0.433 7.87 7.08 11.49
1/2/2023 3:45:00 AM 7.51 45.518 0.433 7.87 7.67 11.49
1/2/2023 4:00:00 AM 7.49 45.482 0.433 7.87 7.07 11.5
1/2/2023 4:15:00 AM 7.47 45.446 0.433 7.87 7.14 11.51
1/2/2023 4:30:00 AM 7.45 45.41 0.434 7.87 7.54 11.52
1/2/2023 4:45:00 AM 7.43 45.374 0.434 7.87 7.34 11.53
1/2/2023 5:00:00 AM 7.42 45.356 0.434 7.87 6.77 11.54
1/2/2023 5:15:00 AM 7.41 45.338 0.434 7.87 7.02 11.54
1/2/2023 5:30:00 AM 7.39 45.302 0.434 7.87 7.03 11.56
1/2/2023 5:45:00 AM 7.39 45.302 0.435 7.87 7.1 11.56
1/2/2023 6:00:00 AM 7.39 45.302 0.435 7.86 6.93 11.57
1/2/2023 6:15:00 AM 7.39 45.302 0.435 7.86 6.96 11.58
1/2/2023 6:30:00 AM 7.38 45.284 0.435 7.86 7 11.58
1/2/2023 6:45:00 AM 7.38 45.284 0.435 7.86 6.92 11.57
1/2/2023 7:00:00 AM 7.37 45.266 0.435 7.87 7.29 11.58
1/2/2023 7:15:00 AM 7.35 45.23 0.435 7.87 7.02 11.58
1/2/2023 7:30:00 AM 7.34 45.212 0.435 7.87 7.21 11.59
1/2/2023 7:45:00 AM 7.32 45.176 0.435 7.87 7.12 11.6
1/2/2023 8:00:00 AM 7.32 45.176 0.435 7.87 7.08 11.62
1/2/2023 8:15:00 AM 7.33 45.194 0.435 7.87 7.13 11.64
1/2/2023 8:30:00 AM 7.34 45.212 0.436 7.88 7.17 11.68
1/2/2023 8:45:00 AM 7.36 45.248 0.435 7.88 6.85 11.7
1/2/2023 9:00:00 AM 7.39 45.302 0.433 7.88 6.92 11.73
1/2/2023 9:15:00 AM 7.42 45.356 0.432 7.89 6.86 11.77
1/2/2023 9:30:00 AM 7.45 45.41 0.432 7.89 6.99 11.81
1/2/2023 9:45:00 AM 7.49 45.482 0.432 7.9 6.58 11.86
1/2/2023 10:00:00 AM 7.54 45.572 0.432 7.9 6.46 11.91
1/2/2023 10:15:00 AM 7.59 45.662 0.432 7.91 6.47 11.97
1/2/2023 10:30:00 AM 7.66 45.788 0.432 7.92 6.35 12.05
1/2/2023 10:45:00 AM 7.75 45.95 0.431 7.93 6.41 12.13
1/2/2023 11:00:00 AM 7.84 46.112 0.431 7.94 6.21 12.2
1/2/2023 11:15:00 AM 7.93 46.274 0.431 7.96 6.17 12.28
1/2/2023 11:30:00 AM 8.01 46.418 0.431 7.97 6.68 12.35
1/2/2023 11:45:00 AM 8.07 46.526 0.431 7.98 7.13 12.39
1/2/2023 12:00:00 PM 8.12 46.616 0.431 7.99 6.42 12.39
1/2/2023 12:15:00 PM 8.18 46.724 0.431 8 6.3 12.41
1/2/2023 12:30:00 PM 8.26 46.868 0.431 8.01 6.14 12.45
1/2/2023 12:45:00 PM 8.34 47.012 0.434 8.02 6.22 12.47
1/2/2023 1:00:00 PM 8.43 47.174 0.434 8.03 6.18 12.5
1/2/2023 1:15:00 PM 8.52 47.336 0.434 8.04 6.09 12.52
1/2/2023 1:30:00 PM 8.57 47.426 0.434 8.05 6.42 12.49
1/2/2023 1:45:00 PM 8.65 47.57 0.434 8.05 6.07 12.5
1/2/2023 2:00:00 PM 8.73 47.714 0.434 8.06 6.15 12.52
1/2/2023 2:15:00 PM 8.77 47.786 0.433 8.07 6.58 12.47
1/2/2023 2:30:00 PM 8.83 47.894 0.433 8.07 6.17 12.41
1/2/2023 2:45:00 PM 8.89 48.002 0.433 8.08 7.6 12.37
1/2/2023 3:00:00 PM 8.93 48.074 0.433 8.08 6.34 12.29
1/2/2023 3:15:00 PM 8.97 48.146 0.433 8.08 6.36 12.18
1/2/2023 3:30:00 PM 9.03 48.254 0.433 8.07 6.58 12.11
1/2/2023 3:45:00 PM 9.07 48.326 0.433 8.07 6.38 12.01
1/2/2023 4:00:00 PM 9.11 48.398 0.432 8.06 6.5 11.91
1/2/2023 4:15:00 PM 9.13 48.434 0.432 8.05 6.88 11.81
1/2/2023 4:30:00 PM 9.16 48.488 0.432 8.04 6.68 11.73
1/2/2023 4:45:00 PM 9.18 48.524 0.432 8.03 6.79 11.65
1/2/2023 5:00:00 PM 9.21 48.578 0.432 8.03 7.1 11.58
1/2/2023 5:15:00 PM 9.23 48.614 0.432 8.02 6.84 11.51
1/2/2023 5:30:00 PM 9.26 48.668 0.432 8.01 6.58 11.46
1/2/2023 5:45:00 PM 9.28 48.704 0.433 8 6.9 11.4
1/2/2023 6:00:00 PM 9.31 48.758 0.433 7.99 6.79 11.36
1/2/2023 6:15:00 PM 9.33 48.794 0.433 7.98 7.06 11.32
1/2/2023 6:30:00 PM 9.34 48.812 0.433 7.97 7.11 11.27
1/2/2023 6:45:00 PM 9.35 48.83 0.433 7.97 7.18 11.24
1/2/2023 7:00:00 PM 9.35 48.83 0.434 7.96 6.48 11.21
1/2/2023 7:15:00 PM 9.35 48.83 0.434 7.96 11.88 11.19
1/2/2023 7:30:00 PM 9.34 48.812 0.434 7.94 12.6 11.16
1/2/2023 7:45:00 PM 9.33 48.794 0.434 7.94 12.69 11.14
1/2/2023 8:00:00 PM 9.32 48.776 0.434 7.93 12.95 11.12
1/2/2023 8:15:00 PM 9.31 48.758 0.434 7.92 13.9 11.1
1/2/2023 8:30:00 PM 9.29 48.722 0.434 7.92 13.47 11.09
1/2/2023 8:45:00 PM 9.27 48.686 0.434 7.91 14.59 11.08
1/2/2023 9:00:00 PM 9.23 48.614 0.434 7.91 13.94 11.07
1/2/2023 9:15:00 PM 9.2 48.56 0.434 7.9 13.45 11.07
1/2/2023 9:30:00 PM 9.18 48.524 0.434 7.89 12.89 11.06
1/2/2023 9:45:00 PM 9.15 48.47 0.434 7.89 13.28 11.06
1/2/2023 10:00:00 PM 9.13 48.434 0.434 7.89 13.32 11.05
1/2/2023 10:15:00 PM 9.11 48.398 0.434 7.89 14.62 11.03
1/2/2023 10:30:00 PM 9.09 48.362 0.435 7.89 13.81 11.02
1/2/2023 10:45:00 PM 9.07 48.326 0.435 7.89 11.52 11.01
1/2/2023 11:00:00 PM 9.06 48.308 0.441 7.89 500.47 11.01
1/2/2023 11:15:00 PM 9.04 48.272 0.442 7.88 11.84 11.02
1/2/2023 11:30:00 PM 9.03 48.254 0.442 7.89 8.34 11.04
1/2/2023 11:45:00 PM 9.02 48.236 0.442 7.88 7.28 11.05
1/3/2023 12:00:00 AM 9.01 48.218 0.442 7.88 6.79 11.06
1/3/2023 12:15:00 AM 9 48.2 0.442 7.88 7.1 11.07
1/3/2023 12:30:00 AM 8.99 48.182 0.442 7.88 6.88 11.07
1/3/2023 12:45:00 AM 8.98 48.164 0.442 7.88 7.01 11.08
1/3/2023 1:00:00 AM 8.97 48.146 0.442 7.88 6.2 11.08
1/3/2023 1:15:00 AM 8.96 48.128 0.442 7.88 7.09 11.09
1/3/2023 1:30:00 AM 8.94 48.092 0.442 7.88 6.19 11.09
1/3/2023 1:45:00 AM 8.93 48.074 0.441 7.88 8.27 11.1
1/3/2023 2:00:00 AM 8.92 48.056 0.441 7.88 7.81 11.1
1/3/2023 2:15:00 AM 8.91 48.038 0.441 7.88 6.68 11.11
1/3/2023 2:30:00 AM 8.9 48.02 0.441 7.87 6.41 11.11
1/3/2023 2:45:00 AM 8.9 48.02 0.441 7.88 6.52 11.11
1/3/2023 3:00:00 AM 8.88 47.984 0.441 7.87 6.13 11.11
1/3/2023 3:15:00 AM 8.88 47.984 0.441 7.88 10.77 11.12
1/3/2023 3:30:00 AM 8.88 47.984 0.441 7.88 6.98 11.12
1/3/2023 3:45:00 AM 8.87 47.966 0.44 7.88 6.86 11.12
1/3/2023 4:00:00 AM 8.87 47.966 0.44 7.88 7.19 11.12
1/3/2023 4:15:00 AM 8.87 47.966 0.44 7.87 7.15 11.12
1/3/2023 4:30:00 AM 8.87 47.966 0.44 7.87 8961.92 11.12
1/3/2023 4:45:00 AM 8.87 47.966 0.44 7.87 1157.68 11.11
1/3/2023 5:00:00 AM 8.86 47.948 0.44 7.87 8.97 11.12
1/3/2023 5:15:00 AM 8.85 47.93 0.44 7.87 2162.89 11.12
1/3/2023 5:30:00 AM 8.84 47.912 0.44 7.87 1752.35 11.12
1/3/2023 5:45:00 AM 8.82 47.876 0.44 7.87 924.71 11.12
1/3/2023 6:00:00 AM 8.82 47.876 0.44 7.87 7.47 11.12
1/3/2023 6:15:00 AM 8.82 47.876 0.441 7.87 14.19 11.12
1/3/2023 6:30:00 AM 8.82 47.876 0.44 7.88 10.72 11.12
1/3/2023 6:45:00 AM 8.81 47.858 0.441 7.88 479.58 11.12
1/3/2023 7:00:00 AM 8.81 47.858 0.441 7.88 36.44 11.12
1/3/2023 7:15:00 AM 8.8 47.84 0.442 7.88 23.82 11.12
1/3/2023 7:30:00 AM 8.8 47.84 0.442 7.88 25.67 11.12
1/3/2023 7:45:00 AM 8.8 47.84 0.441 7.88 22.88 11.12
1/3/2023 8:00:00 AM 8.8 47.84 0.442 7.88 27.26 11.13
1/3/2023 8:15:00 AM 8.81 47.858 0.442 7.88 26.93 11.14
1/3/2023 8:30:00 AM 8.81 47.858 0.441 7.88 27.54 11.14
1/3/2023 8:45:00 AM 8.82 47.876 0.438 7.88 26.09 11.16
1/3/2023 9:00:00 AM 8.82 47.876 0.436 7.89 24.79 11.19
1/3/2023 9:15:00 AM 8.82 47.876 0.433 7.89 24.29 11.2
1/3/2023 9:30:00 AM 8.81 47.858 0.43 7.89 27.74 11.21
1/3/2023 9:45:00 AM 8.81 47.858 0.427 7.88 27.62 11.22
1/3/2023 10:00:00 AM 8.81 47.858 0.424 7.89 34.98 11.25
1/3/2023 10:15:00 AM 8.81 47.858 0.421 7.88 24.15 11.28
1/3/2023 10:30:00 AM 8.82 47.876 0.42 7.87 32.37 11.29
1/3/2023 10:45:00 AM 8.84 47.912 0.418 7.87 47.81 11.31
1/3/2023 11:00:00 AM 8.84 47.912 0.416 7.86 54.14 11.31
1/3/2023 11:15:00 AM 8.85 47.93 0.415 7.86 54.18 11.33
1/3/2023 11:30:00 AM 8.86 47.948 0.414 7.86 30.43 11.37
1/3/2023 11:45:00 AM 8.87 47.966 0.414 7.86 79.2 11.39
1/3/2023 12:00:00 PM 8.88 47.984 0.415 7.86 33.93 11.38
1/3/2023 12:15:00 PM 8.9 48.02 0.418 7.86 21.08 11.39
1/3/2023 12:30:00 PM 8.92 48.056 0.415 7.86 20.74 11.33
1/3/2023 12:45:00 PM 8.91 48.038 0.409 7.84 24.81 11.22
1/3/2023 1:00:00 PM 8.87 47.966 0.4 7.78 37.32 11.13
1/3/2023 1:15:00 PM 8.81 47.858 0.389 7.71 43.7 11.09
1/3/2023 1:30:00 PM 8.77 47.786 0.381 7.71 54.39 11.12
1/3/2023 1:45:00 PM 8.75 47.75 0.369 7.7 52.98 11.12
1/3/2023 2:00:00 PM 8.78 47.804 0.379 7.67 52.08 11.12
1/3/2023 2:15:00 PM 8.81 47.858 0.383 7.69 51.1 11.1
1/3/2023 2:30:00 PM 8.86 47.948 0.387 7.75 50.69 11.03
1/3/2023 2:45:00 PM 8.91 48.038 0.388 7.7 44.49 11.03
1/3/2023 3:00:00 PM 8.97 48.146 0.383 7.71 42.83 11.05
1/3/2023 3:15:00 PM 8.99 48.182 0.376 7.72 45.76 11.03
1/3/2023 3:30:00 PM 8.99 48.182 0.369 7.72 41.35 11.01
1/3/2023 3:45:00 PM 8.99 48.182 0.362 7.71 43.03 11
1/3/2023 4:00:00 PM 8.99 48.182 0.354 7.7 42.9 10.96
1/3/2023 4:15:00 PM 8.99 48.182 0.349 7.71 43.31 10.94
1/3/2023 4:30:00 PM 9 48.2 0.344 7.68 43.79 10.91
1/3/2023 4:45:00 PM 9.01 48.218 0.342 7.68 42.71 10.88
1/3/2023 5:00:00 PM 9.01 48.218 0.341 7.68 42.23 10.86
1/3/2023 5:15:00 PM 9.01 48.218 0.339 7.68 42.54 10.86
1/3/2023 5:30:00 PM 9.01 48.218 0.338 7.67 39.9 10.82
1/3/2023 5:45:00 PM 9.02 48.236 0.337 7.67 51.34 10.82
1/3/2023 6:00:00 PM 9.03 48.254 0.337 7.68 48.76 10.81
1/3/2023 6:15:00 PM 9.04 48.272 0.337 7.68 51.9 10.8
1/3/2023 6:30:00 PM 9.04 48.272 0.337 7.67 42 10.79
1/3/2023 6:45:00 PM 9.03 48.254 0.338 7.66 47.8 10.78
1/3/2023 7:00:00 PM 9.03 48.254 0.338 7.66 52.24 10.76
1/3/2023 7:15:00 PM 9.03 48.254 0.339 7.66 45.72 10.73
1/3/2023 7:30:00 PM 9.02 48.236 0.34 7.68 45.59 10.71
1/3/2023 7:45:00 PM 9.02 48.236 0.342 7.66 44.14 10.69
1/3/2023 8:00:00 PM 9.02 48.236 0.344 7.67 46.35 10.67
1/3/2023 8:15:00 PM 9.01 48.218 0.346 7.66 41.88 10.66
1/3/2023 8:30:00 PM 9.01 48.218 0.348 7.67 40 10.66
1/3/2023 8:45:00 PM 9.01 48.218 0.35 7.67 38.61 10.65
1/3/2023 9:00:00 PM 9.01 48.218 0.353 7.67 38.27 10.65
1/3/2023 9:15:00 PM 9.01 48.218 0.355 7.68 36.35 10.65
1/3/2023 9:30:00 PM 9.01 48.218 0.358 7.68 35.54 10.66
1/3/2023 9:45:00 PM 9.01 48.218 0.36 7.68 35.48 10.65
1/3/2023 10:00:00 PM 9.02 48.236 0.363 7.68 31.99 10.64
1/3/2023 10:15:00 PM 9.02 48.236 0.365 7.69 31.11 10.65
1/3/2023 10:30:00 PM 9.03 48.254 0.368 7.69 31.08 10.63
1/3/2023 10:45:00 PM 9.03 48.254 0.37 7.7 30.5 10.64
1/3/2023 11:00:00 PM 9.04 48.272 0.372 7.7 30.37 10.65
1/3/2023 11:15:00 PM 9.04 48.272 0.375 7.71 29.03 10.66
1/3/2023 11:30:00 PM 9.05 48.29 0.377 7.72 28.85 10.66
1/3/2023 11:45:00 PM 9.06 48.308 0.379 7.72 29.42 10.67
1/4/2023 12:00:00 AM 9.07 48.326 0.382 7.73 27.98 10.69
1/4/2023 12:15:00 AM 9.07 48.326 0.384 7.73 27.99 10.69
1/4/2023 12:30:00 AM 9.08 48.344 0.386 7.73 28.31 10.7
1/4/2023 12:45:00 AM 9.08 48.344 0.388 7.73 36.57 10.7
1/4/2023 1:00:00 AM 9.09 48.362 0.39 7.73 27.12 10.71
1/4/2023 1:15:00 AM 9.1 48.38 0.392 7.75 26.41 10.71
1/4/2023 1:30:00 AM 9.1 48.38 0.394 7.75 24.06 10.72
1/4/2023 1:45:00 AM 9.09 48.362 0.396 7.76 23.45 10.73
1/4/2023 2:00:00 AM 9.08 48.344 0.398 7.76 23.93 10.74
1/4/2023 2:15:00 AM 9.06 48.308 0.399 7.77 24.39 10.75
1/4/2023 2:30:00 AM 9.05 48.29 0.401 7.77 24.46 10.76
1/4/2023 2:45:00 AM 9.04 48.272 0.402 7.78 26.19 10.77
1/4/2023 3:00:00 AM 9.04 48.272 0.403 7.77 25.82 10.78
1/4/2023 3:15:00 AM 9.03 48.254 0.405 7.78 25.39 10.79
1/4/2023 3:30:00 AM 9.03 48.254 0.406 7.78 25.73 10.8
1/4/2023 3:45:00 AM 9.02 48.236 0.407 7.78 29.58 10.81
1/4/2023 4:00:00 AM 9.01 48.218 0.408 7.78 24.35 10.81
1/4/2023 4:15:00 AM 9 48.2 0.41 7.77 23.28 10.81
1/4/2023 4:30:00 AM 9 48.2 0.411 7.77 25.19 10.83
1/4/2023 4:45:00 AM 8.99 48.182 0.412 7.75 23.11 10.84
1/4/2023 5:00:00 AM 8.97 48.146 0.413 7.76 15.47 10.83
1/4/2023 5:15:00 AM 8.95 48.11 0.414 7.77 38.82 10.84
1/4/2023 5:30:00 AM 8.93 48.074 0.414 7.77 34.33 10.86
1/4/2023 5:45:00 AM 8.9 48.02 0.415 7.79 22.46 10.88
1/4/2023 6:00:00 AM 8.88 47.984 0.416 7.79 25.96 10.89
1/4/2023 6:15:00 AM 8.86 47.948 0.417 7.78 26.04 10.89
1/4/2023 6:30:00 AM 8.83 47.894 0.417 7.78 24.59 10.91
1/4/2023 6:45:00 AM 8.82 47.876 0.418 7.77 22.52 10.92
1/4/2023 7:00:00 AM 8.81 47.858 0.419 7.77 22.76 10.92
1/4/2023 7:15:00 AM 8.79 47.822 0.42 7.78 24.71 10.94
1/4/2023 7:30:00 AM 8.77 47.786 0.42 7.79 30.47 10.95
1/4/2023 7:45:00 AM 8.76 47.768 0.421 7.79 26.21 10.97
1/4/2023 8:00:00 AM 8.75 47.75 0.421 7.8 26.07 11
1/4/2023 8:15:00 AM 8.74 47.732 0.422 7.8 22.94 11.03
1/4/2023 8:30:00 AM 8.75 47.75 0.423 7.81 22.16 11.07
1/4/2023 8:45:00 AM 8.76 47.768 0.423 7.81 21.22 11.12
1/4/2023 9:00:00 AM 8.77 47.786 0.424 7.82 21.68 11.17
1/4/2023 9:15:00 AM 8.8 47.84 0.424 7.82 20.93 11.25
1/4/2023 9:30:00 AM 8.84 47.912 0.425 7.83 19.56 11.32
1/4/2023 9:45:00 AM 8.88 47.984 0.425 7.84 19.74 11.4
1/4/2023 10:00:00 AM 8.94 48.092 0.425 7.85 19.19 11.48
1/4/2023 10:15:00 AM 8.99 48.182 0.425 7.87 18.72 11.56
1/4/2023 10:30:00 AM 9.05 48.29 0.426 7.88 16.42 11.65
1/4/2023 10:45:00 AM 9.13 48.434 0.426 7.89 15.01 11.74
1/4/2023 11:00:00 AM 9.2 48.56 0.428 7.91 16.23 11.81
1/4/2023 11:15:00 AM 9.29 48.722 0.428 7.92 25.44 11.88
1/4/2023 11:30:00 AM 9.38 48.884 0.428 7.94 15.98 11.94
1/4/2023 11:45:00 AM 9.5 49.1 0.428 7.95 15.96 11.99
1/4/2023 12:00:00 PM 9.61 49.298 0.428 7.96 16.38 12.06
1/4/2023 12:15:00 PM 9.71 49.478 0.428 7.98 15.14 12.09
1/4/2023 12:30:00 PM 9.82 49.676 0.428 8 15.41 12.13
1/4/2023 12:45:00 PM 9.95 49.91 0.428 8.01 14.89 12.17
1/4/2023 1:00:00 PM 10.07 50.126 0.428 8.03 15.29 12.2
1/4/2023 1:15:00 PM 10.17 50.306 0.428 8.04 15.46 12.21
1/4/2023 1:30:00 PM 10.28 50.504 0.428 8.06 15.56 12.18
1/4/2023 1:45:00 PM 10.37 50.666 0.428 8.07 16.41 12.16
1/4/2023 2:00:00 PM 10.45 50.81 0.429 8.07 15.16 12.12
1/4/2023 2:15:00 PM 10.54 50.972 0.429 8.08 14.37 12.06
1/4/2023 2:30:00 PM 10.62 51.116 0.429 8.08 16.02 12.02
1/4/2023 2:45:00 PM 10.72 51.296 0.429 8.09 15.87 11.96
1/4/2023 3:00:00 PM 10.8 51.44 0.429 8.09 15.03 11.89
1/4/2023 3:15:00 PM 10.88 51.584 0.43 8.08 15.52 11.78
1/4/2023 3:30:00 PM 10.95 51.71 0.43 8.08 14.73 11.65
1/4/2023 3:45:00 PM 11.02 51.836 0.431 8.07 14.76 11.53
1/4/2023 4:00:00 PM 11.08 51.944 0.431 8.06 14.73 11.41
1/4/2023 4:15:00 PM 11.15 52.07 0.431 8.05 14.84 11.29
1/4/2023 4:30:00 PM 11.19 52.142 0.431 8.04 15 11.18
1/4/2023 4:45:00 PM 11.24 52.232 0.431 8.03 15.45 11.07
1/4/2023 5:00:00 PM 11.27 52.286 0.431 8.01 16.63 10.98
1/4/2023 5:15:00 PM 11.29 52.322 0.432 8 16.33 10.9
1/4/2023 5:30:00 PM 11.3 52.34 0.432 7.98 16.74 10.82
1/4/2023 5:45:00 PM 11.3 52.34 0.432 7.97 16.08 10.77
1/4/2023 6:00:00 PM 11.29 52.322 0.433 7.95 16.12 10.71
1/4/2023 6:15:00 PM 11.29 52.322 0.433 7.94 16.22 10.67
1/4/2023 6:30:00 PM 11.28 52.304 0.433 7.93 16.75 10.62
1/4/2023 6:45:00 PM 11.27 52.286 0.433 7.92 16.41 10.59
1/4/2023 7:00:00 PM 11.26 52.268 0.433 7.91 16.96 10.55
1/4/2023 7:15:00 PM 11.25 52.25 0.434 7.9 17.63 10.52
1/4/2023 7:30:00 PM 11.23 52.214 0.434 7.89 17.5 10.49
1/4/2023 7:45:00 PM 11.22 52.196 0.435 7.89 16.07 10.47
1/4/2023 8:00:00 PM 11.2 52.16 0.435 7.88 17.19 10.44
1/4/2023 8:15:00 PM 11.19 52.142 0.435 7.88 16.62 10.43
1/4/2023 8:30:00 PM 11.17 52.106 0.436 7.87 17.45 10.41
1/4/2023 8:45:00 PM 11.15 52.07 0.436 7.87 18.04 10.39
1/4/2023 9:00:00 PM 11.13 52.034 0.436 7.86 18.01 10.38
1/4/2023 9:15:00 PM 11.12 52.016 0.436 7.86 18.66 10.37
1/4/2023 9:30:00 PM 11.1 51.98 0.436 7.86 17.54 10.37
1/4/2023 9:45:00 PM 11.09 51.962 0.437 7.85 17.85 10.36
1/4/2023 10:00:00 PM 11.08 51.944 0.437 7.85 18.99 10.35
1/4/2023 10:15:00 PM 11.06 51.908 0.437 7.85 19.39 10.34
1/4/2023 10:30:00 PM 11.04 51.872 0.437 7.84 19.52 10.35
1/4/2023 10:45:00 PM 11.03 51.854 0.437 7.84 19.64 10.35
1/4/2023 11:00:00 PM 11.01 51.818 0.437 7.84 20 10.35
1/4/2023 11:15:00 PM 11 51.8 0.437 7.84 19.49 10.36
1/4/2023 11:30:00 PM 10.99 51.782 0.437 7.84 20.67 10.36
1/4/2023 11:45:00 PM 10.98 51.764 0.438 7.84 18.39 10.36
1/5/2023 12:00:00 AM 10.95 51.71 0.437 7.84 20.82 10.37
1/5/2023 12:15:00 AM 10.92 51.656 0.437 7.84 20.57 10.38
1/5/2023 12:30:00 AM 10.9 51.62 0.438 7.84 21.18 10.38
1/5/2023 12:45:00 AM 10.87 51.566 0.438 7.84 21.74 10.39
1/5/2023 1:00:00 AM 10.85 51.53 0.438 7.84 21.53 10.4
1/5/2023 1:15:00 AM 10.81 51.458 0.438 7.84 21.35 10.41
1/5/2023 1:30:00 AM 10.77 51.386 0.438 7.84 20.62 10.42
1/5/2023 1:45:00 AM 10.74 51.332 0.438 7.84 20.87 10.42
1/5/2023 2:00:00 AM 10.7 51.26 0.438 7.84 21.31 10.44
1/5/2023 2:15:00 AM 10.66 51.188 0.438 7.85 21.14 10.44
1/5/2023 2:30:00 AM 10.62 51.116 0.439 7.85 20.68 10.45
1/5/2023 2:45:00 AM 10.59 51.062 0.439 7.85 20.09 10.47
1/5/2023 3:00:00 AM 10.55 50.99 0.439 7.85 21.73 10.48
1/5/2023 3:15:00 AM 10.52 50.936 0.439 7.85 21.01 10.49
1/5/2023 3:30:00 AM 10.48 50.864 0.439 7.85 20.94 10.49
1/5/2023 3:45:00 AM 10.44 50.792 0.439 7.85 21.68 10.51
1/5/2023 4:00:00 AM 10.39 50.702 0.439 7.85 22.22 10.52
1/5/2023 4:15:00 AM 10.34 50.612 0.439 7.85 20.78 10.55
1/5/2023 4:30:00 AM 10.29 50.522 0.439 7.86 23.01 10.57
1/5/2023 4:45:00 AM 10.23 50.414 0.44 7.86 33.67 10.58
1/5/2023 5:00:00 AM 10.17 50.306 0.44 7.86 23.11 10.6
1/5/2023 5:15:00 AM 10.11 50.198 0.44 7.86 51.58 10.63
1/5/2023 5:30:00 AM 10.04 50.072 0.44 7.86 25.05 10.64
1/5/2023 5:45:00 AM 9.98 49.964 0.44 7.86 22.5 10.66
1/5/2023 6:00:00 AM 9.92 49.856 0.44 7.87 22.28 10.68
1/5/2023 6:15:00 AM 9.85 49.73 0.44 7.87 22.21 10.69
1/5/2023 6:30:00 AM 9.79 49.622 0.44 7.87 22.15 10.71
1/5/2023 6:45:00 AM 9.72 49.496 0.44 7.87 22.31 10.73
1/5/2023 7:00:00 AM 9.66 49.388 0.44 7.87 20.85 10.75
1/5/2023 7:15:00 AM 9.6 49.28 0.441 7.87 21.6 10.76
1/5/2023 7:30:00 AM 9.54 49.172 0.441 7.87 24.08 10.79
1/5/2023 7:45:00 AM 9.49 49.082 0.441 7.87 21.56 10.82
1/5/2023 8:00:00 AM 9.43 48.974 0.441 7.87 21.75 10.85
1/5/2023 8:15:00 AM 9.36 48.848 0.441 7.87 22.79 10.89
1/5/2023 8:30:00 AM 9.31 48.758 0.442 7.87 22.47 10.94
1/5/2023 8:45:00 AM 9.25 48.65 0.442 7.87 22.69 10.99
1/5/2023 9:00:00 AM 9.19 48.542 0.442 7.88 24.43 11.04
1/5/2023 9:15:00 AM 9.14 48.452 0.442 7.88 23.48 11.09
1/5/2023 9:30:00 AM 9.1 48.38 0.442 7.88 22.78 11.16
1/5/2023 9:45:00 AM 9.06 48.308 0.442 7.88 21.57 11.21
1/5/2023 10:00:00 AM 9.04 48.272 0.442 7.89 20.56 11.27
1/5/2023 10:15:00 AM 9.02 48.236 0.442 7.89 20.25 11.34
1/5/2023 10:30:00 AM 9.04 48.272 0.442 7.91 22.04 11.42
1/5/2023 10:45:00 AM 9.1 48.38 0.442 7.92 20.71 11.53
1/5/2023 11:00:00 AM 9.2 48.56 0.442 7.94 22.48 11.65
1/5/2023 11:15:00 AM 9.29 48.722 0.442 7.96 21.29 11.75
1/5/2023 11:30:00 AM 9.38 48.884 0.442 7.97 21.8 11.84
1/5/2023 11:45:00 AM 9.49 49.082 0.442 7.99 25.48 11.94
1/5/2023 12:00:00 PM 9.6 49.28 0.442 8.01 24.68 12.02
1/5/2023 12:15:00 PM 9.68 49.424 0.441 8.02 24.94 12.07
1/5/2023 12:30:00 PM 9.74 49.532 0.441 8.04 25.18 12.11
1/5/2023 12:45:00 PM 9.83 49.694 0.441 8.05 26.11 12.15
1/5/2023 1:00:00 PM 9.91 49.838 0.441 8.07 24.59 12.18
1/5/2023 1:15:00 PM 10.07 50.126 0.441 8.09 26.91 12.22
1/5/2023 1:30:00 PM 10.21 50.378 0.44 8.1 24.53 12.24
1/5/2023 1:45:00 PM 10.34 50.612 0.44 8.12 23.35 12.25
1/5/2023 2:00:00 PM 10.43 50.774 0.44 8.13 24.47 12.22
1/5/2023 2:15:00 PM 10.56 51.008 0.44 8.14 26.47 12.21
1/5/2023 2:30:00 PM 10.65 51.17 0.44 8.15 25.81 12.17
1/5/2023 2:45:00 PM 10.72 51.296 0.44 8.16 24.65 12.12
1/5/2023 3:00:00 PM 10.8 51.44 0.44 8.17 24.4 12.09
1/5/2023 3:15:00 PM 10.89 51.602 0.44 8.17 25.07 12.06
1/5/2023 3:30:00 PM 10.93 51.674 0.44 8.18 27.57 12.02
1/5/2023 3:45:00 PM 10.93 51.674 0.44 8.18 28.36 11.91
1/5/2023 4:00:00 PM 10.94 51.692 0.44 8.17 37.13 11.81
1/5/2023 4:15:00 PM 10.93 51.674 0.44 8.17 24.39 11.7
1/5/2023 4:30:00 PM 10.9 51.62 0.44 8.15 22.33 11.59
1/5/2023 4:45:00 PM 10.85 51.53 0.44 8.12 20.04 11.45
1/5/2023 5:00:00 PM 10.79 51.422 0.441 8.09 22.92 11.35
1/5/2023 5:15:00 PM 10.72 51.296 0.441 8.07 23.81 11.25
1/5/2023 5:30:00 PM 10.66 51.188 0.442 8.05 20 11.17
1/5/2023 5:45:00 PM 10.6 51.08 0.442 8.04 26.36 11.1
1/5/2023 6:00:00 PM 10.54 50.972 0.442 8.03 20.79 11.04
1/5/2023 6:15:00 PM 10.5 50.9 0.442 8.02 22.62 10.99
1/5/2023 6:30:00 PM 10.46 50.828 0.443 8.01 22.6 10.96
1/5/2023 6:45:00 PM 10.42 50.756 0.442 8.01 24.11 10.93
1/5/2023 7:00:00 PM 10.37 50.666 0.443 8 28.32 10.9
1/5/2023 7:15:00 PM 10.33 50.594 0.443 7.99 29.57 10.89
1/5/2023 7:30:00 PM 10.28 50.504 0.443 7.98 33.38 10.88
1/5/2023 7:45:00 PM 10.23 50.414 0.443 7.98 36.85 10.87
1/5/2023 8:00:00 PM 10.17 50.306 0.444 7.97 32.37 10.85
1/5/2023 8:15:00 PM 10.1 50.18 0.444 7.97 33.56 10.85
1/5/2023 8:30:00 PM 10.04 50.072 0.444 7.96 35.09 10.84
1/5/2023 8:45:00 PM 9.98 49.964 0.445 7.95 84.12 10.84
1/5/2023 9:00:00 PM 9.91 49.838 0.445 7.95 38.36 10.84
1/5/2023 9:15:00 PM 9.85 49.73 0.446 7.94 31.26 10.84
1/5/2023 9:30:00 PM 9.8 49.64 0.446 7.92 59.16 10.84
1/5/2023 9:45:00 PM 9.74 49.532 0.447 7.92 34.99 10.84
1/5/2023 10:00:00 PM 9.69 49.442 0.447 7.92 38.16 10.85
1/5/2023 10:15:00 PM 9.64 49.352 0.446 7.92 31.51 10.85
1/5/2023 10:30:00 PM 9.61 49.298 0.446 7.91 30.21 10.86
1/5/2023 10:45:00 PM 9.57 49.226 0.446 7.91 34.52 10.86
1/5/2023 11:00:00 PM 9.54 49.172 0.445 7.91 31.69 10.87
1/5/2023 11:15:00 PM 9.52 49.136 0.445 7.9 44.19 10.88
1/5/2023 11:30:00 PM 9.49 49.082 0.445 7.9 41.97 10.88
1/5/2023 11:45:00 PM 9.46 49.028 0.445 7.9 38.73 10.89
1/6/2023 12:00:00 AM 9.43 48.974 0.445 7.9 33.55 10.89
1/6/2023 12:15:00 AM 9.4 48.92 0.445 7.9 30.61 10.9
1/6/2023 12:30:00 AM 9.36 48.848 0.444 7.89 80.89 10.91
1/6/2023 12:45:00 AM 9.33 48.794 0.445 7.89 53.14 10.91
1/6/2023 1:00:00 AM 9.29 48.722 0.445 7.89 38.94 10.91
1/6/2023 1:15:00 AM 9.26 48.668 0.445 7.88 34.29 10.92
1/6/2023 1:30:00 AM 9.21 48.578 0.445 7.88 29.54 10.93
1/6/2023 1:45:00 AM 9.15 48.47 0.445 7.89 27.54 10.94
1/6/2023 2:00:00 AM 9.1 48.38 0.445 7.88 28.37 10.95
1/6/2023 2:15:00 AM 9.05 48.29 0.445 7.88 26.02 10.97
1/6/2023 2:30:00 AM 9.02 48.236 0.445 7.87 23.24 10.97
1/6/2023 2:45:00 AM 8.99 48.182 0.445 7.88 22.48 10.99
1/6/2023 3:00:00 AM 8.95 48.11 0.445 7.87 28.29 11
1/6/2023 3:15:00 AM 8.91 48.038 0.444 7.87 28.08 11.01
1/6/2023 3:30:00 AM 8.88 47.984 0.444 7.87 66.58 11.02
1/6/2023 3:45:00 AM 8.85 47.93 0.444 7.87 27.63 11.03
1/6/2023 4:00:00 AM 8.82 47.876 0.444 7.87 154.97 11.03
1/6/2023 4:15:00 AM 8.79 47.822 0.444 7.88 27.7 11.04
1/6/2023 4:30:00 AM 8.77 47.786 0.444 7.88 20.35 11.05
1/6/2023 4:45:00 AM 8.74 47.732 0.444 7.88 18.9 11.05
1/6/2023 5:00:00 AM 8.72 47.696 0.444 7.88 21.65 11.06
1/6/2023 5:15:00 AM 8.7 47.66 0.445 7.88 21.55 11.06
1/6/2023 5:30:00 AM 8.68 47.624 0.443 7.88 21.18 11.07
1/6/2023 5:45:00 AM 8.65 47.57 0.445 7.89 20.55 11.08
1/6/2023 6:00:00 AM 8.63 47.534 0.446 7.89 20.24 11.1
1/6/2023 6:15:00 AM 8.61 47.498 0.446 7.89 20.22 11.1
1/6/2023 6:30:00 AM 8.59 47.462 0.446 7.89 19.98 11.12
1/6/2023 6:45:00 AM 8.57 47.426 0.446 7.89 19.94 11.13
1/6/2023 7:00:00 AM 8.55 47.39 0.445 7.89 25.33 11.14
1/6/2023 7:15:00 AM 8.54 47.372 0.445 7.89 17.41 11.14
1/6/2023 7:30:00 AM 8.53 47.354 0.445 7.89 17.96 11.15
1/6/2023 7:45:00 AM 8.52 47.336 0.445 7.89 17.62 11.16
1/6/2023 8:00:00 AM 8.51 47.318 0.444 7.89 17.15 11.17
1/6/2023 8:15:00 AM 8.5 47.3 0.444 7.89 17.14 11.2
1/6/2023 8:30:00 AM 8.5 47.3 0.444 7.9 18.38 11.23
1/6/2023 8:45:00 AM 8.5 47.3 0.444 7.9 18.13 11.27
1/6/2023 9:00:00 AM 8.51 47.318 0.444 7.91 17.97 11.31
1/6/2023 9:15:00 AM 8.53 47.354 0.444 7.91 150.41 11.38
1/6/2023 9:30:00 AM 8.55 47.39 0.444 7.92 19.52 11.46
1/6/2023 9:45:00 AM 8.57 47.426 0.444 7.93 16.31 11.54
1/6/2023 10:00:00 AM 8.56 47.408 0.444 7.94 16.71 11.62
1/6/2023 10:15:00 AM 8.55 47.39 0.444 7.95 17.04 11.67
1/6/2023 10:30:00 AM 8.56 47.408 0.444 7.96 16.98 11.75
1/6/2023 10:45:00 AM 8.57 47.426 0.444 7.97 16.36 11.83
1/6/2023 11:00:00 AM 8.63 47.534 0.444 7.99 17.7 11.93
1/6/2023 11:15:00 AM 8.69 47.642 0.443 8 16.51 12.02
1/6/2023 11:30:00 AM 8.73 47.714 0.442 8.01 16.58 12.05
1/6/2023 11:45:00 AM 8.74 47.732 0.442 8.02 15.92 12.09
1/6/2023 12:00:00 PM 8.77 47.786 0.442 8.04 15.58 12.14
1/6/2023 12:15:00 PM 8.82 47.876 0.442 8.04 16.47 12.18
1/6/2023 12:30:00 PM 8.88 47.984 0.441 8.05 16.49 12.25
1/6/2023 12:45:00 PM 8.87 47.966 0.441 8.06 16.39 12.26
1/6/2023 1:00:00 PM 8.86 47.948 0.441 8.07 16.4 12.26
1/6/2023 1:15:00 PM 8.87 47.966 0.441 8.08 16.44 12.27
1/6/2023 1:30:00 PM 8.95 48.11 0.441 8.09 15.56 12.33
1/6/2023 1:45:00 PM 9.02 48.236 0.441 8.11 16.3 12.35
1/6/2023 2:00:00 PM 9.09 48.362 0.441 8.12 16.32 12.39
1/6/2023 2:15:00 PM 9.12 48.416 0.441 8.13 16.21 12.4
1/6/2023 2:30:00 PM 9.12 48.416 0.441 8.14 17.59 12.4
1/6/2023 2:45:00 PM 9.14 48.452 0.441 8.15 17.08 12.37
1/6/2023 3:00:00 PM 9.17 48.506 0.44 8.15 16.98 12.29
1/6/2023 3:15:00 PM 9.19 48.542 0.441 8.15 17.45 12.2
1/6/2023 3:30:00 PM 9.19 48.542 0.441 8.15 17.64 12.11
1/6/2023 3:45:00 PM 9.18 48.524 0.441 8.14 17.55 12.03
1/6/2023 4:00:00 PM 9.18 48.524 0.441 8.13 18.38 11.96
1/6/2023 4:15:00 PM 9.13 48.434 0.441 8.12 16.85 11.86
1/6/2023 4:30:00 PM 9.09 48.362 0.441 8.1 17.06 11.78
1/6/2023 4:45:00 PM 9.06 48.308 0.441 8.09 17.11 11.71
1/6/2023 5:00:00 PM 9.01 48.218 0.441 8.08 17.37 11.65
1/6/2023 5:15:00 PM 8.96 48.128 0.441 8.06 17.2 11.6
1/6/2023 5:30:00 PM 8.9 48.02 0.441 8.05 18.56 11.54
1/6/2023 5:45:00 PM 8.84 47.912 0.441 8.04 17.24 11.5
1/6/2023 6:00:00 PM 8.77 47.786 0.441 8.02 17.23 11.48
1/6/2023 6:15:00 PM 8.68 47.624 0.441 8.01 17.96 11.46
1/6/2023 6:30:00 PM 8.59 47.462 0.441 8 17.71 11.45
1/6/2023 6:45:00 PM 8.5 47.3 0.442 8 17.41 11.43
1/6/2023 7:00:00 PM 8.41 47.138 0.442 7.99 18.1 11.42
1/6/2023 7:15:00 PM 8.33 46.994 0.442 7.98 18.51 11.41
1/6/2023 7:30:00 PM 8.27 46.886 0.442 7.97 18.57 11.42
1/6/2023 7:45:00 PM 8.21 46.778 0.442 7.95 18.77 11.43
1/6/2023 8:00:00 PM 8.16 46.688 0.443 7.95 19.12 11.44
1/6/2023 8:15:00 PM 8.11 46.598 0.443 7.94 19.54 11.43
1/6/2023 8:30:00 PM 8.06 46.508 0.444 7.94 20.57 11.44
1/6/2023 8:45:00 PM 8.01 46.418 0.444 7.93 19.76 11.44
1/6/2023 9:00:00 PM 7.97 46.346 0.443 7.93 19.76 11.44
1/6/2023 9:15:00 PM 7.93 46.274 0.444 7.92 20.46 11.44
1/6/2023 9:30:00 PM 7.89 46.202 0.444 7.93 20.16 11.45
1/6/2023 9:45:00 PM 7.85 46.13 0.444 7.93 20.09 11.46
1/6/2023 10:00:00 PM 7.79 46.022 0.444 7.93 20.1 11.47
1/6/2023 10:15:00 PM 7.73 45.914 0.445 7.93 19.94 11.48
1/6/2023 10:30:00 PM 7.68 45.824 0.445 7.93 19.67 11.5
1/6/2023 10:45:00 PM 7.63 45.734 0.445 7.93 19.82 11.51
1/6/2023 11:00:00 PM 7.59 45.662 0.445 7.93 23.12 11.53
1/6/2023 11:15:00 PM 7.55 45.59 0.445 7.93 67.06 11.54
1/6/2023 11:30:00 PM 7.52 45.536 0.446 7.92 13.15 11.55
1/6/2023 11:45:00 PM 7.49 45.482 0.354 7.92 14.17 11.56
1/7/2023 12:00:00 AM 7.47 45.446 0.447 7.92 14.4 11.56
1/7/2023 12:15:00 AM 7.46 45.428 0.447 7.92 13.93 11.57
1/7/2023 12:30:00 AM 7.44 45.392 0.448 7.93 13.88 11.57
1/7/2023 12:45:00 AM 7.43 45.374 0.449 7.93 13.23 11.58
1/7/2023 1:00:00 AM 7.41 45.338 0.448 7.92 15.91 11.58
1/7/2023 1:15:00 AM 7.41 45.338 0.448 7.93 16.29 11.59
1/7/2023 1:30:00 AM 7.4 45.32 0.448 7.92 16.34 11.59
1/7/2023 1:45:00 AM 7.39 45.302 0.449 7.92 15.04 11.59
1/7/2023 2:00:00 AM 7.38 45.284 0.449 7.92 47.82 11.6
1/7/2023 2:15:00 AM 7.37 45.266 0.449 7.92 16.1 11.6
1/7/2023 2:30:00 AM 7.36 45.248 0.449 7.92 17.06 11.6
1/7/2023 2:45:00 AM 7.35 45.23 0.449 7.93 17.87 11.6
1/7/2023 3:00:00 AM 7.33 45.194 0.449 7.92 19.52 11.6
1/7/2023 3:15:00 AM 7.32 45.176 0.45 7.92 41.97 11.61
1/7/2023 3:30:00 AM 7.31 45.158 0.45 7.92 16.7 11.61
1/7/2023 3:45:00 AM 7.31 45.158 0.45 7.93 17.94 11.61
1/7/2023 4:00:00 AM 7.3 45.14 0.45 7.92 16.77 11.62
1/7/2023 4:15:00 AM 7.29 45.122 0.45 7.92 20.27 11.62
1/7/2023 4:30:00 AM 7.29 45.122 0.45 7.92 17.21 11.62
1/7/2023 4:45:00 AM 7.28 45.104 0.45 7.92 17.78 11.63
1/7/2023 5:00:00 AM 7.28 45.104 0.45 7.92 17.11 11.63
1/7/2023 5:15:00 AM 7.27 45.086 0.45 7.92 16.91 11.63
1/7/2023 5:30:00 AM 7.26 45.068 0.451 7.92 17.24 11.64
1/7/2023 5:45:00 AM 7.26 45.068 0.451 7.92 16.82 11.64
1/7/2023 6:00:00 AM 7.25 45.05 0.451 7.92 17.07 11.64
1/7/2023 6:15:00 AM 7.25 45.05 0.451 7.92 17.47 11.64
1/7/2023 6:30:00 AM 7.25 45.05 0.451 7.92 17.21 11.64
1/7/2023 6:45:00 AM 7.24 45.032 0.451 7.92 21.22 11.64
1/7/2023 7:00:00 AM 7.24 45.032 0.45 7.92 17.3 11.64
1/7/2023 7:15:00 AM 7.23 45.014 0.45 7.93 17.25 11.65
1/7/2023 7:30:00 AM 7.21 44.978 0.45 7.93 17.1 11.65
1/7/2023 7:45:00 AM 7.21 44.978 0.451 7.92 17.25 11.67
1/7/2023 8:00:00 AM 7.21 44.978 0.451 7.92 17.13 11.69
1/7/2023 8:15:00 AM 7.23 45.014 0.451 7.93 17.13 11.73
1/7/2023 8:30:00 AM 7.24 45.032 0.451 7.94 16.14 11.78
1/7/2023 8:45:00 AM 7.26 45.068 0.451 7.94 16.9 11.81
1/7/2023 9:00:00 AM 7.29 45.122 0.451 7.95 17.02 11.89
1/7/2023 9:15:00 AM 7.32 45.176 0.451 7.96 17.41 11.98
1/7/2023 9:30:00 AM 7.35 45.23 0.451 7.97 16.82 12.05
1/7/2023 9:45:00 AM 7.38 45.284 0.451 7.98 16.9 12.14
1/7/2023 10:00:00 AM 7.41 45.338 0.45 7.99 16.8 12.22
1/7/2023 10:15:00 AM 7.46 45.428 0.45 8 16.88 12.31
1/7/2023 10:30:00 AM 7.52 45.536 0.45 8.02 16.72 12.42
1/7/2023 10:45:00 AM 7.57 45.626 0.45 8.03 16.92 12.5
1/7/2023 11:00:00 AM 7.64 45.752 0.45 8.05 16.98 12.58
1/7/2023 11:15:00 AM 7.69 45.842 0.45 8.06 17.77 12.66
1/7/2023 11:30:00 AM 7.74 45.932 0.449 8.08 17.15 12.72
1/7/2023 11:45:00 AM 7.76 45.968 0.449 8.07 19.38 12.77
1/7/2023 12:00:00 PM 7.82 46.076 0.449 8.09 16.77 12.82
1/7/2023 12:15:00 PM 7.9 46.22 0.449 8.1 16.87 12.87
1/7/2023 12:30:00 PM 7.94 46.292 0.448 8.12 17.44 12.91
1/7/2023 12:45:00 PM 8.02 46.436 0.448 8.14 17.39 12.94
1/7/2023 1:00:00 PM 8.05 46.49 0.447 8.15 17.51 12.95
1/7/2023 1:15:00 PM 8.06 46.508 0.448 8.17 17.6 12.95
1/7/2023 1:30:00 PM 8.16 46.688 0.447 8.17 17.9 12.98
1/7/2023 1:45:00 PM 8.25 46.85 0.447 8.2 18.98 12.98
1/7/2023 2:00:00 PM 8.3 46.94 0.446 8.21 18.04 12.97
1/7/2023 2:15:00 PM 8.36 47.048 0.446 8.21 18.03 12.95
1/7/2023 2:30:00 PM 8.45 47.21 0.446 8.23 17.83 12.97
1/7/2023 2:45:00 PM 8.48 47.264 0.445 8.24 17.71 12.95
1/7/2023 3:00:00 PM 8.52 47.336 0.445 8.24 17.65 12.92
1/7/2023 3:15:00 PM 8.54 47.372 0.445 8.25 17.69 12.89
1/7/2023 3:30:00 PM 8.55 47.39 0.445 8.25 17.8 12.82
1/7/2023 3:45:00 PM 8.53 47.354 0.445 8.25 18.11 12.7
1/7/2023 4:00:00 PM 8.51 47.318 0.446 8.24 18.25 12.59
1/7/2023 4:15:00 PM 8.52 47.336 0.446 8.23 18.74 12.46
1/7/2023 4:30:00 PM 8.52 47.336 0.446 8.22 18.03 12.34
1/7/2023 4:45:00 PM 8.5 47.3 0.446 8.21 17.95 12.22
1/7/2023 5:00:00 PM 8.5 47.3 0.446 8.19 18.02 12.12
1/7/2023 5:15:00 PM 8.49 47.282 0.447 8.17 17.89 12.01
1/7/2023 5:30:00 PM 8.48 47.264 0.447 8.15 18.03 11.92
1/7/2023 5:45:00 PM 8.46 47.228 0.447 8.13 18.61 11.85
1/7/2023 6:00:00 PM 8.45 47.21 0.447 8.13 18.8 11.78
1/7/2023 6:15:00 PM 8.44 47.192 0.448 8.11 19.21 11.74
1/7/2023 6:30:00 PM 8.42 47.156 0.448 8.1 19.02 11.69
1/7/2023 6:45:00 PM 8.39 47.102 0.448 8.08 18.75 11.65
1/7/2023 7:00:00 PM 8.36 47.048 0.448 8.07 18.26 11.63
1/7/2023 7:15:00 PM 8.32 46.976 0.448 8.06 18.84 11.61
1/7/2023 7:30:00 PM 8.28 46.904 0.449 8.05 19.07 11.58
1/7/2023 7:45:00 PM 8.22 46.796 0.449 8.05 19.1 11.58
1/7/2023 8:00:00 PM 8.15 46.67 0.449 8.03 18.84 11.57
1/7/2023 8:15:00 PM 8.07 46.526 0.45 8.02 20.32 11.55
1/7/2023 8:30:00 PM 8 46.4 0.45 7.99 20.08 11.55
1/7/2023 8:45:00 PM 7.94 46.292 0.452 7.98 21.64 11.53
1/7/2023 9:00:00 PM 7.87 46.166 0.452 7.97 17.55 11.54
1/7/2023 9:15:00 PM 7.79 46.022 0.452 7.98 17.8 11.55
1/7/2023 9:30:00 PM 7.72 45.896 0.452 7.95 20.36 11.56
1/7/2023 9:45:00 PM 7.66 45.788 0.452 7.96 21.4 11.56
1/7/2023 10:00:00 PM 7.58 45.644 0.452 7.95 21.95 11.56
1/7/2023 10:15:00 PM 7.51 45.518 0.452 7.94 24.95 11.57
1/7/2023 10:30:00 PM 7.44 45.392 0.453 7.94 21.76 11.58
1/7/2023 10:45:00 PM 7.37 45.266 0.453 7.93 23.95 11.61
1/7/2023 11:00:00 PM 7.3 45.14 0.453 7.93 21.66 11.62
1/7/2023 11:15:00 PM 7.23 45.014 0.453 7.92 21.73 11.65
1/7/2023 11:30:00 PM 7.18 44.924 0.453 7.92 20.89 11.66
1/7/2023 11:45:00 PM 7.15 44.87 0.454 7.92 18.87 11.67
1/8/2023 12:00:00 AM 7.12 44.816 0.453 7.91 19.42 11.68
1/8/2023 12:15:00 AM 7.08 44.744 0.454 7.92 17.86 11.7
1/8/2023 12:30:00 AM 7.02 44.636 0.454 7.92 18.02 11.72
1/8/2023 12:45:00 AM 6.97 44.546 0.454 7.92 20.15 11.72
1/8/2023 1:00:00 AM 6.92 44.456 0.452 7.92 18.5 11.74
1/8/2023 1:15:00 AM 6.89 44.402 0.428 7.92 19.38 11.75
1/8/2023 1:30:00 AM 6.85 44.33 0.454 7.92 18.77 11.77
1/8/2023 1:45:00 AM 6.82 44.276 0.455 7.92 19.34 11.78
1/8/2023 2:00:00 AM 6.8 44.24 0.455 7.91 20.43 11.79
1/8/2023 2:15:00 AM 6.79 44.222 0.456 7.92 18.33 11.79
1/8/2023 2:30:00 AM 6.78 44.204 0.456 7.92 18.43 11.8
1/8/2023 2:45:00 AM 6.76 44.168 0.456 7.91 20.14 11.8
1/8/2023 3:00:00 AM 6.74 44.132 0.456 7.92 18.85 11.82
1/8/2023 3:15:00 AM 6.72 44.096 0.456 7.92 21.67 11.83
1/8/2023 3:30:00 AM 6.7 44.06 0.456 7.92 17.82 11.83
1/8/2023 3:45:00 AM 6.67 44.006 0.456 7.92 17.73 11.86
1/8/2023 4:00:00 AM 6.66 43.988 0.456 7.92 16.35 11.87
1/8/2023 4:15:00 AM 6.63 43.934 0.456 7.92 17.85 11.88
1/8/2023 4:30:00 AM 6.59 43.862 0.456 7.92 15.4 11.89
1/8/2023 4:45:00 AM 6.56 43.808 0.457 7.92 16.62 11.89
1/8/2023 5:00:00 AM 6.52 43.736 0.456 7.92 16.57 11.91
1/8/2023 5:15:00 AM 6.47 43.646 0.457 7.92 16.65 11.91
1/8/2023 5:30:00 AM 6.42 43.556 0.457 7.92 17.39 11.92
1/8/2023 5:45:00 AM 6.38 43.484 0.457 7.92 17.18 11.93
1/8/2023 6:00:00 AM 6.33 43.394 0.457 7.92 16.54 11.95
1/8/2023 6:15:00 AM 6.28 43.304 0.457 7.92 16.99 11.96
1/8/2023 6:30:00 AM 6.24 43.232 0.457 7.92 16.11 11.97
1/8/2023 6:45:00 AM 6.2 43.16 0.457 7.92 16.64 11.97
1/8/2023 7:00:00 AM 6.16 43.088 0.457 7.92 17.8 11.99
1/8/2023 7:15:00 AM 6.12 43.016 0.457 7.92 20.35 12
1/8/2023 7:30:00 AM 6.09 42.962 0.457 7.92 18.91 12.02
1/8/2023 7:45:00 AM 6.05 42.89 0.457 7.92 22.25 12.04
1/8/2023 8:00:00 AM 6.02 42.836 0.458 7.93 18.01 12.07
1/8/2023 8:15:00 AM 5.99 42.782 0.457 7.92 21.34 12.11
1/8/2023 8:30:00 AM 5.95 42.71 0.457 7.93 24.05 12.16
1/8/2023 8:45:00 AM 5.92 42.656 0.457 7.93 23.53 12.2
1/8/2023 9:00:00 AM 5.9 42.62 0.454 7.94 23.21 12.26
1/8/2023 9:15:00 AM 5.88 42.584 0.456 7.94 17.71 12.3
1/8/2023 9:30:00 AM 5.87 42.566 0.419 7.95 17.1 12.37
1/8/2023 9:45:00 AM 5.87 42.566 0.457 7.96 17.75 12.43
1/8/2023 10:00:00 AM 5.89 42.602 0.457 7.96 18.84 12.49
1/8/2023 10:15:00 AM 5.93 42.674 0.457 7.98 16.71 12.56
1/8/2023 10:30:00 AM 5.98 42.764 0.457 7.99 15.53 12.65
1/8/2023 10:45:00 AM 6.06 42.908 0.457 8 18.11 12.73
1/8/2023 11:00:00 AM 6.14 43.052 0.457 8.01 18.76 12.82
1/8/2023 11:15:00 AM 6.25 43.25 0.456 8.03 18.17 12.9
1/8/2023 11:30:00 AM 6.35 43.43 0.456 8.05 29 12.98
1/8/2023 11:45:00 AM 6.46 43.628 0.456 8.06 20.24 13.07
1/8/2023 12:00:00 PM 6.56 43.808 0.456 8.08 20.3 13.14
1/8/2023 12:15:00 PM 6.65 43.97 0.455 8.1 19.35 13.2
1/8/2023 12:30:00 PM 6.74 44.132 0.455 8.11 153.12 13.27
1/8/2023 12:45:00 PM 6.83 44.294 0.455 8.13 237.03 13.31
1/8/2023 1:00:00 PM 6.93 44.474 0.454 8.15 245.99 13.36
1/8/2023 1:15:00 PM 7.04 44.672 0.454 8.17 164.1 13.39
1/8/2023 1:30:00 PM 7.14 44.852 0.453 8.19 21.97 13.41
1/8/2023 1:45:00 PM 7.24 45.032 0.453 8.21 196.92 13.42
1/8/2023 2:00:00 PM 7.34 45.212 0.452 8.22 279.97 13.41
1/8/2023 2:15:00 PM 7.42 45.356 0.452 8.24 167.25 13.39
1/8/2023 2:30:00 PM 7.5 45.5 0.451 8.25 100.53 13.37
1/8/2023 2:45:00 PM 7.59 45.662 0.451 8.26 221.55 13.34
1/8/2023 3:00:00 PM 7.66 45.788 0.451 8.27 157.97 13.29
1/8/2023 3:15:00 PM 7.71 45.878 0.451 8.28 127.1 13.21
1/8/2023 3:30:00 PM 7.77 45.986 0.451 8.27 157.53 13.16
1/8/2023 3:45:00 PM 7.81 46.058 0.451 8.28 152.18 13.07
1/8/2023 4:00:00 PM 7.84 46.112 0.451 8.27 69.09 12.94
1/8/2023 4:15:00 PM 7.88 46.184 0.451 8.27 220.71 12.82
1/8/2023 4:30:00 PM 7.9 46.22 0.451 8.26 37.07 12.72
1/8/2023 4:45:00 PM 7.91 46.238 0.451 8.24 127.07 12.59
1/8/2023 5:00:00 PM 7.92 46.256 0.452 8.23 110.96 12.46
1/8/2023 5:15:00 PM 7.92 46.256 0.452 8.21 166.82 12.34
1/8/2023 5:30:00 PM 7.9 46.22 0.452 8.19 191.29 12.24
1/8/2023 5:45:00 PM 7.85 46.13 0.452 8.17 22.95 12.15
1/8/2023 6:00:00 PM 7.81 46.058 0.453 8.15 125.48 12.07
1/8/2023 6:15:00 PM 7.79 46.022 0.453 8.13 221.58 12.01
1/8/2023 6:30:00 PM 7.76 45.968 0.453 8.12 134.42 11.96
1/8/2023 6:45:00 PM 7.73 45.914 0.453 8.1 161.11 11.92
1/8/2023 7:00:00 PM 7.7 45.86 0.453 8.09 302.23 11.88
1/8/2023 7:15:00 PM 7.67 45.806 0.454 8.08 82.93 11.85
1/8/2023 7:30:00 PM 7.65 45.77 0.454 8.06 96.25 11.82
1/8/2023 7:45:00 PM 7.63 45.734 0.454 8.05 90.11 11.79
1/8/2023 8:00:00 PM 7.61 45.698 0.454 8.04 79.42 11.77
1/8/2023 8:15:00 PM 7.58 45.644 0.454 8.03 146.86 11.75
1/8/2023 8:30:00 PM 7.55 45.59 0.454 8.02 29.12 11.73
1/8/2023 8:45:00 PM 7.52 45.536 0.455 8 190.55 11.71
1/8/2023 9:00:00 PM 7.49 45.482 0.455 8 104.64 11.69
1/8/2023 9:15:00 PM 7.47 45.446 0.455 7.99 116.37 11.67
1/8/2023 9:30:00 PM 7.44 45.392 0.453 7.98 195.13 11.66
1/8/2023 9:45:00 PM 7.42 45.356 0.456 7.97 129.33 11.65
1/8/2023 10:00:00 PM 7.39 45.302 0.456 7.96 155.61 11.64
1/8/2023 10:15:00 PM 7.37 45.266 0.456 7.96 194.95 11.63
1/8/2023 10:30:00 PM 7.34 45.212 0.456 7.95 136.64 11.63
1/8/2023 10:45:00 PM 7.32 45.176 0.456 7.95 190.7 11.63
1/8/2023 11:00:00 PM 7.31 45.158 0.456 7.95 169.79 11.62
1/8/2023 11:15:00 PM 7.29 45.122 0.456 7.94 151.9 11.62
1/8/2023 11:30:00 PM 7.27 45.086 0.457 7.94 105.35 11.62
1/8/2023 11:45:00 PM 7.25 45.05 0.457 7.94 347.37 11.62
1/9/2023 12:00:00 AM 7.23 45.014 0.457 7.93 48.53 11.62
1/9/2023 12:15:00 AM 7.21 44.978 0.457 7.94 114.31 11.63
1/9/2023 12:30:00 AM 7.2 44.96 0.456 7.93 228.09 11.64
1/9/2023 12:45:00 AM 7.18 44.924 0.456 7.93 100.45 11.64
1/9/2023 1:00:00 AM 7.17 44.906 0.456 7.93 161.6 11.64
1/9/2023 1:15:00 AM 7.15 44.87 0.456 7.93 172.08 11.63
1/9/2023 1:30:00 AM 7.14 44.852 0.456 7.93 40.93 11.64
1/9/2023 1:45:00 AM 7.13 44.834 0.456 7.93 59.77 11.63
1/9/2023 2:00:00 AM 7.13 44.834 0.456 7.93 131.08 11.64
1/9/2023 2:15:00 AM 7.1 44.78 0.456 7.93 26.2 11.64
1/9/2023 2:30:00 AM 7.09 44.762 0.456 7.93 282.69 11.63
1/9/2023 2:45:00 AM 7.09 44.762 0.456 7.93 138.39 11.64
1/9/2023 3:00:00 AM 7.09 44.762 0.456 7.93 16.15 11.64
1/9/2023 3:15:00 AM 7.09 44.762 0.456 7.93 18.75 11.64
1/9/2023 3:30:00 AM 7.08 44.744 0.456 7.92 32.42 11.64
1/9/2023 3:45:00 AM 6.98 44.564 0.454 7.92 40.29 11.63
1/9/2023 4:00:00 AM 6.84 44.312 0.453 7.92 49.57 11.62
1/9/2023 4:15:00 AM 6.86 44.348 0.454 7.92 18.12 11.63
1/9/2023 4:30:00 AM 6.86 44.348 0.453 7.92 18.65 11.65
1/9/2023 4:45:00 AM 6.83 44.294 0.453 7.92 17.5 11.66
1/9/2023 5:00:00 AM 6.81 44.258 0.452 7.92 17.45 11.67
1/9/2023 5:15:00 AM 6.81 44.258 0.452 7.92 16.98 11.67
1/9/2023 5:30:00 AM 6.81 44.258 0.452 7.92 16.74 11.68
1/9/2023 5:45:00 AM 6.81 44.258 0.452 7.92 19.75 11.68
1/9/2023 6:00:00 AM 6.82 44.276 0.452 7.91 20.62 11.67
1/9/2023 6:15:00 AM 6.81 44.258 0.452 7.92 19.48 11.68
1/9/2023 6:30:00 AM 6.78 44.204 0.452 7.91 21.19 11.69
1/9/2023 6:45:00 AM -99999.99 -179968 -99999.99 -99999.99 -99999.99 -99999.99
1/9/2023 7:00:00 AM 6.72 44.096 0.453 7.91 21.33 11.7
1/9/2023 7:15:00 AM 6.7 44.06 0.453 7.92 19.71 11.71
1/9/2023 7:30:00 AM 6.67 44.006 0.453 7.91 21.18 11.71
1/9/2023 7:45:00 AM 6.65 43.97 0.452 7.91 20.31 11.73
1/9/2023 8:00:00 AM 6.61 43.898 0.452 7.92 20.64 11.76
1/9/2023 8:15:00 AM 6.57 43.826 0.451 7.92 20.27 11.81
1/9/2023 8:30:00 AM 6.52 43.736 0.451 7.92 20.27 11.86
1/9/2023 8:45:00 AM 6.48 43.664 0.451 7.92 20.76 11.92
1/9/2023 9:00:00 AM 6.46 43.628 0.451 7.93 19.48 11.97
1/9/2023 9:15:00 AM 6.43 43.574 0.451 7.94 19.74 12.03
1/9/2023 9:30:00 AM 6.43 43.574 0.451 7.94 19.41 12.08
1/9/2023 9:45:00 AM 6.42 43.556 0.451 7.95 18.78 12.15
1/9/2023 10:00:00 AM 6.43 43.574 0.45 7.96 18.41 12.22
1/9/2023 10:15:00 AM 6.44 43.592 0.45 7.96 17.43 12.31
1/9/2023 10:30:00 AM 6.48 43.664 0.45 7.98 18.53 12.42
1/9/2023 10:45:00 AM 6.53 43.754 0.45 7.99 19.89 12.51
1/9/2023 11:00:00 AM 6.63 43.934 0.449 8 18.96 12.63
1/9/2023 11:15:00 AM 6.72 44.096 0.449 8.02 17.94 12.75
1/9/2023 11:30:00 AM 6.78 44.204 0.449 8.04 17.01 12.81
1/9/2023 11:45:00 AM 6.87 44.366 0.449 8.06 19.53 12.89
1/9/2023 12:00:00 PM 7.02 44.636 0.448 8.08 19.76 13
1/9/2023 12:15:00 PM 7.12 44.816 0.448 8.1 18.76 13.08
1/9/2023 12:30:00 PM 7.2 44.96 0.447 8.11 22.28 13.14
1/9/2023 12:45:00 PM 7.22 44.996 0.447 8.13 19.97 13.16
1/9/2023 1:00:00 PM 7.23 45.014 0.447 8.14 18.79 13.15
1/9/2023 1:15:00 PM 7.28 45.104 0.447 8.15 19.34 13.12
1/9/2023 1:30:00 PM 7.33 45.194 0.446 8.16 19.18 13.13
1/9/2023 1:45:00 PM 7.42 45.356 0.446 8.18 18.97 13.14
1/9/2023 2:00:00 PM 7.49 45.482 0.446 8.19 19.22 13.13
1/9/2023 2:15:00 PM 7.57 45.626 0.445 8.21 18.23 13.11
1/9/2023 2:30:00 PM 7.65 45.77 0.445 8.22 16.17 13.09
1/9/2023 2:45:00 PM 7.73 45.914 0.445 8.23 15.75 13.04
1/9/2023 3:00:00 PM 7.78 46.004 0.444 8.24 15.45 13
1/9/2023 3:15:00 PM 7.8 46.04 0.444 8.24 15.22 12.95
1/9/2023 3:30:00 PM 7.8 46.04 0.444 8.24 14.36 12.87
1/9/2023 3:45:00 PM 7.77 45.986 0.444 8.24 13.93 12.81
1/9/2023 4:00:00 PM 7.72 45.896 0.444 8.23 14.9 12.74
1/9/2023 4:15:00 PM 7.7 45.86 0.444 8.23 13.86 12.64
1/9/2023 4:30:00 PM 7.68 45.824 0.444 8.21 13.42 12.54
1/9/2023 4:45:00 PM 7.65 45.77 0.445 8.2 13.91 12.44
1/9/2023 5:00:00 PM 7.62 45.716 0.445 8.18 14.49 12.34
1/9/2023 5:15:00 PM -99999.99 -179968 -99999.99 -99999.99 -99999.99 -99999.99
1/9/2023 5:30:00 PM 7.56 45.608 0.446 8.16 13.68 12.16
1/9/2023 5:45:00 PM 7.54 45.572 0.446 8.14 13.59 12.08
1/9/2023 6:00:00 PM 7.51 45.518 0.446 8.13 14.21 12
1/9/2023 6:15:00 PM 7.47 45.446 0.447 8.12 15.6 11.94
1/9/2023 6:30:00 PM 7.43 45.374 0.447 8.11 14.2 11.91
1/9/2023 6:45:00 PM 7.38 45.284 0.447 8.1 14.55 11.89
1/9/2023 7:00:00 PM 7.34 45.212 0.448 8.09 14.68 11.87
1/9/2023 7:15:00 PM 7.29 45.122 0.448 8.07 14.11 11.86
1/9/2023 7:30:00 PM 7.23 45.014 0.448 8.06 14.52 11.84
1/9/2023 7:45:00 PM 7.18 44.924 0.449 8.05 15.29 11.84
1/9/2023 8:00:00 PM 7.12 44.816 0.449 8.05 14.49 11.84
1/9/2023 8:15:00 PM 7.05 44.69 0.449 8.03 15 11.83
1/9/2023 8:30:00 PM 6.98 44.564 0.449 8.02 14.81 11.83
1/9/2023 8:45:00 PM 6.9 44.42 0.45 8.01 15.99 11.83
1/9/2023 9:00:00 PM 6.82 44.276 0.45 8 15.9 11.83
1/9/2023 9:15:00 PM 6.74 44.132 0.45 7.99 15.08 11.81
1/9/2023 9:30:00 PM 6.65 43.97 0.45 7.98 16.11 11.83
1/9/2023 9:45:00 PM 6.57 43.826 0.451 7.96 15.86 11.84
1/9/2023 10:00:00 PM 6.5 43.7 0.451 7.95 17.25 11.84
1/9/2023 10:15:00 PM 6.42 43.556 0.451 7.95 15.84 11.85
1/9/2023 10:30:00 PM 6.35 43.43 0.451 7.94 16.23 11.86
1/9/2023 10:45:00 PM 6.29 43.322 0.451 7.93 17.42 11.87
1/9/2023 11:00:00 PM 6.23 43.214 0.451 7.93 15.06 11.89
1/9/2023 11:15:00 PM 6.17 43.106 0.451 7.92 14.45 11.9
1/9/2023 11:30:00 PM 6.12 43.016 0.451 7.92 15.78 11.92
1/9/2023 11:45:00 PM 6.07 42.926 0.452 7.92 15.45 11.93
1/10/2023 12:00:00 AM 6.02 42.836 0.452 7.92 16.14 11.94
1/10/2023 12:15:00 AM 5.97 42.746 0.452 7.92 15.98 11.97
1/10/2023 12:30:00 AM 5.92 42.656 0.452 7.92 14.74 11.98
1/10/2023 12:45:00 AM 5.87 42.566 0.452 7.92 16.74 12
1/10/2023 1:00:00 AM 5.83 42.494 0.452 7.92 15.34 12.01
1/10/2023 1:15:00 AM 5.8 42.44 0.452 7.92 16.53 12.02
1/10/2023 1:30:00 AM 5.77 42.386 0.452 7.92 19.65 12.03
1/10/2023 1:45:00 AM 5.73 42.314 0.452 7.92 19.04 12.05
1/10/2023 2:00:00 AM 5.7 42.26 0.452 7.92 19.3 12.06
1/10/2023 2:15:00 AM 5.67 42.206 0.452 7.92 18.87 12.06
1/10/2023 2:30:00 AM 5.65 42.17 0.452 7.92 18.8 12.07
1/10/2023 2:45:00 AM 5.62 42.116 0.453 7.92 19.53 12.09
1/10/2023 3:00:00 AM 5.59 42.062 0.453 7.92 19.24 12.1
1/10/2023 3:15:00 AM 5.56 42.008 0.453 7.92 19.7 12.1
1/10/2023 3:30:00 AM 5.53 41.954 0.453 7.92 19.47 12.12
1/10/2023 3:45:00 AM 5.51 41.918 0.453 7.92 19.81 12.13
1/10/2023 4:00:00 AM 5.49 41.882 0.453 7.92 19.4 12.14
1/10/2023 4:15:00 AM 5.47 41.846 0.453 7.92 18.79 12.15
1/10/2023 4:30:00 AM 5.45 41.81 0.453 7.92 18.89 12.16
1/10/2023 4:45:00 AM 5.43 41.774 0.454 7.93 18.72 12.16
1/10/2023 5:00:00 AM 5.41 41.738 0.454 7.92 18.57 12.17
1/10/2023 5:15:00 AM 5.4 41.72 0.454 7.92 19.06 12.18
1/10/2023 5:30:00 AM 5.39 41.702 0.454 7.93 18.32 12.18
1/10/2023 5:45:00 AM 5.39 41.702 0.454 7.92 18.93 12.18
1/10/2023 6:00:00 AM 5.39 41.702 0.454 7.92 18.79 12.19
1/10/2023 6:15:00 AM 5.4 41.72 0.454 7.92 18.58 12.2
1/10/2023 6:30:00 AM 5.41 41.738 0.454 7.93 18.11 12.2
1/10/2023 6:45:00 AM 5.41 41.738 0.454 7.92 19.51 12.2
1/10/2023 7:00:00 AM 5.41 41.738 0.454 7.92 19.17 12.2
1/10/2023 7:15:00 AM 5.42 41.756 0.454 7.93 19.64 12.2
1/10/2023 7:30:00 AM 5.43 41.774 0.454 7.93 19.02 12.2
1/10/2023 7:45:00 AM 5.45 41.81 0.454 7.93 18.75 12.21
1/10/2023 8:00:00 AM 5.47 41.846 0.455 7.93 19 12.22
1/10/2023 8:15:00 AM 5.49 41.882 0.455 7.93 18.9 12.24
1/10/2023 8:30:00 AM 5.52 41.936 0.454 7.94 19.27 12.29
1/10/2023 8:45:00 AM 5.56 42.008 0.455 7.94 19.3 12.32
1/10/2023 9:00:00 AM 5.6 42.08 0.455 7.95 19.1 12.39
1/10/2023 9:15:00 AM 5.66 42.188 0.455 7.95 19.88 12.45
1/10/2023 9:30:00 AM 5.72 42.296 0.454 7.97 19.36 12.52
1/10/2023 9:45:00 AM 5.78 42.404 0.454 7.98 19.63 12.59
1/10/2023 10:00:00 AM 5.85 42.53 0.454 7.99 19.42 12.67
1/10/2023 10:15:00 AM 5.93 42.674 0.454 8 19.25 12.77
1/10/2023 10:30:00 AM 6.01 42.818 0.454 8.02 19.38 12.86
1/10/2023 10:45:00 AM 6.08 42.944 0.454 8.03 19.68 12.93
1/10/2023 11:00:00 AM 6.16 43.088 0.453 8.05 19.96 13
1/10/2023 11:15:00 AM 6.23 43.214 0.453 8.06 19.33 13.07
1/10/2023 11:30:00 AM 6.3 43.34 0.453 8.08 19.39 13.11
1/10/2023 11:45:00 AM 6.37 43.466 0.453 8.09 19.22 13.16
1/10/2023 12:00:00 PM 6.45 43.61 0.452 8.11 19.54 13.21
1/10/2023 12:15:00 PM 6.55 43.79 0.452 8.12 19.34 13.26
1/10/2023 12:30:00 PM 6.67 44.006 0.452 8.13 19.53 13.31
1/10/2023 12:45:00 PM 6.78 44.204 0.451 8.15 19.45 13.36
1/10/2023 1:00:00 PM 6.9 44.42 0.451 8.17 19.85 13.39
1/10/2023 1:15:00 PM 6.99 44.582 0.45 8.18 19.79 13.44
1/10/2023 1:30:00 PM 7.08 44.744 0.45 8.2 19.59 13.47
1/10/2023 1:45:00 PM 7.21 44.978 0.45 8.22 19.4 13.51
1/10/2023 2:00:00 PM 7.27 45.086 0.449 8.23 20.18 13.5
1/10/2023 2:15:00 PM 7.34 45.212 0.449 8.25 19.93 13.5
1/10/2023 2:30:00 PM 7.38 45.284 0.449 8.26 20.15 13.48
1/10/2023 2:45:00 PM 7.44 45.392 0.448 8.27 20.17 13.45
1/10/2023 3:00:00 PM 7.49 45.482 0.448 8.29 20.48 13.42
1/10/2023 3:15:00 PM 7.55 45.59 0.447 8.29 19.65 13.38
1/10/2023 3:30:00 PM 7.57 45.626 0.447 8.3 20.29 13.32
1/10/2023 3:45:00 PM 7.59 45.662 0.447 8.3 20.09 13.23
1/10/2023 4:00:00 PM 7.6 45.68 0.447 8.29 20.18 13.13
1/10/2023 4:15:00 PM 7.6 45.68 0.448 8.29 20 13.03
1/10/2023 4:30:00 PM 7.58 45.644 0.448 8.28 19.9 12.91
1/10/2023 4:45:00 PM 7.57 45.626 0.448 8.26 20.12 12.78
1/10/2023 5:00:00 PM 7.55 45.59 0.448 8.25 20.3 12.66
1/10/2023 5:15:00 PM 7.54 45.572 0.448 8.23 20.1 12.55
1/10/2023 5:30:00 PM 7.52 45.536 0.449 8.22 19.91 12.43
1/10/2023 5:45:00 PM 7.5 45.5 0.449 8.21 20.14 12.33
1/10/2023 6:00:00 PM 7.47 45.446 0.449 8.19 20.14 12.24
1/10/2023 6:15:00 PM 7.44 45.392 0.449 8.17 20.08 12.16
1/10/2023 6:30:00 PM 7.41 45.338 0.45 8.16 20.49 12.09
1/10/2023 6:45:00 PM 7.37 45.266 0.45 8.14 20 12.04
1/10/2023 7:00:00 PM 7.34 45.212 0.45 8.13 19.61 11.99
1/10/2023 7:15:00 PM 7.31 45.158 0.45 8.11 18.64 11.95
1/10/2023 7:30:00 PM 7.27 45.086 0.45 8.1 19.4 11.92
1/10/2023 7:45:00 PM 7.22 44.996 0.451 8.09 19.93 11.89
1/10/2023 8:00:00 PM 7.17 44.906 0.451 8.07 19.57 11.88
1/10/2023 8:15:00 PM 7.12 44.816 0.451 8.06 19.84 11.86
1/10/2023 8:30:00 PM 7.07 44.726 0.451 8.05 19.13 11.86
1/10/2023 8:45:00 PM 7.02 44.636 0.452 8.03 19.17 11.85
1/10/2023 9:00:00 PM 6.98 44.564 0.452 8.02 15.17 11.83
1/10/2023 9:15:00 PM 6.93 44.474 0.453 8.01 13.07 11.82
1/10/2023 9:30:00 PM 6.87 44.366 0.453 8 13.16 11.81
1/10/2023 9:45:00 PM 6.82 44.276 0.453 7.99 13.23 11.8
1/10/2023 10:00:00 PM 6.77 44.186 0.454 7.98 12.94 11.8
1/10/2023 10:15:00 PM 6.73 44.114 0.454 7.97 13.03 11.8
1/10/2023 10:30:00 PM 6.69 44.042 0.454 7.96 13.87 11.8
1/10/2023 10:45:00 PM 6.65 43.97 0.454 7.96 13.05 11.82
1/10/2023 11:00:00 PM 6.61 43.898 0.454 7.96 13.5 11.82
1/10/2023 11:15:00 PM 6.57 43.826 0.454 7.95 13.82 11.83
1/10/2023 11:30:00 PM 6.54 43.772 0.454 7.95 13.47 11.84
1/10/2023 11:45:00 PM 6.49 43.682 0.454 7.94 14.25 11.85
1/11/2023 12:00:00 AM 6.44 43.592 0.455 7.94 13.61 11.87
1/11/2023 12:15:00 AM 6.39 43.502 0.455 7.94 13.88 11.87
1/11/2023 12:30:00 AM 6.33 43.394 0.455 7.93 13.52 11.89
1/11/2023 12:45:00 AM 6.28 43.304 0.455 7.93 14.04 11.9
1/11/2023 1:00:00 AM 6.23 43.214 0.455 7.93 13.41 11.92
1/11/2023 1:15:00 AM 6.18 43.124 0.455 7.93 13.78 11.92
1/11/2023 1:30:00 AM 6.13 43.034 0.455 7.92 13.57 11.93
1/11/2023 1:45:00 AM 6.08 42.944 0.455 7.92 14.03 11.94
1/11/2023 2:00:00 AM 6.04 42.872 0.455 7.92 13.88 11.96
1/11/2023 2:15:00 AM 6.01 42.818 0.455 7.92 14.57 11.97
1/11/2023 2:30:00 AM 6 42.8 0.455 7.93 14.84 11.98
1/11/2023 2:45:00 AM 5.98 42.764 0.455 7.92 14.43 12
1/11/2023 3:00:00 AM 5.98 42.764 0.456 7.92 14.7 12
1/11/2023 3:15:00 AM 5.98 42.764 0.456 7.93 14.71 12
1/11/2023 3:30:00 AM 5.98 42.764 0.456 7.92 14.67 12
1/11/2023 3:45:00 AM 5.98 42.764 0.456 7.92 15.15 12.01
1/11/2023 4:00:00 AM 5.97 42.746 0.456 7.92 15.08 12.02
1/11/2023 4:15:00 AM 5.96 42.728 0.456 7.92 15.11 12.02
1/11/2023 4:30:00 AM 5.93 42.674 0.456 7.93 14.53 12.02
1/11/2023 4:45:00 AM 5.89 42.602 0.456 7.93 15.8 12.03
1/11/2023 5:00:00 AM 5.85 42.53 0.456 7.92 16.49 12.05
1/11/2023 5:15:00 AM 5.81 42.458 0.457 7.92 17.13 12.05
1/11/2023 5:30:00 AM 5.77 42.386 0.456 7.92 17.45 12.06
1/11/2023 5:45:00 AM 5.73 42.314 0.457 7.92 17.71 12.08
1/11/2023 6:00:00 AM 5.69 42.242 0.457 7.92 18.18 12.09
1/11/2023 6:15:00 AM 5.64 42.152 0.457 7.92 18.56 12.1
1/11/2023 6:30:00 AM 5.6 42.08 0.457 7.92 18.54 12.12
1/11/2023 6:45:00 AM 5.55 41.99 0.457 7.92 18.31 12.14
1/11/2023 7:00:00 AM 5.51 41.918 0.457 7.92 15.34 12.15
1/11/2023 7:15:00 AM 5.47 41.846 0.457 7.92 15.83 12.17
1/11/2023 7:30:00 AM 5.44 41.792 0.458 7.92 15.57 12.18
1/11/2023 7:45:00 AM 5.41 41.738 0.458 7.92 15.18 12.21
1/11/2023 8:00:00 AM 5.39 41.702 0.458 7.93 14.96 12.24
1/11/2023 8:15:00 AM 5.37 41.666 0.458 7.93 15.27 12.29
1/11/2023 8:30:00 AM 5.36 41.648 0.458 7.94 14.92 12.35
1/11/2023 8:45:00 AM 5.36 41.648 0.458 7.94 14.67 12.41
1/11/2023 9:00:00 AM 5.36 41.648 0.458 7.95 14.91 12.48
1/11/2023 9:15:00 AM 5.38 41.684 0.458 7.96 15.19 12.57
1/11/2023 9:30:00 AM 5.41 41.738 0.458 7.97 14.83 12.66
1/11/2023 9:45:00 AM 5.46 41.828 0.458 7.98 14.79 12.77
1/11/2023 10:00:00 AM 5.52 41.936 0.458 8 14.48 12.86
1/11/2023 10:15:00 AM 5.6 42.08 0.457 8.01 11.16 12.96
1/11/2023 10:30:00 AM 5.67 42.206 0.457 8.03 9.92 13.06
1/11/2023 10:45:00 AM 5.76 42.368 0.457 8.05 10.42 13.16
1/11/2023 11:00:00 AM 5.86 42.548 0.457 8.06 12.2 13.26
1/11/2023 11:15:00 AM 5.95 42.71 0.456 8.08 12.54 13.33
1/11/2023 11:30:00 AM 6.06 42.908 0.456 8.1 10.64 13.4
1/11/2023 11:45:00 AM 6.14 43.052 0.456 8.11 15.69 13.45
1/11/2023 12:00:00 PM 6.26 43.268 0.455 8.13 14.38 13.51
1/11/2023 12:15:00 PM 6.36 43.448 0.455 8.15 13.56 13.59
1/11/2023 12:30:00 PM 6.46 43.628 0.455 8.17 13.76 13.64
1/11/2023 12:45:00 PM 6.59 43.862 0.454 8.18 13.54 13.69
1/11/2023 1:00:00 PM 6.72 44.096 0.454 8.2 14.02 13.73
1/11/2023 1:15:00 PM 6.81 44.258 0.453 8.22 14.58 13.75
1/11/2023 1:30:00 PM 6.88 44.384 0.453 8.24 15.13 13.75
1/11/2023 1:45:00 PM 6.97 44.546 0.452 8.26 14.65 13.75
1/11/2023 2:00:00 PM 7.06 44.708 0.452 8.28 13.32 13.75
1/11/2023 2:15:00 PM 7.15 44.87 0.451 8.3 14.37 13.74
1/11/2023 2:30:00 PM 7.22 44.996 0.451 8.31 15.69 13.7
1/11/2023 2:45:00 PM 7.3 45.14 0.45 8.32 15.57 13.64
1/11/2023 3:00:00 PM 7.35 45.23 0.45 8.33 14.01 13.58
1/11/2023 3:15:00 PM 7.4 45.32 0.45 8.34 17.67 13.49
1/11/2023 3:30:00 PM 7.45 45.41 0.449 8.34 15.99 13.44
1/11/2023 3:45:00 PM 7.55 45.59 0.449 8.35 16.62 13.4
1/11/2023 4:00:00 PM 7.59 45.662 0.449 8.35 14.12 13.34
1/11/2023 4:15:00 PM 7.6 45.68 0.449 8.35 15.34 13.22
1/11/2023 4:30:00 PM 7.6 45.68 0.449 8.34 16.43 13.09
1/11/2023 4:45:00 PM 7.61 45.698 0.449 8.34 15.35 12.99
1/11/2023 5:00:00 PM 7.61 45.698 0.45 8.33 15.57 12.86
1/11/2023 5:15:00 PM 7.6 45.68 0.45 8.31 14.27 12.73
1/11/2023 5:30:00 PM 7.6 45.68 0.45 8.29 16.24 12.59
1/11/2023 5:45:00 PM 7.61 45.698 0.451 8.27 14.39 12.46
1/11/2023 6:00:00 PM 7.61 45.698 0.451 8.25 15.01 12.34
1/11/2023 6:15:00 PM 7.61 45.698 0.452 8.22 14.6 12.24
1/11/2023 6:30:00 PM 7.59 45.662 0.452 8.2 15.01 12.15
1/11/2023 6:45:00 PM 7.56 45.608 0.453 8.18 14.37 12.09
1/11/2023 7:00:00 PM 7.53 45.554 0.453 8.17 14.62 12.03
1/11/2023 7:15:00 PM 7.47 45.446 0.454 8.14 22.59 11.98
1/11/2023 7:30:00 PM 7.42 45.356 0.454 8.13 21.26 11.95
1/11/2023 7:45:00 PM 7.37 45.266 0.455 8.11 21.52 11.92
1/11/2023 8:00:00 PM 7.34 45.212 0.455 8.09 16.16 11.89
1/11/2023 8:15:00 PM 7.31 45.158 0.455 8.08 13.54 11.87
1/11/2023 8:30:00 PM 7.29 45.122 0.455 8.07 13.98 11.85
1/11/2023 8:45:00 PM 7.26 45.068 0.455 8.06 14.29 11.84
1/11/2023 9:00:00 PM 7.24 45.032 0.456 8.05 13.17 11.82
1/11/2023 9:15:00 PM 7.2 44.96 0.456 8.03 14.11 11.8
1/11/2023 9:30:00 PM 7.17 44.906 0.456 8.03 12.71 11.78
1/11/2023 9:45:00 PM 7.14 44.852 0.457 8.01 12.97 11.77
1/11/2023 10:00:00 PM 7.12 44.816 0.457 8 14.26 11.76
1/11/2023 10:15:00 PM 7.1 44.78 0.457 8 13.65 11.75
1/11/2023 10:30:00 PM 7.08 44.744 0.458 7.99 14.32 11.75
1/11/2023 10:45:00 PM 7.06 44.708 0.458 7.98 13.42 11.74
1/11/2023 11:00:00 PM 7.03 44.654 0.458 7.97 14.66 11.74
1/11/2023 11:15:00 PM 7 44.6 0.458 7.97 15.69 11.74
1/11/2023 11:30:00 PM 6.96 44.528 0.458 7.97 15.43 11.75
1/11/2023 11:45:00 PM 6.93 44.474 0.458 7.97 14.71 11.75
1/12/2023 12:00:00 AM 6.89 44.402 0.458 7.96 16.1 11.76
1/12/2023 12:15:00 AM 6.86 44.348 0.458 7.96 15.43 11.77
1/12/2023 12:30:00 AM 6.83 44.294 0.458 7.96 16.37 11.78
1/12/2023 12:45:00 AM 6.81 44.258 0.459 7.95 17.09 11.78
1/12/2023 1:00:00 AM 6.79 44.222 0.458 7.95 15.21 11.78
1/12/2023 1:15:00 AM 6.78 44.204 0.458 7.95 15.93 11.79
1/12/2023 1:30:00 AM 6.77 44.186 0.459 7.95 16.71 11.78
1/12/2023 1:45:00 AM 6.76 44.168 0.459 7.95 15.77 11.79
1/12/2023 2:00:00 AM 6.75 44.15 0.458 7.95 17.03 11.8
1/12/2023 2:15:00 AM 6.73 44.114 0.458 7.95 17.01 11.8
1/12/2023 2:30:00 AM 6.72 44.096 0.458 7.95 17.14 11.79
1/12/2023 2:45:00 AM 6.71 44.078 0.458 7.95 16.27 11.8
1/12/2023 3:00:00 AM 6.68 44.024 0.457 7.95 17.76 11.8
1/12/2023 3:15:00 AM 6.66 43.988 0.457 7.94 16.95 11.81
1/12/2023 3:30:00 AM 6.66 43.988 0.457 7.95 18.05 11.81
1/12/2023 3:45:00 AM 6.65 43.97 0.457 7.94 17.98 11.81
1/12/2023 4:00:00 AM 6.64 43.952 0.456 7.95 16.97 11.81
1/12/2023 4:15:00 AM 6.64 43.952 0.457 7.94 16.86 11.81
1/12/2023 4:30:00 AM 6.64 43.952 0.456 7.94 17.38 11.81
1/12/2023 4:45:00 AM 6.64 43.952 0.456 7.94 16.88 11.81
1/12/2023 5:00:00 AM 6.64 43.952 0.456 7.94 17.58 11.81
1/12/2023 5:15:00 AM 6.65 43.97 0.456 7.93 16.23 11.81
1/12/2023 5:30:00 AM 6.65 43.97 0.456 7.94 16.71 11.8
1/12/2023 5:45:00 AM 6.67 44.006 0.456 7.93 17.5 11.8
1/12/2023 6:00:00 AM 6.68 44.024 0.456 7.93 17.51 11.78
1/12/2023 6:15:00 AM 6.7 44.06 0.456 7.93 17.77 11.78
1/12/2023 6:30:00 AM 6.71 44.078 0.456 7.93 15.6 11.78
1/12/2023 6:45:00 AM 6.73 44.114 0.456 7.93 16.37 11.77
1/12/2023 7:00:00 AM 6.75 44.15 0.456 7.93 18.51 11.76
1/12/2023 7:15:00 AM 6.77 44.186 0.455 7.93 15.82 11.75
1/12/2023 7:30:00 AM 6.79 44.222 0.455 7.93 11.59 11.76
1/12/2023 7:45:00 AM 6.81 44.258 0.455 7.93 11.56 11.75
1/12/2023 8:00:00 AM 6.83 44.294 0.454 7.93 10.29 11.75
1/12/2023 8:15:00 AM 6.86 44.348 0.454 7.93 10.62 11.75
1/12/2023 8:30:00 AM 6.89 44.402 0.454 7.93 9.59 11.75
1/12/2023 8:45:00 AM 6.92 44.456 0.454 7.93 13.02 11.76
1/12/2023 9:00:00 AM 6.95 44.51 0.454 7.94 11.91 11.77
1/12/2023 9:15:00 AM 6.99 44.582 0.454 7.94 13.18 11.78
1/12/2023 9:30:00 AM 7.03 44.654 0.454 7.94 11.53 11.82
1/12/2023 9:45:00 AM 7.07 44.726 0.454 7.95 10.44 11.86
1/12/2023 10:00:00 AM 7.12 44.816 0.453 7.95 11.47 11.91
1/12/2023 10:15:00 AM 7.16 44.888 0.453 7.96 13.13 11.94
1/12/2023 10:30:00 AM 7.21 44.978 0.454 7.97 12.36 12
1/12/2023 10:45:00 AM 7.27 45.086 0.453 7.98 9.71 12.08
1/12/2023 11:00:00 AM 7.32 45.176 0.453 7.99 9.63 12.14
1/12/2023 11:15:00 AM 7.39 45.302 0.453 8 9.32 12.22
1/12/2023 11:30:00 AM 7.45 45.41 0.453 8.02 9.67 12.32
1/12/2023 11:45:00 AM 7.55 45.59 0.453 8.03 9.56 12.41
1/12/2023 12:00:00 PM 7.64 45.752 0.453 8.05 9.36 12.51
1/12/2023 12:15:00 PM 7.7 45.86 0.454 8.06 9.55 12.59
1/12/2023 12:30:00 PM 7.76 45.968 0.453 8.08 9.51 12.64
1/12/2023 12:45:00 PM 7.82 46.076 0.453 8.09 9.52 12.71
1/12/2023 1:00:00 PM 7.87 46.166 0.452 8.11 9.55 12.74
1/12/2023 1:15:00 PM 7.94 46.292 0.452 8.12 9.45 12.77
1/12/2023 1:30:00 PM 8 46.4 0.451 8.13 9.53 12.77
1/12/2023 1:45:00 PM 8.05 46.49 0.451 8.14 9.64 12.77
1/12/2023 2:00:00 PM 8.11 46.598 0.45 8.15 10.14 12.75
1/12/2023 2:15:00 PM 8.16 46.688 0.449 8.15 9.96 12.74
1/12/2023 2:30:00 PM 8.22 46.796 0.449 8.16 9.84 12.75
1/12/2023 2:45:00 PM 8.28 46.904 0.449 8.17 10.64 12.75
1/12/2023 3:00:00 PM 8.32 46.976 0.448 8.17 10.14 12.69
1/12/2023 3:15:00 PM 8.36 47.048 0.447 8.18 10.71 12.65
1/12/2023 3:30:00 PM 8.41 47.138 0.447 8.18 10.39 12.63
1/12/2023 3:45:00 PM 8.44 47.192 0.446 8.18 10.65 12.58
1/12/2023 4:00:00 PM 8.47 47.246 0.446 8.18 10.21 12.47
1/12/2023 4:15:00 PM 8.5 47.3 0.445 8.18 10.38 12.36
1/12/2023 4:30:00 PM 8.52 47.336 0.445 8.17 10.39 12.26
1/12/2023 4:45:00 PM 8.55 47.39 0.445 8.16 12.11 12.13
1/12/2023 5:00:00 PM 8.57 47.426 0.445 8.14 13.63 12.01
1/12/2023 5:15:00 PM 8.59 47.462 0.446 8.13 15.68 11.9
1/12/2023 5:30:00 PM 8.61 47.498 0.446 8.11 14.6 11.81
1/12/2023 5:45:00 PM 8.63 47.534 0.446 8.09 14 11.71
1/12/2023 6:00:00 PM 8.64 47.552 0.447 8.08 16.22 11.62
1/12/2023 6:15:00 PM 8.66 47.588 0.447 8.06 13.8 11.55
1/12/2023 6:30:00 PM 8.68 47.624 0.447 8.05 12.77 11.51
1/12/2023 6:45:00 PM 8.69 47.642 0.448 8.04 13.12 11.46
1/12/2023 7:00:00 PM 8.71 47.678 0.448 8.03 12.97 11.41
1/12/2023 7:15:00 PM 8.73 47.714 0.449 8.03 14.36 11.37
1/12/2023 7:30:00 PM 8.74 47.732 0.449 8.01 13.75 11.33
1/12/2023 7:45:00 PM 8.76 47.768 0.45 8.01 12.83 11.29
1/12/2023 8:00:00 PM 8.77 47.786 0.45 8 12.93 11.27
1/12/2023 8:15:00 PM 8.78 47.804 0.45 7.99 13.75 11.23
1/12/2023 8:30:00 PM 8.79 47.822 0.45 7.98 13.87 11.19
1/12/2023 8:45:00 PM 8.8 47.84 0.45 7.97 15.33 11.16
1/12/2023 9:00:00 PM 8.8 47.84 0.45 7.96 21.5 11.13
1/12/2023 9:15:00 PM 8.81 47.858 0.451 7.96 61.75 11.1
1/12/2023 9:30:00 PM 8.82 47.876 0.451 7.95 13.36 11.09
1/12/2023 9:45:00 PM 8.82 47.876 0.449 7.95 12.97 11.08
1/12/2023 10:00:00 PM 8.82 47.876 0.444 7.95 32.09 11.07
1/12/2023 10:15:00 PM 8.82 47.876 0.444 7.93 17.69 11.04
1/12/2023 10:30:00 PM 8.83 47.894 0.444 7.92 25.92 11.02
1/12/2023 10:45:00 PM 8.84 47.912 0.443 7.91 13.47 10.99
1/12/2023 11:00:00 PM 8.84 47.912 0.442 7.91 19.15 10.97
1/12/2023 11:15:00 PM 8.85 47.93 0.442 7.9 30.22 10.95
1/12/2023 11:30:00 PM 8.86 47.948 0.441 7.89 27.79 10.95
1/12/2023 11:45:00 PM 8.86 47.948 0.44 7.89 14.57 10.94
1/13/2023 12:00:00 AM 8.87 47.966 0.44 7.88 13.78 10.93
1/13/2023 12:15:00 AM 8.88 47.984 0.44 7.88 15.21 10.92
1/13/2023 12:30:00 AM 8.89 48.002 0.439 7.88 16.35 10.92
1/13/2023 12:45:00 AM 8.9 48.02 0.439 7.88 16.54 10.91
1/13/2023 1:00:00 AM 8.92 48.056 0.439 7.87 15.67 10.9
1/13/2023 1:15:00 AM 8.94 48.092 0.439 7.87 14.46 10.89
1/13/2023 1:30:00 AM 8.96 48.128 0.438 7.87 14.23 10.88
1/13/2023 1:45:00 AM 8.99 48.182 0.436 7.86 14.75 10.87
1/13/2023 2:00:00 AM 9.01 48.218 0.434 7.86 16.3 10.84
1/13/2023 2:15:00 AM 9.03 48.254 0.432 7.86 19.08 10.77
1/13/2023 2:30:00 AM 9.05 48.29 0.431 7.85 18.35 10.68
1/13/2023 2:45:00 AM 9.06 48.308 0.43 7.84 20.69 10.63
1/13/2023 3:00:00 AM 9.07 48.326 0.429 7.83 20.81 10.61
1/13/2023 3:15:00 AM 9.08 48.344 0.427 7.83 20.97 10.62
1/13/2023 3:30:00 AM 9.1 48.38 0.425 7.82 23.57 10.62
1/13/2023 3:45:00 AM 9.11 48.398 0.424 7.82 25.99 10.61
1/13/2023 4:00:00 AM 9.13 48.434 0.424 7.82 23.82 10.56
1/13/2023 4:15:00 AM 9.15 48.47 0.425 7.81 27.26 10.53
1/13/2023 4:30:00 AM 9.16 48.488 0.425 7.81 26.86 10.52
1/13/2023 4:45:00 AM 9.18 48.524 0.427 7.81 25.53 10.52
1/13/2023 5:00:00 AM 9.19 48.542 0.425 7.81 24.46 10.54
1/13/2023 5:15:00 AM 9.2 48.56 0.423 7.81 25.69 10.53
1/13/2023 5:30:00 AM 9.21 48.578 0.42 7.8 23.41 10.52
1/13/2023 5:45:00 AM 9.22 48.596 0.418 7.8 24.58 10.51
1/13/2023 6:00:00 AM 9.23 48.614 0.416 7.79 977.91 10.51
1/13/2023 6:15:00 AM 9.23 48.614 0.413 7.79 43.51 10.51
1/13/2023 6:30:00 AM 9.23 48.614 0.411 7.78 19.74 10.53
1/13/2023 6:45:00 AM 9.23 48.614 0.409 7.77 20.98 10.56
1/13/2023 7:00:00 AM 9.22 48.596 0.408 7.78 19.95 10.57
1/13/2023 7:15:00 AM 9.21 48.578 0.408 7.78 20.94 10.57
1/13/2023 7:30:00 AM 9.2 48.56 0.407 7.78 20.98 10.59
1/13/2023 7:45:00 AM 9.19 48.542 0.407 7.78 21.36 10.61
1/13/2023 8:00:00 AM 9.16 48.488 0.406 7.77 22.14 10.6
1/13/2023 8:15:00 AM 9.13 48.434 0.403 7.77 33.19 10.61
1/13/2023 8:30:00 AM 9.11 48.398 0.4 7.78 32.36 10.63
1/13/2023 8:45:00 AM 9.06 48.308 0.396 7.78 36.49 10.64
1/13/2023 9:00:00 AM 9.03 48.254 0.393 7.77 44.56 10.67
1/13/2023 9:15:00 AM 9.01 48.218 0.391 7.77 113.57 10.74
1/13/2023 9:30:00 AM 8.99 48.182 0.388 7.78 38.8 10.82
1/13/2023 9:45:00 AM 8.98 48.164 0.386 7.78 130.57 10.92
1/13/2023 10:00:00 AM 8.98 48.164 0.384 7.82 21.66 10.99
1/13/2023 10:15:00 AM 9.02 48.236 0.384 7.81 20.8 11.14
1/13/2023 10:30:00 AM 9.03 48.254 0.384 7.83 21.01 11.29
1/13/2023 10:45:00 AM 9.03 48.254 0.383 7.84 21.03 11.4
1/13/2023 11:00:00 AM 9.01 48.218 0.384 7.86 20.86 11.51
1/13/2023 11:15:00 AM 9 48.2 0.385 7.87 20.39 11.61
1/13/2023 11:30:00 AM 8.98 48.164 0.385 7.89 20.31 11.7
1/13/2023 11:45:00 AM 8.96 48.128 0.385 7.9 20.66 11.76
1/13/2023 12:00:00 PM 8.92 48.056 0.386 7.91 20.46 11.79
1/13/2023 12:15:00 PM 8.9 48.02 0.386 7.91 20.3 11.83
1/13/2023 12:30:00 PM 8.87 47.966 0.387 7.93 20.01 11.9
1/13/2023 12:45:00 PM 8.84 47.912 0.387 7.93 20.89 11.94
1/13/2023 1:00:00 PM 8.83 47.894 0.388 7.94 20.19 11.99
1/13/2023 1:15:00 PM 8.82 47.876 0.388 7.96 20.44 12.08
1/13/2023 1:30:00 PM 8.81 47.858 0.389 7.98 21.44 12.14
1/13/2023 1:45:00 PM 8.82 47.876 0.39 8 22.01 12.2
1/13/2023 2:00:00 PM 8.81 47.858 0.391 8.01 21.56 12.27
1/13/2023 2:15:00 PM 8.8 47.84 0.39 8.03 21.3 12.31
1/13/2023 2:30:00 PM 8.79 47.822 0.391 8.04 56.84 12.33
1/13/2023 2:45:00 PM 8.76 47.768 0.39 8.06 147.3 12.34
1/13/2023 3:00:00 PM 8.72 47.696 0.39 8.05 25.66 12.29
1/13/2023 3:15:00 PM 8.67 47.606 0.391 8.05 70.41 12.23
1/13/2023 3:30:00 PM 8.62 47.516 0.39 8.04 40.6 12.15
1/13/2023 3:45:00 PM 8.58 47.444 0.391 8.04 129.86 12.11
1/13/2023 4:00:00 PM 8.52 47.336 0.391 8.04 20.9 12.07
1/13/2023 4:15:00 PM 8.46 47.228 0.392 8.03 26.26 12.01
1/13/2023 4:30:00 PM 8.42 47.156 0.393 8.02 19.78 11.98
1/13/2023 4:45:00 PM 8.36 47.048 0.395 8.02 21.16 11.92
1/13/2023 5:00:00 PM 8.31 46.958 0.396 8.01 18.93 11.86
1/13/2023 5:15:00 PM 8.26 46.868 0.398 8 19.92 11.79
1/13/2023 5:30:00 PM 8.21 46.778 0.399 7.99 19.93 11.73
1/13/2023 5:45:00 PM 8.15 46.67 0.401 7.98 20.6 11.71
1/13/2023 6:00:00 PM 8.09 46.562 0.402 7.98 23.25 11.67
1/13/2023 6:15:00 PM 8.03 46.454 0.404 7.97 21.35 11.63
1/13/2023 6:30:00 PM 7.98 46.364 0.405 7.96 24.26 11.59
1/13/2023 6:45:00 PM 7.92 46.256 0.407 7.95 23.58 11.56
1/13/2023 7:00:00 PM 7.85 46.13 0.409 7.94 25.1 11.53
1/13/2023 7:15:00 PM 7.78 46.004 0.411 7.93 26.89 11.52
1/13/2023 7:30:00 PM 7.71 45.878 0.412 7.92 26.88 11.5
1/13/2023 7:45:00 PM 7.66 45.788 0.414 7.92 29.31 11.49
1/13/2023 8:00:00 PM 7.59 45.662 0.415 7.91 29.94 11.46
1/13/2023 8:15:00 PM 7.52 45.536 0.416 7.91 31.2 11.48
1/13/2023 8:30:00 PM 7.47 45.446 0.417 7.9 28.56 11.47
1/13/2023 8:45:00 PM 7.4 45.32 0.419 7.9 28.18 11.47
1/13/2023 9:00:00 PM 7.34 45.212 0.42 7.89 29.24 11.47
1/13/2023 9:15:00 PM 7.27 45.086 0.421 7.89 26.63 11.47
1/13/2023 9:30:00 PM 7.21 44.978 0.422 7.89 29.07 11.48
1/13/2023 9:45:00 PM 7.15 44.87 0.423 7.88 27.96 11.48
1/13/2023 10:00:00 PM 7.08 44.744 0.424 7.88 28.21 11.49
1/13/2023 10:15:00 PM 7.01 44.618 0.425 7.88 30.01 11.5
1/13/2023 10:30:00 PM 6.94 44.492 0.426 7.88 24.69 11.51
1/13/2023 10:45:00 PM 6.87 44.366 0.427 7.88 28.13 11.54
1/13/2023 11:00:00 PM 6.81 44.258 0.428 7.88 31.15 11.55
1/13/2023 11:15:00 PM 6.76 44.168 0.429 7.88 30.59 11.56
1/13/2023 11:30:00 PM 6.71 44.078 0.43 7.88 32.88 11.58
1/13/2023 11:45:00 PM 6.66 43.988 0.431 7.88 32.2 11.59
1/14/2023 12:00:00 AM 6.61 43.898 0.432 7.88 26.42 11.61
1/14/2023 12:15:00 AM 6.55 43.79 0.433 7.88 28.72 11.63
1/14/2023 12:30:00 AM 6.5 43.7 0.434 7.88 25.64 11.64
1/14/2023 12:45:00 AM 6.45 43.61 0.435 7.88 29.29 11.66
1/14/2023 1:00:00 AM 6.41 43.538 0.435 7.88 28.45 11.67
1/14/2023 1:15:00 AM 6.34 43.412 0.436 7.88 21.19 11.69
1/14/2023 1:30:00 AM 6.29 43.322 0.436 7.88 20.58 11.71
1/14/2023 1:45:00 AM 6.25 43.25 0.437 7.89 21.9 11.73
1/14/2023 2:00:00 AM 6.19 43.142 0.438 7.88 20.43 11.75
1/14/2023 2:15:00 AM 6.14 43.052 0.439 7.88 23.63 11.77
1/14/2023 2:30:00 AM 6.1 42.98 0.439 7.89 35.76 11.78
1/14/2023 2:45:00 AM 6.05 42.89 0.439 7.89 27.94 11.79
1/14/2023 3:00:00 AM 6.01 42.818 0.44 7.89 24.44 11.82
1/14/2023 3:15:00 AM -99999.99 -179968 -99999.99 -99999.99 -99999.99 -99999.99
1/14/2023 3:30:00 AM 5.91 42.638 0.441 7.89 29.96 11.85
1/14/2023 3:45:00 AM 5.86 42.548 0.441 7.9 36.09 11.87
1/14/2023 4:00:00 AM 5.83 42.494 0.442 7.89 32.72 11.88
1/14/2023 4:15:00 AM 5.79 42.422 0.442 7.9 28.81 11.9
1/14/2023 4:30:00 AM 5.74 42.332 0.443 7.9 31.25 11.92
1/14/2023 4:45:00 AM 5.7 42.26 0.443 7.9 36.74 11.93
1/14/2023 5:00:00 AM 5.65 42.17 0.443 7.9 29.92 11.95
1/14/2023 5:15:00 AM 5.6 42.08 0.444 7.9 28.72 11.97
1/14/2023 5:30:00 AM 5.56 42.008 0.444 7.9 29.88 11.98
1/14/2023 5:45:00 AM 5.52 41.936 0.444 7.9 30.38 11.99
1/14/2023 6:00:00 AM 5.48 41.864 0.445 7.91 33.81 12.01
1/14/2023 6:15:00 AM 5.44 41.792 0.445 7.91 31.65 12.03
1/14/2023 6:30:00 AM 5.4 41.72 0.445 7.91 33.16 12.04
1/14/2023 6:45:00 AM 5.37 41.666 0.446 7.91 31.81 12.05
1/14/2023 7:00:00 AM 5.33 41.594 0.446 7.91 38.33 12.07
1/14/2023 7:15:00 AM 5.3 41.54 0.446 7.91 36.3 12.09
1/14/2023 7:30:00 AM 5.26 41.468 0.446 7.91 41.86 12.12
1/14/2023 7:45:00 AM 5.23 41.414 0.447 7.92 35.79 12.13
1/14/2023 8:00:00 AM 5.21 41.378 0.447 7.92 38.97 12.15
1/14/2023 8:15:00 AM 5.19 41.342 0.448 7.92 34.7 12.18
1/14/2023 8:30:00 AM 5.18 41.324 0.448 7.92 32.59 12.22
1/14/2023 8:45:00 AM 5.16 41.288 0.448 7.93 42.57 12.27
1/14/2023 9:00:00 AM 5.15 41.27 0.448 7.94 47.73 12.32
1/14/2023 9:15:00 AM 5.12 41.216 0.448 7.94 39.91 12.4
1/14/2023 9:30:00 AM 5.09 41.162 0.449 7.95 37.67 12.48
1/14/2023 9:45:00 AM 5.08 41.144 0.449 7.96 38.34 12.57
1/14/2023 10:00:00 AM 5.07 41.126 0.449 7.97 38.31 12.66
1/14/2023 10:15:00 AM 5.08 41.144 0.449 7.99 41.87 12.75
1/14/2023 10:30:00 AM 5.09 41.162 0.449 8 40.11 12.83
1/14/2023 10:45:00 AM 5.08 41.144 0.449 8.01 28.22 12.92
1/14/2023 11:00:00 AM 5.11 41.198 0.449 8.03 34.17 13.01
1/14/2023 11:15:00 AM 5.11 41.198 0.449 8.04 42.12 13.09
1/14/2023 11:30:00 AM 5.12 41.216 0.449 8.04 34.09 13.19
1/14/2023 11:45:00 AM 5.12 41.216 0.449 8.05 33.09 13.26
1/14/2023 12:00:00 PM 5.14 41.252 0.449 8.06 34.47 13.34
1/14/2023 12:15:00 PM 5.17 41.306 0.449 8.08 30.89 13.42
1/14/2023 12:30:00 PM 5.21 41.378 0.449 8.1 34.04 13.5
1/14/2023 12:45:00 PM 5.24 41.432 0.448 8.12 42.24 13.58
1/14/2023 1:00:00 PM 5.26 41.468 0.448 8.14 37.83 13.65
1/14/2023 1:15:00 PM 5.3 41.54 0.448 8.15 38.84 13.72
1/14/2023 1:30:00 PM 5.32 41.576 0.448 8.17 35.75 13.78
1/14/2023 1:45:00 PM 5.32 41.576 0.448 8.19 34.7 13.82
1/14/2023 2:00:00 PM 5.33 41.594 0.447 8.2 36.33 13.84
1/14/2023 2:15:00 PM 5.36 41.648 0.447 8.22 37.65 13.87
1/14/2023 2:30:00 PM 5.38 41.684 0.447 8.24 31.95 13.9
1/14/2023 2:45:00 PM 5.39 41.702 0.447 8.25 37.6 13.91
1/14/2023 3:00:00 PM 5.38 41.684 0.447 8.26 33.41 13.92
1/14/2023 3:15:00 PM 5.39 41.702 0.447 8.27 30.11 13.93
1/14/2023 3:30:00 PM 5.39 41.702 0.447 8.28 29.97 13.91
1/14/2023 3:45:00 PM 5.37 41.666 0.447 8.29 31.15 13.89
1/14/2023 4:00:00 PM 5.37 41.666 0.447 8.29 32.74 13.83
1/14/2023 4:15:00 PM 5.35 41.63 0.447 8.29 28.03 13.76
1/14/2023 4:30:00 PM 5.33 41.594 0.447 8.29 26.06 13.67
1/14/2023 4:45:00 PM 5.28 41.504 0.448 8.28 25.64 13.55
1/14/2023 5:00:00 PM 5.27 41.486 0.448 8.26 25.26 13.43
1/14/2023 5:15:00 PM 5.24 41.432 0.448 8.25 26.34 13.3
1/14/2023 5:30:00 PM 5.21 41.378 0.448 8.23 24.31 13.19
1/14/2023 5:45:00 PM 5.18 41.324 0.449 8.21 72.58 13.07
1/14/2023 6:00:00 PM 5.12 41.216 0.449 8.2 68.38 12.98
1/14/2023 6:15:00 PM 5.09 41.162 0.45 8.18 47.63 12.9
1/14/2023 6:30:00 PM 5.03 41.054 0.45 8.16 45.37 12.84
1/14/2023 6:45:00 PM 4.97 40.946 0.451 8.14 32.17 12.79
1/14/2023 7:00:00 PM 4.91 40.838 0.451 8.13 28.32 12.75
1/14/2023 7:15:00 PM 4.83 40.694 0.452 8.11 29.76 12.73
1/14/2023 7:30:00 PM 4.76 40.568 0.452 8.1 28.15 12.71
1/14/2023 7:45:00 PM 4.7 40.46 0.452 8.09 46.47 12.69
1/14/2023 8:00:00 PM 4.64 40.352 0.453 8.07 19.22 12.68
1/14/2023 8:15:00 PM 4.6 40.28 0.453 8.06 296.67 12.67
1/14/2023 8:30:00 PM 4.54 40.172 0.454 8.05 285.61 12.66
1/14/2023 8:45:00 PM 4.5 40.1 0.454 8.04 110 12.64
1/14/2023 9:00:00 PM 4.43 39.974 0.454 8.03 46.95 12.63
1/14/2023 9:15:00 PM 4.39 39.902 0.455 8.02 30.61 12.63
1/14/2023 9:30:00 PM 4.3 39.74 0.455 8.01 39.34 12.62
1/14/2023 9:45:00 PM 4.22 39.596 0.456 8 28.51 12.62
1/14/2023 10:00:00 PM 4.11 39.398 0.456 8 107.42 12.63
1/14/2023 10:15:00 PM 4.02 39.236 0.456 7.99 43.03 12.64
1/14/2023 10:30:00 PM 3.95 39.11 0.457 7.98 63.48 12.65
1/14/2023 10:45:00 PM 3.93 39.074 0.457 7.98 242.73 12.66
1/14/2023 11:00:00 PM 3.91 39.038 0.457 7.98 43.11 12.68
1/14/2023 11:15:00 PM 3.9 39.02 0.457 7.97 149.22 12.68
1/14/2023 11:30:00 PM 3.9 39.02 0.457 7.97 957.84 12.68
1/14/2023 11:45:00 PM 3.86 38.948 0.457 7.96 36.45 12.69
1/15/2023 12:00:00 AM 3.8 38.84 0.457 7.96 20.26 12.69
1/15/2023 12:15:00 AM 3.76 38.768 0.457 7.95 21.9 12.72
1/15/2023 12:30:00 AM 3.71 38.678 0.458 7.96 33.11 12.73
1/15/2023 12:45:00 AM 3.63 38.534 0.458 7.95 35.27 12.75
1/15/2023 1:00:00 AM 3.57 38.426 0.458 7.96 30.87 12.76
1/15/2023 1:15:00 AM 3.51 38.318 0.459 7.96 47.55 12.79
1/15/2023 1:30:00 AM 3.46 38.228 0.459 7.96 32.3 12.82
1/15/2023 1:45:00 AM 3.41 38.138 0.459 7.96 28.04 12.83
1/15/2023 2:00:00 AM 3.37 38.066 0.459 7.96 57.85 12.84
1/15/2023 2:15:00 AM 3.33 37.994 0.459 7.95 47.48 12.85
1/15/2023 2:30:00 AM 3.31 37.958 0.46 7.95 50.28 12.87
1/15/2023 2:45:00 AM 3.31 37.958 0.46 7.96 45.59 12.87
1/15/2023 3:00:00 AM 3.31 37.958 0.46 7.96 145.5 12.87
1/15/2023 3:15:00 AM 3.31 37.958 0.46 7.96 36.5 12.87
1/15/2023 3:30:00 AM 3.31 37.958 0.46 7.96 57.1 12.88
1/15/2023 3:45:00 AM 3.32 37.976 0.46 7.96 52.07 12.88
1/15/2023 4:00:00 AM 3.3 37.94 0.461 7.96 44.84 12.88
1/15/2023 4:15:00 AM 3.29 37.922 0.461 7.96 48.46 12.89
1/15/2023 4:30:00 AM 3.28 37.904 0.461 7.96 38.49 12.9
1/15/2023 4:45:00 AM 3.24 37.832 0.461 7.96 69.51 12.92
1/15/2023 5:00:00 AM 3.19 37.742 0.461 7.96 41.88 12.93
1/15/2023 5:15:00 AM 3.17 37.706 0.461 7.96 63.14 12.95
1/15/2023 5:30:00 AM 3.15 37.67 0.462 7.96 49.64 12.95
1/15/2023 5:45:00 AM 3.11 37.598 0.462 7.96 62.74 12.96
1/15/2023 6:00:00 AM 3.09 37.562 0.462 7.97 39.48 12.98
1/15/2023 6:15:00 AM 3.05 37.49 0.462 7.96 37.29 13
1/15/2023 6:30:00 AM 3.02 37.436 0.462 7.96 46.14 13.01
1/15/2023 6:45:00 AM 2.99 37.382 0.463 7.96 122.34 13.03
1/15/2023 7:00:00 AM 2.96 37.328 0.463 7.96 125.2 13.04
1/15/2023 7:15:00 AM 2.93 37.274 0.463 7.96 52.81 13.06
1/15/2023 7:30:00 AM 2.91 37.238 0.463 7.96 111.03 13.08
1/15/2023 7:45:00 AM 2.89 37.202 0.464 7.96 73.87 13.11
1/15/2023 8:00:00 AM 2.87 37.166 0.464 7.96 214.66 13.13
1/15/2023 8:15:00 AM 2.85 37.13 0.464 7.97 213.67 13.16
1/15/2023 8:30:00 AM 2.85 37.13 0.464 7.97 69.24 13.21
1/15/2023 8:45:00 AM 2.85 37.13 0.464 7.98 131.37 13.25
1/15/2023 9:00:00 AM 2.86 37.148 0.464 7.98 172.49 13.29
1/15/2023 9:15:00 AM 2.88 37.184 0.464 7.99 147.48 13.33
1/15/2023 9:30:00 AM 2.91 37.238 0.464 7.99 414.15 13.38
1/15/2023 9:45:00 AM 2.93 37.274 0.464 8 109.94 13.42
1/15/2023 10:00:00 AM 3 37.4 0.464 8.01 52.3 13.47
1/15/2023 10:15:00 AM 3.09 37.562 0.464 8.02 159.71 13.53
1/15/2023 10:30:00 AM 3.17 37.706 0.463 8.03 177 13.6
1/15/2023 10:45:00 AM 3.27 37.886 0.463 8.04 290.83 13.66
1/15/2023 11:00:00 AM 3.4 38.12 0.463 8.05 162.21 13.71
1/15/2023 11:15:00 AM 3.54 38.372 0.463 8.07 204.52 13.77
1/15/2023 11:30:00 AM 3.68 38.624 0.462 8.08 396.01 13.82
1/15/2023 11:45:00 AM 3.82 38.876 0.462 8.09 329.42 13.86
1/15/2023 12:00:00 PM 3.97 39.146 0.462 8.11 319.1 13.88
1/15/2023 12:15:00 PM 4.13 39.434 0.461 8.13 665.93 13.89
1/15/2023 12:30:00 PM 4.31 39.758 0.461 8.14 361.86 13.92
1/15/2023 12:45:00 PM 4.47 40.046 0.461 8.16 276.83 13.95
1/15/2023 1:00:00 PM 4.65 40.37 0.46 8.18 285.43 13.98
1/15/2023 1:15:00 PM 4.83 40.694 0.459 8.2 309.14 13.99
1/15/2023 1:30:00 PM 5 41 0.459 8.22 110.05 13.99
1/15/2023 1:45:00 PM 5.18 41.324 0.458 8.24 100.95 13.98
1/15/2023 2:00:00 PM 5.35 41.63 0.458 8.26 203.97 13.97
1/15/2023 2:15:00 PM 5.49 41.882 0.457 8.27 332.65 13.93
1/15/2023 2:30:00 PM 5.59 42.062 0.457 8.29 430.49 13.89
1/15/2023 2:45:00 PM -99999.99 -179968 -99999.99 -99999.99 -99999.99 -99999.99
1/15/2023 3:00:00 PM 5.75 42.35 0.456 8.32 131.55 13.8
1/15/2023 3:15:00 PM 5.8 42.44 0.456 8.33 230.36 13.73
1/15/2023 3:30:00 PM 5.83 42.494 0.456 8.33 143.6 13.67
1/15/2023 3:45:00 PM 5.86 42.548 0.456 8.33 184.54 13.59
1/15/2023 4:00:00 PM 5.88 42.584 0.456 8.33 313.64 13.5
1/15/2023 4:15:00 PM 5.88 42.584 0.456 8.33 425.5 13.4
1/15/2023 4:30:00 PM 5.88 42.584 0.456 8.32 59.54 13.3
1/15/2023 4:45:00 PM 5.87 42.566 0.456 8.31 229.18 13.18
1/15/2023 5:00:00 PM 5.85 42.53 0.456 8.29 39.36 13.06
1/15/2023 5:15:00 PM 5.84 42.512 0.456 8.27 75.26 12.94
1/15/2023 5:30:00 PM 5.82 42.476 0.456 8.26 33.55 12.84
1/15/2023 5:45:00 PM 5.8 42.44 0.456 8.24 122.08 12.74
1/15/2023 6:00:00 PM 5.79 42.422 0.456 8.23 221.96 12.67
1/15/2023 6:15:00 PM 5.76 42.368 0.456 8.21 183.48 12.61
1/15/2023 6:30:00 PM 5.73 42.314 0.456 8.2 254.63 12.55
1/15/2023 6:45:00 PM 5.7 42.26 0.457 8.19 46.69 12.5
1/15/2023 7:00:00 PM 5.66 42.188 0.457 8.17 309.82 12.47
1/15/2023 7:15:00 PM 5.62 42.116 0.458 8.16 88.15 12.44
1/15/2023 7:30:00 PM 5.56 42.008 0.458 8.15 280.99 12.41
1/15/2023 7:45:00 PM 5.51 41.918 0.458 8.13 292.22 12.4
1/15/2023 8:00:00 PM 5.45 41.81 0.459 8.12 297.31 12.4
1/15/2023 8:15:00 PM 5.38 41.684 0.459 8.11 207.29 12.39
1/15/2023 8:30:00 PM 5.32 41.576 0.459 8.1 253.45 12.4
1/15/2023 8:45:00 PM 5.25 41.45 0.46 8.08 102.99 12.41
1/15/2023 9:00:00 PM 5.16 41.288 0.46 8.07 357.66 12.4
1/15/2023 9:15:00 PM 5.08 41.144 0.46 8.06 350.46 12.4
1/15/2023 9:30:00 PM 5 41 0.461 8.05 204.82 12.4
1/15/2023 9:45:00 PM 4.91 40.838 0.461 8.04 327.33 12.4
1/15/2023 10:00:00 PM 4.84 40.712 0.462 8.03 252.1 12.39
1/15/2023 10:15:00 PM 4.77 40.586 0.462 8.02 248.37 12.39
1/15/2023 10:30:00 PM 4.7 40.46 0.462 8.01 381.66 12.41
1/15/2023 10:45:00 PM 4.63 40.334 0.462 8 224.99 12.43
1/15/2023 11:00:00 PM 4.57 40.226 0.462 7.99 358.92 12.44
1/15/2023 11:15:00 PM 4.52 40.136 0.462 7.99 277.09 12.43
1/15/2023 11:30:00 PM 4.47 40.046 0.462 7.99 534.27 12.44
1/15/2023 11:45:00 PM 4.43 39.974 0.462 7.98 338.15 12.47
1/16/2023 12:00:00 AM 4.39 39.902 0.462 7.97 261.33 12.48
1/16/2023 12:15:00 AM 4.35 39.83 0.462 7.97 284.72 12.49
1/16/2023 12:30:00 AM 4.32 39.776 0.462 7.97 369.32 12.5
1/16/2023 12:45:00 AM 4.29 39.722 0.462 7.97 361.01 12.51
1/16/2023 1:00:00 AM 4.27 39.686 0.462 7.96 367.53 12.51
1/16/2023 1:15:00 AM 4.24 39.632 0.462 7.96 311.9 12.52
1/16/2023 1:30:00 AM 4.2 39.56 0.463 7.96 276.07 12.54
1/16/2023 1:45:00 AM 4.17 39.506 0.462 7.96 612.26 12.54
1/16/2023 2:00:00 AM 4.13 39.434 0.462 7.96 197.69 12.56
1/16/2023 2:15:00 AM 4.09 39.362 0.463 7.96 520.75 12.57
1/16/2023 2:30:00 AM 4.06 39.308 0.463 7.96 656.1 12.58
1/16/2023 2:45:00 AM 4.02 39.236 0.463 7.96 319 12.59
1/16/2023 3:00:00 AM 3.98 39.164 0.463 7.96 207.24 12.6
1/16/2023 3:15:00 AM 3.94 39.092 0.463 7.96 519.78 12.62
1/16/2023 3:30:00 AM 3.89 39.002 0.463 7.96 248.34 12.63
1/16/2023 3:45:00 AM 3.85 38.93 0.463 7.96 295.27 12.65
1/16/2023 4:00:00 AM 3.81 38.858 0.463 7.96 352.8 12.68
1/16/2023 4:15:00 AM 3.77 38.786 0.464 7.96 138.57 12.69
1/16/2023 4:30:00 AM 3.73 38.714 0.464 7.96 272.1 12.71
1/16/2023 4:45:00 AM 3.69 38.642 0.464 7.96 129.56 12.72
1/16/2023 5:00:00 AM 3.65 38.57 0.464 7.96 592.94 12.74
1/16/2023 5:15:00 AM 3.62 38.516 0.464 7.96 686.26 12.75
1/16/2023 5:30:00 AM 3.6 38.48 0.464 7.96 504.59 12.75
1/16/2023 5:45:00 AM 3.57 38.426 0.464 7.96 283.19 12.77
1/16/2023 6:00:00 AM 3.55 38.39 0.465 7.96 319.92 12.77
1/16/2023 6:15:00 AM 3.54 38.372 0.465 7.96 124.18 12.77
1/16/2023 6:30:00 AM 3.53 38.354 0.465 7.96 421.12 12.78
1/16/2023 6:45:00 AM 3.55 38.39 0.465 7.96 384.86 12.77
1/16/2023 7:00:00 AM 3.56 38.408 0.465 7.97 368.28 12.77
1/16/2023 7:15:00 AM 3.57 38.426 0.465 7.97 303.92 12.78
1/16/2023 7:30:00 AM 3.56 38.408 0.465 7.97 86.91 12.78
1/16/2023 7:45:00 AM 3.57 38.426 0.465 7.97 149.01 12.79
1/16/2023 8:00:00 AM 3.57 38.426 0.465 7.97 188.77